Darstellungsparameter: Aktuell verwendete Einstellungen:
Skalierung der Graphiken ... ?
xyx+y,   Skalierungsfaktor:      Skalierung: Modus: x, Faktor: 1
Darstellungszeitraum ... ?
Vom - - bis: - -   Zeitraum: 18.07.2016 - 17.08.2016
Min/Max/Avg-Anzeige ... ?
Zeige MMA aktuell
Zeige MMA Monat
Zeige MMA alles
Zeige --A aktuell
Zeige --A Monat
Zeige --A alles
Keine MMA-Anzeige
MMA:
Keine MMA-Graphiken
MMA-Basis: 18.07.2016 - 17.08.2016
Quicknavigation für Darstellung... ?
Tage:      1T, 2T, 3T, 5T -1T -2T -3T -5T +1T +2T +3T +5T
Wochen: 1W, 2W, 3W -1W -2W -3W +1W +2W +3W
Monate: 1M, 3M, 6M -1M -3M -6M +1M +3M +6M
Jahre:    1J, 3J, 5J, 10J -1J -3J -5J -10J +1J +3J +5J +10J
Nutze für die Darstellung ... ?
Originaldaten oder Mittelwerte auf ...
Stundenbasis Tagesbasis Wochenbasis
Monatsbasis Jahresbasis      Datenbasis: Original-Daten
Darstellen als:
Statistik (Auto) Statistik J:M      Darstellung:
Zur Graphik,    zurück zur Übersicht aller Sensoren.
 
Tabellarische Datenbersicht: ?
 
Sensor: Nr:Datum:Temp:Feuchte:Taupunkt:
Aussen-T/F 1 18-07-2016 00:00:00 19.8 C 88 % 17.75 C
2 18-07-2016 00:05:00 19.8 C 88 % 17.75 C
3 18-07-2016 00:10:00 19.7 C 89 % 17.84 C
4 18-07-2016 00:15:00 19.6 C 89 % 17.74 C
5 18-07-2016 00:20:00 19.5 C 89 % 17.64 C
6 18-07-2016 00:25:00 19.4 C 89 % 17.54 C
7 18-07-2016 00:30:00 19.4 C 89 % 17.54 C
8 18-07-2016 00:35:00 19.3 C 89 % 17.44 C
9 18-07-2016 00:40:00 19.3 C 89 % 17.44 C
10 18-07-2016 00:45:00 19.2 C 90 % 17.52 C
11 18-07-2016 00:50:00 19.1 C 90 % 17.42 C
12 18-07-2016 00:55:00 19.1 C 90 % 17.42 C
13 18-07-2016 01:00:00 19 C 90 % 17.32 C
14 18-07-2016 01:05:00 18.9 C 90 % 17.22 C
15 18-07-2016 01:10:00 18.9 C 91 % 17.4 C
16 18-07-2016 01:15:00 18.8 C 91 % 17.3 C
17 18-07-2016 01:20:00 18.8 C 91 % 17.3 C
18 18-07-2016 01:25:00 18.7 C 91 % 17.2 C
19 18-07-2016 01:30:00 18.7 C 92 % 17.37 C
20 18-07-2016 01:35:00 18.7 C 92 % 17.37 C
21 18-07-2016 01:40:00 18.7 C 92 % 17.37 C
22 18-07-2016 01:45:00 18.7 C 92 % 17.37 C
23 18-07-2016 01:50:00 18.6 C 92 % 17.27 C
24 18-07-2016 01:55:00 18.6 C 92 % 17.27 C
25 18-07-2016 02:00:00 18.4 C 92 % 17.08 C
Sensor: Nr:Datum:Temp:Feuchte:Taupunkt:
Aussen-T/F 26 18-07-2016 02:05:00 18.4 C 92 % 17.08 C
27 18-07-2016 02:10:00 18.3 C 92 % 16.98 C
28 18-07-2016 02:15:00 18.3 C 92 % 16.98 C
29 18-07-2016 02:20:00 18.2 C 92 % 16.88 C
30 18-07-2016 02:25:00 18.2 C 92 % 16.88 C
31 18-07-2016 02:30:00 18.1 C 92 % 16.78 C
32 18-07-2016 02:35:00 18 C 93 % 16.85 C
33 18-07-2016 02:40:00 17.9 C 93 % 16.75 C
34 18-07-2016 02:45:00 17.9 C 93 % 16.75 C
35 18-07-2016 02:50:00 17.9 C 93 % 16.75 C
36 18-07-2016 02:55:00 17.8 C 93 % 16.65 C
37 18-07-2016 03:00:00 17.8 C 93 % 16.65 C
38 18-07-2016 03:05:00 17.7 C 93 % 16.55 C
39 18-07-2016 03:10:00 17.7 C 93 % 16.55 C
40 18-07-2016 03:15:00 17.6 C 93 % 16.45 C
41 18-07-2016 03:20:00 17.6 C 93 % 16.45 C
42 18-07-2016 03:25:00 17.6 C 93 % 16.45 C
43 18-07-2016 03:30:00 17.6 C 93 % 16.45 C
44 18-07-2016 03:35:00 17.6 C 93 % 16.45 C
45 18-07-2016 03:40:00 17.6 C 94 % 16.62 C
46 18-07-2016 03:45:00 17.6 C 94 % 16.62 C
47 18-07-2016 03:50:00 17.6 C 94 % 16.62 C
48 18-07-2016 03:55:00 17.6 C 94 % 16.62 C
49 18-07-2016 04:00:00 17.5 C 94 % 16.52 C
50 18-07-2016 04:05:00 17.5 C 94 % 16.52 C
Sensor: Nr:Datum:Temp:Feuchte:Taupunkt:
Aussen-T/F 51 18-07-2016 04:10:00 17.4 C 94 % 16.42 C
52 18-07-2016 04:15:00 17.4 C 94 % 16.42 C
53 18-07-2016 04:20:00 17.4 C 94 % 16.42 C
54 18-07-2016 04:25:00 17.3 C 94 % 16.33 C
55 18-07-2016 04:30:00 17.3 C 93 % 16.16 C
56 18-07-2016 04:35:00 17.3 C 94 % 16.33 C
57 18-07-2016 04:40:00 17.3 C 94 % 16.33 C
58 18-07-2016 04:45:00 17.3 C 94 % 16.33 C
59 18-07-2016 04:50:00 17.2 C 94 % 16.23 C
60 18-07-2016 04:55:00 17.2 C 94 % 16.23 C
61 18-07-2016 05:00:00 17.1 C 94 % 16.13 C
62 18-07-2016 05:05:00 16.9 C 93 % 15.76 C
63 18-07-2016 05:10:00 16.8 C 93 % 15.66 C
64 18-07-2016 05:15:00 16.8 C 94 % 15.83 C
65 18-07-2016 05:20:00 16.7 C 94 % 15.73 C
66 18-07-2016 05:25:00 16.6 C 94 % 15.63 C
67 18-07-2016 05:30:00 16.5 C 94 % 15.53 C
68 18-07-2016 05:35:00 16.4 C 94 % 15.43 C
69 18-07-2016 05:40:00 16.4 C 94 % 15.43 C
70 18-07-2016 05:45:00 16.3 C 94 % 15.33 C
71 18-07-2016 05:50:00 16.3 C 94 % 15.33 C
72 18-07-2016 05:55:00 16.2 C 94 % 15.23 C
73 18-07-2016 06:00:00 16.2 C 94 % 15.23 C
74 18-07-2016 06:05:00 16.2 C 94 % 15.23 C
75 18-07-2016 06:10:00 16.1 C 94 % 15.13 C
Sensor: Nr:Datum:Temp:Feuchte:Taupunkt:
Aussen-T/F 76 18-07-2016 06:15:00 16.2 C 95 % 15.4 C
77 18-07-2016 06:20:00 16.2 C 95 % 15.4 C
78 18-07-2016 06:25:00 16.3 C 95 % 15.5 C
79 18-07-2016 06:30:00 16.3 C 95 % 15.5 C
80 18-07-2016 06:35:00 16.3 C 95 % 15.5 C
81 18-07-2016 06:40:00 16.3 C 95 % 15.5 C
82 18-07-2016 06:45:00 16.3 C 95 % 15.5 C
83 18-07-2016 06:50:00 16.4 C 95 % 15.6 C
84 18-07-2016 06:55:00 16.4 C 95 % 15.6 C
85 18-07-2016 07:00:00 16.4 C 95 % 15.6 C
86 18-07-2016 07:05:00 16.3 C 95 % 15.5 C
87 18-07-2016 07:10:00 16.3 C 95 % 15.5 C
88 18-07-2016 07:15:00 16.3 C 95 % 15.5 C
89 18-07-2016 07:20:00 16.3 C 95 % 15.5 C
90 18-07-2016 07:25:00 16.3 C 95 % 15.5 C
91 18-07-2016 07:30:00 16.3 C 95 % 15.5 C
92 18-07-2016 07:35:00 16.3 C 95 % 15.5 C
93 18-07-2016 07:40:00 16.4 C 95 % 15.6 C
94 18-07-2016 07:45:00 16.4 C 95 % 15.6 C
95 18-07-2016 07:50:00 16.4 C 95 % 15.6 C
96 18-07-2016 07:55:00 16.5 C 95 % 15.7 C
97 18-07-2016 08:00:00 16.6 C 95 % 15.8 C
98 18-07-2016 08:05:00 16.6 C 95 % 15.8 C
99 18-07-2016 08:10:00 16.7 C 95 % 15.9 C
100 18-07-2016 08:15:00 16.7 C 95 % 15.9 C
Sensor: Nr:Datum:Temp:Feuchte:Taupunkt:
Aussen-T/F 101 18-07-2016 08:20:00 16.8 C 95 % 15.99 C
102 18-07-2016 08:25:00 16.9 C 96 % 16.26 C
103 18-07-2016 08:30:00 17 C 96 % 16.36 C
104 18-07-2016 08:35:00 17.1 C 95 % 16.29 C
105 18-07-2016 08:40:00 17.2 C 95 % 16.39 C
106 18-07-2016 08:45:00 17.2 C 96 % 16.56 C
107 18-07-2016 08:50:00 17.3 C 96 % 16.66 C
108 18-07-2016 08:55:00 17.4 C 96 % 16.76 C
109 18-07-2016 09:00:00 17.5 C 96 % 16.85 C
110 18-07-2016 09:05:00 17.6 C 96 % 16.95 C
111 18-07-2016 09:10:00 17.7 C 96 % 17.05 C
112 18-07-2016 09:15:00 17.8 C 95 % 16.99 C
113 18-07-2016 09:20:00 17.8 C 95 % 16.99 C
114 18-07-2016 09:25:00 18 C 96 % 17.35 C
115 18-07-2016 09:30:00 18.2 C 95 % 17.39 C
116 18-07-2016 09:35:00 18.3 C 96 % 17.65 C
117 18-07-2016 09:40:00 18.5 C 95 % 17.68 C
118 18-07-2016 09:45:00 18.6 C 95 % 17.78 C
119 18-07-2016 09:50:00 18.7 C 95 % 17.88 C
120 18-07-2016 09:55:00 18.7 C 95 % 17.88 C
121 18-07-2016 10:00:00 18.9 C 94 % 17.91 C
122 18-07-2016 10:05:00 19 C 94 % 18.01 C
123 18-07-2016 10:10:00 19.2 C 94 % 18.21 C
124 18-07-2016 10:15:00 19.3 C 93 % 18.14 C
125 18-07-2016 10:20:00 19.7 C 92 % 18.36 C
Sensor: Nr:Datum:Temp:Feuchte:Taupunkt:
Aussen-T/F 126 18-07-2016 10:25:00 20.1 C 91 % 18.58 C
127 18-07-2016 10:30:00 20.6 C 88 % 18.54 C
128 18-07-2016 10:35:00 21.2 C 86 % 18.76 C
129 18-07-2016 10:40:00 21.8 C 84 % 18.97 C
130 18-07-2016 10:45:00 22.4 C 80 % 18.78 C
131 18-07-2016 10:50:00 22.8 C 77 % 18.56 C
132 18-07-2016 10:55:00 23.1 C 76 % 18.64 C
133 18-07-2016 11:00:00 23.2 C 78 % 19.15 C
134 18-07-2016 11:05:00 23 C 77 % 18.75 C
135 18-07-2016 11:10:00 22.8 C 78 % 18.76 C
136 18-07-2016 11:15:00 22.7 C 76 % 18.25 C
137 18-07-2016 11:20:00 22.6 C 77 % 18.36 C
138 18-07-2016 11:25:00 22.7 C 73 % 17.61 C
139 18-07-2016 11:30:00 22.9 C 73 % 17.8 C
140 18-07-2016 11:35:00 23.1 C 72 % 17.78 C
141 18-07-2016 11:40:00 23.2 C 72 % 17.87 C
142 18-07-2016 11:45:00 23.3 C 72 % 17.97 C
143 18-07-2016 11:50:00 23.4 C 71 % 17.84 C
144 18-07-2016 11:55:00 23.5 C 67 % 17.02 C
145 18-07-2016 12:00:00 23.6 C 69 % 17.58 C
146 18-07-2016 12:05:00 23.7 C 68 % 17.44 C
147 18-07-2016 12:10:00 23.7 C 68 % 17.44 C
148 18-07-2016 12:15:00 23.7 C 68 % 17.44 C
149 18-07-2016 12:20:00 23.7 C 69 % 17.67 C
150 18-07-2016 12:25:00 23.7 C 67 % 17.21 C
Sensor: Nr:Datum:Temp:Feuchte:Taupunkt:
Aussen-T/F 151 18-07-2016 12:30:00 23.8 C 66 % 17.07 C
152 18-07-2016 12:35:00 23.9 C 65 % 16.92 C
153 18-07-2016 12:40:00 24 C 66 % 17.26 C
154 18-07-2016 12:45:00 24 C 67 % 17.49 C
155 18-07-2016 12:50:00 24.1 C 65 % 17.11 C
156 18-07-2016 12:55:00 24.2 C 63 % 16.71 C
157 18-07-2016 13:00:00 24.3 C 66 % 17.54 C
158 18-07-2016 13:05:00 24.3 C 71 % 18.7 C
159 18-07-2016 13:10:00 24.2 C 64 % 16.96 C
160 18-07-2016 13:15:00 24.3 C 65 % 17.3 C
161 18-07-2016 13:20:00 24.4 C 64 % 17.15 C
162 18-07-2016 13:25:00 24.5 C 68 % 18.2 C
163 18-07-2016 13:30:00 24.4 C 65 % 17.39 C
164 18-07-2016 13:35:00 24.3 C 61 % 16.3 C
165 18-07-2016 13:40:00 24.3 C 61 % 16.3 C
166 18-07-2016 13:45:00 24.5 C 63 % 16.99 C
167 18-07-2016 13:50:00 24.5 C 58 % 15.7 C
168 18-07-2016 13:55:00 24.7 C 59 % 16.15 C
169 18-07-2016 14:00:00 24.9 C 56 % 15.52 C
170 18-07-2016 14:05:00 24.9 C 54 % 14.95 C
171 18-07-2016 14:10:00 24.9 C 57 % 15.8 C
172 18-07-2016 14:15:00 24.9 C 53 % 14.66 C
173 18-07-2016 14:20:00 25 C 56 % 15.61 C
174 18-07-2016 14:25:00 25.2 C 56 % 15.8 C
175 18-07-2016 14:30:00 25.3 C 53 % 15.03 C
Sensor: Nr:Datum:Temp:Feuchte:Taupunkt:
Aussen-T/F 176 18-07-2016 14:35:00 25.6 C 53 % 15.31 C
177 18-07-2016 14:40:00 25.7 C 48 % 13.87 C
178 18-07-2016 14:45:00 25.8 C 52 % 15.2 C
179 18-07-2016 14:50:00 25.8 C 52 % 15.2 C
180 18-07-2016 14:55:00 25.9 C 52 % 15.29 C
181 18-07-2016 15:00:00 26 C 55 % 16.26 C
182 18-07-2016 15:05:00 26 C 52 % 15.38 C
183 18-07-2016 15:10:00 26.1 C 54 % 16.07 C
184 18-07-2016 15:15:00 26.4 C 51 % 15.45 C
185 18-07-2016 15:20:00 26.8 C 51 % 15.82 C
186 18-07-2016 15:25:00 26.9 C 49 % 15.28 C
187 18-07-2016 15:30:00 26.9 C 49 % 15.28 C
188 18-07-2016 15:35:00 27.3 C 46 % 14.67 C
189 18-07-2016 15:40:00 27.8 C 45 % 14.78 C
190 18-07-2016 15:45:00 28.1 C 46 % 15.39 C
191 18-07-2016 15:50:00 28.2 C 53 % 17.71 C
192 18-07-2016 15:55:00 28.3 C 55 % 18.39 C
193 18-07-2016 16:00:00 28.5 C 43 % 14.71 C
194 18-07-2016 16:05:00 28.7 C 45 % 15.59 C
195 18-07-2016 16:10:00 29.1 C 44 % 15.6 C
196 18-07-2016 16:15:00 29.3 C 49 % 17.48 C
197 18-07-2016 16:20:00 29.5 C 44 % 15.96 C
198 18-07-2016 16:25:00 29.4 C 43 % 15.51 C
199 18-07-2016 16:30:00 29.2 C 43 % 15.33 C
200 18-07-2016 16:35:00 29.1 C 44 % 15.6 C
Sensor: Nr:Datum:Temp:Feuchte:Taupunkt:
Aussen-T/F 201 18-07-2016 16:40:00 28.9 C 43 % 15.06 C
202 18-07-2016 16:45:00 28.7 C 46 % 15.94 C
203 18-07-2016 16:50:00 28.7 C 46 % 15.94 C
204 18-07-2016 16:55:00 28.9 C 47 % 16.45 C
205 18-07-2016 17:00:00 29.1 C 42 % 14.88 C
206 18-07-2016 17:05:00 29.4 C 48 % 17.24 C
207 18-07-2016 17:10:00 29.5 C 44 % 15.96 C
208 18-07-2016 17:15:00 29.7 C 46 % 16.84 C
209 18-07-2016 17:20:00 29.7 C 44 % 16.14 C
210 18-07-2016 17:25:00 29.8 C 47 % 17.27 C
211 18-07-2016 17:30:00 29.9 C 47 % 17.36 C
212 18-07-2016 17:35:00 30 C 45 % 16.77 C
213 18-07-2016 17:40:00 30.2 C 44 % 16.59 C
214 18-07-2016 17:45:00 30.2 C 43 % 16.23 C
215 18-07-2016 17:50:00 30.2 C 43 % 16.23 C
216 18-07-2016 17:55:00 30.1 C 44 % 16.5 C
217 18-07-2016 18:00:00 30 C 43 % 16.05 C
218 18-07-2016 18:05:00 29.9 C 41 % 15.22 C
219 18-07-2016 18:10:00 29.8 C 42 % 15.51 C
220 18-07-2016 18:15:00 29.8 C 41 % 15.13 C
221 18-07-2016 18:20:00 29.9 C 42 % 15.6 C
222 18-07-2016 18:25:00 29.9 C 44 % 16.32 C
223 18-07-2016 18:30:00 30 C 50 % 18.44 C
224 18-07-2016 18:35:00 30.3 C 53 % 19.65 C
225 18-07-2016 18:40:00 30.6 C 42 % 16.22 C
Sensor: Nr:Datum:Temp:Feuchte:Taupunkt:
Aussen-T/F 226 18-07-2016 18:45:00 30.7 C 40 % 15.55 C
227 18-07-2016 18:50:00 30.3 C 42 % 15.95 C
228 18-07-2016 18:55:00 30.1 C 40 % 15.01 C
229 18-07-2016 19:00:00 30.1 C 43 % 16.14 C
230 18-07-2016 19:05:00 30.2 C 46 % 17.3 C
231 18-07-2016 19:10:00 30.3 C 42 % 15.95 C
232 18-07-2016 19:15:00 30.2 C 42 % 15.86 C
233 18-07-2016 19:20:00 30.1 C 49 % 18.21 C
234 18-07-2016 19:25:00 29.8 C 52 % 18.88 C
235 18-07-2016 19:30:00 29.4 C 54 % 19.12 C
236 18-07-2016 19:35:00 29 C 55 % 19.04 C
237 18-07-2016 19:40:00 28.6 C 56 % 18.96 C
238 18-07-2016 19:45:00 28.2 C 57 % 18.87 C
239 18-07-2016 19:50:00 27.7 C 58 % 18.68 C
240 18-07-2016 19:55:00 27.2 C 60 % 18.76 C
241 18-07-2016 20:00:00 26.7 C 61 % 18.55 C
242 18-07-2016 20:05:00 26.4 C 62 % 18.53 C
243 18-07-2016 20:10:00 26.2 C 63 % 18.6 C
244 18-07-2016 20:15:00 25.9 C 63 % 18.31 C
245 18-07-2016 20:20:00 25.7 C 64 % 18.38 C
246 18-07-2016 20:25:00 25.5 C 64 % 18.19 C
247 18-07-2016 20:30:00 25.3 C 65 % 18.25 C
248 18-07-2016 20:35:00 25.1 C 64 % 17.81 C
249 18-07-2016 20:40:00 24.9 C 65 % 17.87 C
250 18-07-2016 20:45:00 24.6 C 65 % 17.58 C
Sensor: Nr:Datum:Temp:Feuchte:Taupunkt:
Aussen-T/F 251 18-07-2016 20:50:00 24.3 C 66 % 17.54 C
252 18-07-2016 20:55:00 24.1 C 67 % 17.59 C
253 18-07-2016 21:00:00 23.7 C 67 % 17.21 C
254 18-07-2016 21:05:00 23.4 C 68 % 17.16 C
255 18-07-2016 21:10:00 23.2 C 69 % 17.2 C
256 18-07-2016 21:15:00 22.8 C 70 % 17.04 C
257 18-07-2016 21:20:00 22.6 C 71 % 17.07 C
258 18-07-2016 21:25:00 22.2 C 71 % 16.69 C
259 18-07-2016 21:30:00 22.1 C 71 % 16.6 C
260 18-07-2016 21:35:00 21.8 C 72 % 16.53 C
261 18-07-2016 21:40:00 21.7 C 72 % 16.43 C
262 18-07-2016 21:45:00 21.6 C 73 % 16.55 C
263 18-07-2016 21:50:00 21.4 C 74 % 16.57 C
264 18-07-2016 21:55:00 21.2 C 74 % 16.38 C
265 18-07-2016 22:00:00 20.9 C 75 % 16.3 C
266 18-07-2016 22:05:00 20.8 C 75 % 16.21 C
267 18-07-2016 22:10:00 20.7 C 76 % 16.32 C
268 18-07-2016 22:15:00 20.6 C 77 % 16.43 C
269 18-07-2016 22:20:00 20.4 C 77 % 16.23 C
270 18-07-2016 22:25:00 20.2 C 78 % 16.24 C
271 18-07-2016 22:30:00 20 C 78 % 16.05 C
272 18-07-2016 22:35:00 19.8 C 79 % 16.05 C
273 18-07-2016 22:40:00 19.7 C 80 % 16.15 C
274 18-07-2016 22:45:00 19.5 C 79 % 15.76 C
275 18-07-2016 22:50:00 19.4 C 80 % 15.86 C
Sensor: Nr:Datum:Temp:Feuchte:Taupunkt:
Aussen-T/F 276 18-07-2016 22:55:00 19.3 C 80 % 15.76 C
277 18-07-2016 23:00:00 19.2 C 80 % 15.67 C
278 18-07-2016 23:05:00 19 C 81 % 15.67 C
279 18-07-2016 23:10:00 18.9 C 81 % 15.57 C
280 18-07-2016 23:15:00 18.8 C 81 % 15.47 C
281 18-07-2016 23:20:00 18.7 C 82 % 15.57 C
282 18-07-2016 23:25:00 18.6 C 83 % 15.66 C
283 18-07-2016 23:30:00 18.4 C 83 % 15.46 C
284 18-07-2016 23:35:00 18.3 C 83 % 15.36 C
285 18-07-2016 23:40:00 18.3 C 83 % 15.36 C
286 18-07-2016 23:45:00 18.2 C 83 % 15.27 C
287 18-07-2016 23:50:00 18.2 C 83 % 15.27 C
288 18-07-2016 23:55:00 18.1 C 84 % 15.35 C
289 19-07-2016 00:00:00 18 C 84 % 15.26 C
290 19-07-2016 00:05:00 17.8 C 85 % 15.25 C
291 19-07-2016 00:10:00 17.8 C 85 % 15.25 C
292 19-07-2016 00:15:00 17.7 C 85 % 15.15 C
293 19-07-2016 00:20:00 17.6 C 86 % 15.23 C
294 19-07-2016 00:25:00 17.4 C 86 % 15.03 C
295 19-07-2016 00:30:00 17.4 C 86 % 15.03 C
296 19-07-2016 00:35:00 17.3 C 86 % 14.94 C
297 19-07-2016 00:40:00 17.3 C 86 % 14.94 C
298 19-07-2016 00:45:00 17.3 C 86 % 14.94 C
299 19-07-2016 00:50:00 17.2 C 87 % 15.02 C
300 19-07-2016 00:55:00 17.1 C 87 % 14.92 C
Sensor: Nr:Datum:Temp:Feuchte:Taupunkt:
Aussen-T/F 301 19-07-2016 01:00:00 17 C 87 % 14.82 C
302 19-07-2016 01:05:00 16.9 C 87 % 14.72 C
303 19-07-2016 01:10:00 16.8 C 88 % 14.8 C
304 19-07-2016 01:15:00 16.8 C 88 % 14.8 C
305 19-07-2016 01:20:00 16.7 C 88 % 14.7 C
306 19-07-2016 01:25:00 16.7 C 88 % 14.7 C
307 19-07-2016 01:30:00 16.7 C 89 % 14.88 C
308 19-07-2016 01:35:00 16.6 C 89 % 14.78 C
309 19-07-2016 01:40:00 16.6 C 89 % 14.78 C
310 19-07-2016 01:45:00 16.5 C 89 % 14.68 C
311 19-07-2016 01:50:00 16.4 C 89 % 14.58 C
312 19-07-2016 01:55:00 16.4 C 90 % 14.76 C
313 19-07-2016 02:00:00 16.4 C 90 % 14.76 C
314 19-07-2016 02:05:00 16.3 C 90 % 14.66 C
315 19-07-2016 02:10:00 16.3 C 90 % 14.66 C
316 19-07-2016 02:15:00 16.3 C 90 % 14.66 C
317 19-07-2016 02:20:00 16.2 C 90 % 14.56 C
318 19-07-2016 02:25:00 16.2 C 90 % 14.56 C
319 19-07-2016 02:30:00 16.1 C 90 % 14.46 C
320 19-07-2016 02:35:00 16 C 90 % 14.36 C
321 19-07-2016 02:40:00 15.9 C 91 % 14.43 C
322 19-07-2016 02:45:00 15.9 C 91 % 14.43 C
323 19-07-2016 02:50:00 15.8 C 91 % 14.33 C
324 19-07-2016 02:55:00 15.8 C 91 % 14.33 C
325 19-07-2016 03:00:00 15.8 C 92 % 14.5 C
Sensor: Nr:Datum:Temp:Feuchte:Taupunkt:
Aussen-T/F 326 19-07-2016 03:05:00 15.7 C 92 % 14.4 C
327 19-07-2016 03:10:00 15.6 C 92 % 14.31 C
328 19-07-2016 03:15:00 15.6 C 92 % 14.31 C
329 19-07-2016 03:20:00 15.5 C 92 % 14.21 C
330 19-07-2016 03:25:00 15.4 C 92 % 14.11 C
331 19-07-2016 03:30:00 15.4 C 92 % 14.11 C
332 19-07-2016 03:35:00 15.4 C 93 % 14.27 C
333 19-07-2016 03:40:00 15.4 C 93 % 14.27 C
334 19-07-2016 03:45:00 15.3 C 93 % 14.18 C
335 19-07-2016 03:50:00 15.3 C 93 % 14.18 C
336 19-07-2016 03:55:00 15.3 C 93 % 14.18 C
337 19-07-2016 04:00:00 15.2 C 93 % 14.08 C
338 19-07-2016 04:05:00 15.2 C 93 % 14.08 C
339 19-07-2016 04:10:00 15.2 C 93 % 14.08 C
340 19-07-2016 04:15:00 15.2 C 93 % 14.08 C
341 19-07-2016 04:20:00 15.1 C 93 % 13.98 C
342 19-07-2016 04:25:00 15.1 C 93 % 13.98 C
343 19-07-2016 04:30:00 14.9 C 93 % 13.78 C
344 19-07-2016 04:35:00 15 C 93 % 13.88 C
345 19-07-2016 04:40:00 14.9 C 93 % 13.78 C
346 19-07-2016 04:45:00 14.9 C 94 % 13.94 C
347 19-07-2016 04:50:00 14.9 C 94 % 13.94 C
348 19-07-2016 04:55:00 14.9 C 94 % 13.94 C
349 19-07-2016 05:00:00 14.8 C 94 % 13.84 C
350 19-07-2016 05:05:00 14.8 C 94 % 13.84 C
Sensor: Nr:Datum:Temp:Feuchte:Taupunkt:
Aussen-T/F 351 19-07-2016 05:10:00 14.7 C 94 % 13.74 C
352 19-07-2016 05:15:00 14.7 C 94 % 13.74 C
353 19-07-2016 05:20:00 14.7 C 94 % 13.74 C
354 19-07-2016 05:25:00 14.7 C 94 % 13.74 C
355 19-07-2016 05:30:00 14.7 C 94 % 13.74 C
356 19-07-2016 05:35:00 14.6 C 94 % 13.65 C
357 19-07-2016 05:40:00 14.5 C 94 % 13.55 C
358 19-07-2016 05:45:00 14.4 C 94 % 13.45 C
359 19-07-2016 05:50:00 14.4 C 94 % 13.45 C
360 19-07-2016 05:55:00 14.4 C 94 % 13.45 C
361 19-07-2016 06:00:00 14.5 C 94 % 13.55 C
362 19-07-2016 06:05:00 14.5 C 94 % 13.55 C
363 19-07-2016 06:10:00 14.6 C 95 % 13.81 C
364 19-07-2016 06:15:00 14.6 C 95 % 13.81 C
365 19-07-2016 06:20:00 14.6 C 95 % 13.81 C
366 19-07-2016 06:25:00 14.6 C 95 % 13.81 C
367 19-07-2016 06:30:00 14.6 C 95 % 13.81 C
368 19-07-2016 06:35:00 14.6 C 95 % 13.81 C
369 19-07-2016 06:40:00 14.7 C 95 % 13.91 C
370 19-07-2016 06:45:00 14.7 C 95 % 13.91 C
371 19-07-2016 06:50:00 14.7 C 95 % 13.91 C
372 19-07-2016 06:55:00 14.7 C 95 % 13.91 C
373 19-07-2016 07:00:00 14.7 C 95 % 13.91 C
374 19-07-2016 07:05:00 14.7 C 95 % 13.91 C
375 19-07-2016 07:10:00 14.8 C 95 % 14.01 C
Sensor: Nr:Datum:Temp:Feuchte:Taupunkt:
Aussen-T/F 376 19-07-2016 07:15:00 14.8 C 95 % 14.01 C
377 19-07-2016 07:20:00 14.9 C 95 % 14.11 C
378 19-07-2016 07:25:00 14.9 C 95 % 14.11 C
379 19-07-2016 07:30:00 15 C 95 % 14.21 C
380 19-07-2016 07:35:00 15.1 C 95 % 14.31 C
381 19-07-2016 07:40:00 15.1 C 95 % 14.31 C
382 19-07-2016 07:45:00 15.2 C 95 % 14.4 C
383 19-07-2016 07:50:00 15.3 C 95 % 14.5 C
384 19-07-2016 07:55:00 15.3 C 95 % 14.5 C
385 19-07-2016 08:00:00 15.4 C 95 % 14.6 C
386 19-07-2016 08:05:00 15.5 C 95 % 14.7 C
387 19-07-2016 08:10:00 15.6 C 95 % 14.8 C
388 19-07-2016 08:15:00 15.7 C 95 % 14.9 C
389 19-07-2016 08:20:00 15.8 C 95 % 15 C
390 19-07-2016 08:25:00 15.8 C 95 % 15 C
391 19-07-2016 08:30:00 15.9 C 95 % 15.1 C
392 19-07-2016 08:35:00 16 C 95 % 15.2 C
393 19-07-2016 08:40:00 16.1 C 95 % 15.3 C
394 19-07-2016 08:45:00 16.2 C 95 % 15.4 C
395 19-07-2016 08:50:00 16.3 C 95 % 15.5 C
396 19-07-2016 08:55:00 16.4 C 95 % 15.6 C
397 19-07-2016 09:00:00 16.6 C 95 % 15.8 C
398 19-07-2016 09:05:00 16.7 C 95 % 15.9 C
399 19-07-2016 09:10:00 16.8 C 95 % 15.99 C
400 19-07-2016 09:15:00 16.9 C 95 % 16.09 C
Sensor: Nr:Datum:Temp:Feuchte:Taupunkt:
Aussen-T/F 401 19-07-2016 09:20:00 17 C 95 % 16.19 C
402 19-07-2016 09:25:00 17.2 C 95 % 16.39 C
403 19-07-2016 09:30:00 17.3 C 95 % 16.49 C
404 19-07-2016 09:35:00 17.4 C 95 % 16.59 C
405 19-07-2016 09:40:00 17.6 C 95 % 16.79 C
406 19-07-2016 09:45:00 17.7 C 94 % 16.72 C
407 19-07-2016 09:50:00 17.9 C 94 % 16.92 C
408 19-07-2016 09:55:00 18 C 94 % 17.02 C
409 19-07-2016 10:00:00 18.2 C 94 % 17.22 C
410 19-07-2016 10:05:00 18.3 C 94 % 17.32 C
411 19-07-2016 10:10:00 18.6 C 94 % 17.62 C
412 19-07-2016 10:15:00 18.8 C 94 % 17.81 C
413 19-07-2016 10:20:00 19 C 93 % 17.84 C
414 19-07-2016 10:25:00 19.3 C 93 % 18.14 C
415 19-07-2016 10:30:00 19.7 C 92 % 18.36 C
416 19-07-2016 10:35:00 20.1 C 91 % 18.58 C
417 19-07-2016 10:40:00 20.5 C 90 % 18.8 C
418 19-07-2016 10:45:00 20.8 C 89 % 18.92 C
419 19-07-2016 10:50:00 21.2 C 88 % 19.13 C
420 19-07-2016 10:55:00 21.3 C 87 % 19.05 C
421 19-07-2016 11:00:00 21.4 C 87 % 19.15 C
422 19-07-2016 11:05:00 21.5 C 87 % 19.24 C
423 19-07-2016 11:10:00 21.6 C 87 % 19.34 C
424 19-07-2016 11:15:00 21.6 C 87 % 19.34 C
425 19-07-2016 11:20:00 21.7 C 87 % 19.44 C
Sensor: Nr:Datum:Temp:Feuchte:Taupunkt:
Aussen-T/F 426 19-07-2016 11:25:00 21.9 C 87 % 19.64 C
427 19-07-2016 11:30:00 22.1 C 87 % 19.83 C
428 19-07-2016 11:35:00 22.4 C 85 % 19.75 C
429 19-07-2016 11:40:00 22.7 C 84 % 19.86 C
430 19-07-2016 11:45:00 22.9 C 83 % 19.86 C
431 19-07-2016 11:50:00 23.2 C 80 % 19.56 C
432 19-07-2016 11:55:00 23.4 C 80 % 19.75 C
433 19-07-2016 12:00:00 23.6 C 77 % 19.33 C
434 19-07-2016 12:05:00 23.9 C 76 % 19.41 C
435 19-07-2016 12:10:00 24.2 C 71 % 18.61 C
436 19-07-2016 12:15:00 24.6 C 69 % 18.53 C
437 19-07-2016 12:20:00 24.9 C 69 % 18.82 C
438 19-07-2016 12:25:00 25 C 67 % 18.44 C
439 19-07-2016 12:30:00 25.2 C 71 % 19.56 C
440 19-07-2016 12:35:00 25.3 C 70 % 19.43 C
441 19-07-2016 12:40:00 25.4 C 65 % 18.34 C
442 19-07-2016 12:45:00 25.7 C 62 % 17.87 C
443 19-07-2016 12:50:00 25.9 C 64 % 18.57 C
444 19-07-2016 12:55:00 26.1 C 60 % 17.73 C
445 19-07-2016 13:00:00 26.3 C 60 % 17.91 C
446 19-07-2016 13:05:00 26.3 C 63 % 18.69 C
447 19-07-2016 13:10:00 26.3 C 60 % 17.91 C
448 19-07-2016 13:15:00 26.4 C 58 % 17.47 C
449 19-07-2016 13:20:00 26.4 C 58 % 17.47 C
450 19-07-2016 13:25:00 26.6 C 58 % 17.66 C
Sensor: Nr:Datum:Temp:Feuchte:Taupunkt:
Aussen-T/F 451 19-07-2016 13:30:00 26.7 C 58 % 17.75 C
452 19-07-2016 13:35:00 26.8 C 57 % 17.57 C
453 19-07-2016 13:40:00 26.9 C 56 % 17.38 C
454 19-07-2016 13:45:00 27.2 C 55 % 17.37 C
455 19-07-2016 13:50:00 27.2 C 56 % 17.66 C
456 19-07-2016 13:55:00 27.2 C 56 % 17.66 C
457 19-07-2016 14:00:00 27.2 C 63 % 19.54 C
458 19-07-2016 14:05:00 26.9 C 67 % 20.25 C
459 19-07-2016 14:10:00 26.4 C 60 % 18.01 C
460 19-07-2016 14:15:00 26.2 C 61 % 18.08 C
461 19-07-2016 14:20:00 26.3 C 64 % 18.94 C
462 19-07-2016 14:25:00 26.3 C 60 % 17.91 C
463 19-07-2016 14:30:00 26.4 C 71 % 20.71 C
464 19-07-2016 14:35:00 26.4 C 72 % 20.94 C
465 19-07-2016 14:40:00 26.2 C 72 % 20.75 C
466 19-07-2016 14:45:00 25.9 C 73 % 20.69 C
467 19-07-2016 14:50:00 25.8 C 75 % 21.03 C
468 19-07-2016 14:55:00 25.5 C 74 % 20.52 C
469 19-07-2016 15:00:00 25.4 C 77 % 21.07 C
470 19-07-2016 15:05:00 25.3 C 66 % 18.49 C
471 19-07-2016 15:10:00 25.6 C 65 % 18.53 C
472 19-07-2016 15:15:00 26 C 74 % 21 C
473 19-07-2016 15:20:00 26.2 C 76 % 21.63 C
474 19-07-2016 15:25:00 26.2 C 73 % 20.97 C
475 19-07-2016 15:30:00 26.2 C 73 % 20.97 C
Sensor: Nr:Datum:Temp:Feuchte:Taupunkt:
Aussen-T/F 476 19-07-2016 15:35:00 26.2 C 73 % 20.97 C
477 19-07-2016 15:40:00 26.4 C 65 % 19.29 C
478 19-07-2016 15:45:00 27.3 C 59 % 18.58 C
479 19-07-2016 15:50:00 28.2 C 64 % 20.74 C
480 19-07-2016 15:55:00 28.6 C 66 % 21.62 C
481 19-07-2016 16:00:00 28.6 C 67 % 21.87 C
482 19-07-2016 16:05:00 28.8 C 66 % 21.81 C
483 19-07-2016 16:10:00 28.8 C 66 % 21.81 C
484 19-07-2016 16:15:00 28.8 C 68 % 22.3 C
485 19-07-2016 16:20:00 28.9 C 67 % 22.15 C
486 19-07-2016 16:25:00 29.2 C 66 % 22.19 C
487 19-07-2016 16:30:00 29.7 C 65 % 22.41 C
488 19-07-2016 16:35:00 30.3 C 63 % 22.46 C
489 19-07-2016 16:40:00 30.6 C 56 % 20.82 C
490 19-07-2016 16:45:00 31.1 C 50 % 19.44 C
491 19-07-2016 16:50:00 31.2 C 62 % 23.05 C
492 19-07-2016 16:55:00 31.2 C 58 % 21.95 C
493 19-07-2016 17:00:00 31.2 C 53 % 20.48 C
494 19-07-2016 17:05:00 31.2 C 58 % 21.95 C
495 19-07-2016 17:10:00 31.2 C 56 % 21.37 C
496 19-07-2016 17:15:00 31.3 C 58 % 22.04 C
497 19-07-2016 17:20:00 31 C 60 % 22.32 C
498 19-07-2016 17:25:00 31.1 C 56 % 21.28 C
499 19-07-2016 17:30:00 31.3 C 57 % 21.76 C
500 19-07-2016 17:35:00 31.8 C 58 % 22.51 C
Sensor: Nr:Datum:Temp:Feuchte:Taupunkt:
Aussen-T/F 501 19-07-2016 17:40:00 32.2 C 56 % 22.3 C
502 19-07-2016 17:45:00 32.3 C 55 % 22.1 C
503 19-07-2016 17:50:00 32.4 C 52 % 21.27 C
504 19-07-2016 17:55:00 32.4 C 53 % 21.58 C
505 19-07-2016 18:00:00 32.4 C 53 % 21.58 C
506 19-07-2016 18:05:00 32.4 C 52 % 21.27 C
507 19-07-2016 18:10:00 32.4 C 52 % 21.27 C
508 19-07-2016 18:15:00 32.4 C 54 % 21.89 C
509 19-07-2016 18:20:00 32.3 C 44 % 18.48 C
510 19-07-2016 18:25:00 32.3 C 53 % 21.49 C
511 19-07-2016 18:30:00 32.2 C 53 % 21.4 C
512 19-07-2016 18:35:00 32 C 55 % 21.82 C
513 19-07-2016 18:40:00 31.8 C 54 % 21.34 C
514 19-07-2016 18:45:00 31.7 C 57 % 22.13 C
515 19-07-2016 18:50:00 31.6 C 55 % 21.45 C
516 19-07-2016 18:55:00 31.4 C 56 % 21.56 C
517 19-07-2016 19:00:00 31.3 C 56 % 21.47 C
518 19-07-2016 19:05:00 31.1 C 57 % 21.57 C
519 19-07-2016 19:10:00 30.9 C 56 % 21.09 C
520 19-07-2016 19:15:00 30.7 C 57 % 21.2 C
521 19-07-2016 19:20:00 30.6 C 57 % 21.1 C
522 19-07-2016 19:25:00 30.3 C 59 % 21.39 C
523 19-07-2016 19:30:00 29.9 C 59 % 21.01 C
524 19-07-2016 19:35:00 29.6 C 59 % 20.73 C
525 19-07-2016 19:40:00 29.2 C 59 % 20.36 C
Sensor: Nr:Datum:Temp:Feuchte:Taupunkt:
Aussen-T/F 526 19-07-2016 19:45:00 28.9 C 60 % 20.35 C
527 19-07-2016 19:50:00 28.6 C 60 % 20.07 C
528 19-07-2016 19:55:00 28.3 C 60 % 19.79 C
529 19-07-2016 20:00:00 28 C 60 % 19.51 C
530 19-07-2016 20:05:00 27.7 C 60 % 19.23 C
531 19-07-2016 20:10:00 27.4 C 61 % 19.21 C
532 19-07-2016 20:15:00 27.2 C 61 % 19.02 C
533 19-07-2016 20:20:00 27.1 C 63 % 19.45 C
534 19-07-2016 20:25:00 26.8 C 63 % 19.16 C
535 19-07-2016 20:30:00 26.7 C 63 % 19.07 C
536 19-07-2016 20:35:00 26.4 C 63 % 18.79 C
537 19-07-2016 20:40:00 26.2 C 63 % 18.6 C
538 19-07-2016 20:45:00 26 C 64 % 18.66 C
539 19-07-2016 20:50:00 25.7 C 64 % 18.38 C
540 19-07-2016 20:55:00 25.4 C 63 % 17.84 C
541 19-07-2016 21:00:00 25.2 C 64 % 17.9 C
542 19-07-2016 21:05:00 24.9 C 64 % 17.62 C
543 19-07-2016 21:10:00 24.7 C 65 % 17.68 C
544 19-07-2016 21:15:00 24.4 C 66 % 17.64 C
545 19-07-2016 21:20:00 24.1 C 66 % 17.35 C
546 19-07-2016 21:25:00 23.8 C 68 % 17.54 C
547 19-07-2016 21:30:00 23.5 C 67 % 17.02 C
548 19-07-2016 21:35:00 23.2 C 68 % 16.97 C
549 19-07-2016 21:40:00 22.9 C 69 % 16.91 C
550 19-07-2016 21:45:00 22.7 C 71 % 17.17 C
Sensor: Nr:Datum:Temp:Feuchte:Taupunkt:
Aussen-T/F 551 19-07-2016 21:50:00 22.3 C 72 % 17.01 C
552 19-07-2016 21:55:00 22.1 C 72 % 16.82 C
553 19-07-2016 22:00:00 21.8 C 71 % 16.31 C
554 19-07-2016 22:05:00 21.6 C 71 % 16.12 C
555 19-07-2016 22:10:00 21.5 C 72 % 16.24 C
556 19-07-2016 22:15:00 21.4 C 73 % 16.36 C
557 19-07-2016 22:20:00 21.3 C 72 % 16.05 C
558 19-07-2016 22:25:00 21.1 C 73 % 16.07 C
559 19-07-2016 22:30:00 21 C 75 % 16.4 C
560 19-07-2016 22:35:00 20.8 C 73 % 15.78 C
561 19-07-2016 22:40:00 20.7 C 74 % 15.9 C
562 19-07-2016 22:45:00 20.6 C 75 % 16.01 C
563 19-07-2016 22:50:00 20.4 C 76 % 16.03 C
564 19-07-2016 22:55:00 20.3 C 77 % 16.14 C
565 19-07-2016 23:00:00 20.1 C 76 % 15.74 C
566 19-07-2016 23:05:00 20 C 77 % 15.85 C
567 19-07-2016 23:10:00 19.8 C 78 % 15.85 C
568 19-07-2016 23:15:00 19.7 C 78 % 15.76 C
569 19-07-2016 23:20:00 19.6 C 77 % 15.46 C
570 19-07-2016 23:25:00 19.5 C 78 % 15.56 C
571 19-07-2016 23:30:00 19.5 C 79 % 15.76 C
572 19-07-2016 23:35:00 19.4 C 79 % 15.66 C
573 19-07-2016 23:40:00 19.4 C 79 % 15.66 C
574 19-07-2016 23:45:00 19.3 C 79 % 15.57 C
575 19-07-2016 23:50:00 19.2 C 80 % 15.67 C
Sensor: Nr:Datum:Temp:Feuchte:Taupunkt:
Aussen-T/F 576 19-07-2016 23:55:00 19.1 C 81 % 15.76 C
577 20-07-2016 00:00:00 18.9 C 81 % 15.57 C
578 20-07-2016 00:05:00 18.8 C 82 % 15.66 C
579 20-07-2016 00:10:00 18.6 C 82 % 15.47 C
580 20-07-2016 00:15:00 18.4 C 83 % 15.46 C
581 20-07-2016 00:20:00 18.3 C 83 % 15.36 C
582 20-07-2016 00:25:00 18.2 C 84 % 15.45 C
583 20-07-2016 00:30:00 18.2 C 84 % 15.45 C
584 20-07-2016 00:35:00 18.1 C 84 % 15.35 C
585 20-07-2016 00:40:00 18 C 85 % 15.44 C
586 20-07-2016 00:45:00 17.9 C 85 % 15.34 C
587 20-07-2016 00:50:00 17.8 C 86 % 15.43 C
588 20-07-2016 00:55:00 17.8 C 86 % 15.43 C
589 20-07-2016 01:00:00 17.7 C 86 % 15.33 C
590 20-07-2016 01:05:00 17.6 C 87 % 15.41 C
591 20-07-2016 01:10:00 17.5 C 87 % 15.31 C
592 20-07-2016 01:15:00 17.4 C 87 % 15.21 C
593 20-07-2016 01:20:00 17.3 C 87 % 15.12 C
594 20-07-2016 01:25:00 17.3 C 87 % 15.12 C
595 20-07-2016 01:30:00 17.3 C 88 % 15.29 C
596 20-07-2016 01:35:00 17.3 C 88 % 15.29 C
597 20-07-2016 01:40:00 17.2 C 88 % 15.2 C
598 20-07-2016 01:45:00 17.1 C 88 % 15.1 C
599 20-07-2016 01:50:00 17.1 C 88 % 15.1 C
600 20-07-2016 01:55:00 17.1 C 88 % 15.1 C
Sensor: Nr:Datum:Temp:Feuchte:Taupunkt:
Aussen-T/F 601 20-07-2016 02:00:00 17 C 88 % 15 C
602 20-07-2016 02:05:00 17 C 89 % 15.17 C
603 20-07-2016 02:10:00 16.9 C 89 % 15.08 C
604 20-07-2016 02:15:00 16.9 C 89 % 15.08 C
605 20-07-2016 02:20:00 16.8 C 89 % 14.98 C
606 20-07-2016 02:25:00 16.7 C 89 % 14.88 C
607 20-07-2016 02:30:00 16.7 C 89 % 14.88 C
608 20-07-2016 02:35:00 16.6 C 90 % 14.95 C
609 20-07-2016 02:40:00 16.6 C 90 % 14.95 C
610 20-07-2016 02:45:00 16.5 C 90 % 14.85 C
611 20-07-2016 02:50:00 16.5 C 90 % 14.85 C
612 20-07-2016 02:55:00 16.4 C 90 % 14.76 C
613 20-07-2016 03:00:00 16.4 C 90 % 14.76 C
614 20-07-2016 03:05:00 16.3 C 91 % 14.83 C
615 20-07-2016 03:10:00 16.3 C 91 % 14.83 C
616 20-07-2016 03:15:00 16.2 C 91 % 14.73 C
617 20-07-2016 03:20:00 16.2 C 91 % 14.73 C
618 20-07-2016 03:25:00 16.1 C 91 % 14.63 C
619 20-07-2016 03:30:00 16.1 C 91 % 14.63 C
620 20-07-2016 03:35:00 15.9 C 91 % 14.43 C
621 20-07-2016 03:40:00 15.9 C 91 % 14.43 C
622 20-07-2016 03:45:00 15.9 C 92 % 14.6 C
623 20-07-2016 03:50:00 15.8 C 92 % 14.5 C
624 20-07-2016 03:55:00 15.8 C 92 % 14.5 C
625 20-07-2016 04:00:00 15.7 C 92 % 14.4 C
Sensor: Nr:Datum:Temp:Feuchte:Taupunkt:
Aussen-T/F 626 20-07-2016 04:05:00 15.8 C 93 % 14.67 C
627 20-07-2016 04:10:00 15.7 C 92 % 14.4 C
628 20-07-2016 04:15:00 15.6 C 92 % 14.31 C
629 20-07-2016 04:20:00 15.6 C 92 % 14.31 C
630 20-07-2016 04:25:00 15.6 C 92 % 14.31 C
631 20-07-2016 04:30:00 15.5 C 92 % 14.21 C
632 20-07-2016 04:35:00 15.4 C 93 % 14.27 C
633 20-07-2016 04:40:00 15.3 C 93 % 14.18 C
634 20-07-2016 04:45:00 15.3 C 93 % 14.18 C
635 20-07-2016 04:50:00 15.3 C 93 % 14.18 C
636 20-07-2016 04:55:00 15.3 C 93 % 14.18 C
637 20-07-2016 05:00:00 15.3 C 93 % 14.18 C
638 20-07-2016 05:05:00 15.2 C 93 % 14.08 C
639 20-07-2016 05:10:00 15.2 C 93 % 14.08 C
640 20-07-2016 05:15:00 15.1 C 93 % 13.98 C
641 20-07-2016 05:20:00 15.1 C 93 % 13.98 C
642 20-07-2016 05:25:00 15 C 93 % 13.88 C
643 20-07-2016 05:30:00 15 C 94 % 14.04 C
644 20-07-2016 05:35:00 14.9 C 93 % 13.78 C
645 20-07-2016 05:40:00 14.9 C 94 % 13.94 C
646 20-07-2016 05:45:00 14.9 C 94 % 13.94 C
647 20-07-2016 05:50:00 14.8 C 94 % 13.84 C
648 20-07-2016 05:55:00 14.8 C 94 % 13.84 C
649 20-07-2016 06:00:00 14.8 C 94 % 13.84 C
650 20-07-2016 06:05:00 14.9 C 94 % 13.94 C
Sensor: Nr:Datum:Temp:Feuchte:Taupunkt:
Aussen-T/F 651 20-07-2016 06:10:00 14.8 C 94 % 13.84 C
652 20-07-2016 06:15:00 14.8 C 94 % 13.84 C
653 20-07-2016 06:20:00 14.7 C 94 % 13.74 C
654 20-07-2016 06:25:00 14.7 C 94 % 13.74 C
655 20-07-2016 06:30:00 14.7 C 94 % 13.74 C
656 20-07-2016 06:35:00 14.7 C 94 % 13.74 C
657 20-07-2016 06:40:00 14.8 C 94 % 13.84 C
658 20-07-2016 06:45:00 14.8 C 94 % 13.84 C
659 20-07-2016 06:50:00 14.8 C 94 % 13.84 C
660 20-07-2016 06:55:00 14.8 C 95 % 14.01 C
661 20-07-2016 07:00:00 14.9 C 95 % 14.11 C
662 20-07-2016 07:05:00 14.9 C 95 % 14.11 C
663 20-07-2016 07:10:00 15 C 95 % 14.21 C
664 20-07-2016 07:15:00 15.1 C 95 % 14.31 C
665 20-07-2016 07:20:00 15.2 C 95 % 14.4 C
666 20-07-2016 07:25:00 15.2 C 95 % 14.4 C
667 20-07-2016 07:30:00 15.2 C 95 % 14.4 C
668 20-07-2016 07:35:00 15.3 C 95 % 14.5 C
669 20-07-2016 07:40:00 15.3 C 95 % 14.5 C
670 20-07-2016 07:45:00 15.4 C 95 % 14.6 C
671 20-07-2016 07:50:00 15.4 C 95 % 14.6 C
672 20-07-2016 07:55:00 15.5 C 95 % 14.7 C
673 20-07-2016 08:00:00 15.6 C 95 % 14.8 C
674 20-07-2016 08:05:00 15.7 C 95 % 14.9 C
675 20-07-2016 08:10:00 15.8 C 95 % 15 C
Sensor: Nr:Datum:Temp:Feuchte:Taupunkt:
Aussen-T/F 676 20-07-2016 08:15:00 15.8 C 95 % 15 C
677 20-07-2016 08:20:00 15.9 C 95 % 15.1 C
678 20-07-2016 08:25:00 16 C 95 % 15.2 C
679 20-07-2016 08:30:00 16.1 C 95 % 15.3 C
680 20-07-2016 08:35:00 16.2 C 96 % 15.56 C
681 20-07-2016 08:40:00 16.4 C 95 % 15.6 C
682 20-07-2016 08:45:00 16.6 C 96 % 15.96 C
683 20-07-2016 08:50:00 16.7 C 96 % 16.06 C
684 20-07-2016 08:55:00 16.9 C 96 % 16.26 C
685 20-07-2016 09:00:00 17.1 C 96 % 16.46 C
686 20-07-2016 09:05:00 17.2 C 96 % 16.56 C
687 20-07-2016 09:10:00 17.3 C 96 % 16.66 C
688 20-07-2016 09:15:00 17.5 C 95 % 16.69 C
689 20-07-2016 09:20:00 17.6 C 95 % 16.79 C
690 20-07-2016 09:25:00 17.8 C 95 % 16.99 C
691 20-07-2016 09:30:00 17.9 C 95 % 17.09 C
692 20-07-2016 09:35:00 18.1 C 95 % 17.29 C
693 20-07-2016 09:40:00 18.2 C 95 % 17.39 C
694 20-07-2016 09:45:00 18.4 C 94 % 17.42 C
695 20-07-2016 09:50:00 18.5 C 94 % 17.52 C
696 20-07-2016 09:55:00 18.7 C 94 % 17.71 C
697 20-07-2016 10:00:00 18.9 C 94 % 17.91 C
698 20-07-2016 10:05:00 19.1 C 93 % 17.94 C
699 20-07-2016 10:10:00 19.3 C 93 % 18.14 C
700 20-07-2016 10:15:00 19.5 C 93 % 18.34 C
Sensor: Nr:Datum:Temp:Feuchte:Taupunkt:
Aussen-T/F 701 20-07-2016 10:20:00 19.7 C 92 % 18.36 C
702 20-07-2016 10:25:00 20.1 C 92 % 18.76 C
703 20-07-2016 10:30:00 20.6 C 91 % 19.08 C
704 20-07-2016 10:35:00 21.1 C 88 % 19.03 C
705 20-07-2016 10:40:00 21.7 C 88 % 19.62 C
706 20-07-2016 10:45:00 22.2 C 86 % 19.75 C
707 20-07-2016 10:50:00 22.4 C 85 % 19.75 C
708 20-07-2016 10:55:00 22.4 C 85 % 19.75 C
709 20-07-2016 11:00:00 22.6 C 85 % 19.95 C
710 20-07-2016 11:05:00 22.7 C 85 % 20.05 C
711 20-07-2016 11:10:00 22.8 C 83 % 19.76 C
712 20-07-2016 11:15:00 23 C 81 % 19.56 C
713 20-07-2016 11:20:00 23.2 C 80 % 19.56 C
714 20-07-2016 11:25:00 23.7 C 75 % 19 C
715 20-07-2016 11:30:00 24.3 C 81 % 20.83 C
716 20-07-2016 11:35:00 24.7 C 75 % 19.97 C
717 20-07-2016 11:40:00 24.9 C 76 % 20.38 C
718 20-07-2016 11:45:00 25.1 C 78 % 20.99 C
719 20-07-2016 11:50:00 25.2 C 72 % 19.79 C
720 20-07-2016 11:55:00 25.7 C 71 % 20.04 C
721 20-07-2016 12:00:00 26 C 70 % 20.1 C
722 20-07-2016 12:05:00 26.2 C 72 % 20.75 C
723 20-07-2016 12:10:00 26.3 C 72 % 20.85 C
724 20-07-2016 12:15:00 26.5 C 65 % 19.38 C
725 20-07-2016 12:20:00 26.8 C 66 % 19.91 C
Sensor: Nr:Datum:Temp:Feuchte:Taupunkt:
Aussen-T/F 726 20-07-2016 12:25:00 27 C 66 % 20.1 C
727 20-07-2016 12:30:00 27.1 C 67 % 20.44 C
728 20-07-2016 12:35:00 27.2 C 64 % 19.79 C
729 20-07-2016 12:40:00 27.5 C 64 % 20.08 C
730 20-07-2016 12:45:00 27.8 C 62 % 19.85 C
731 20-07-2016 12:50:00 27.9 C 63 % 20.2 C
732 20-07-2016 12:55:00 28.1 C 59 % 19.33 C
733 20-07-2016 13:00:00 28.3 C 58 % 19.24 C
734 20-07-2016 13:05:00 28.6 C 60 % 20.07 C
735 20-07-2016 13:10:00 28.6 C 59 % 19.8 C
736 20-07-2016 13:15:00 28.7 C 58 % 19.62 C
737 20-07-2016 13:20:00 28.8 C 61 % 20.52 C
738 20-07-2016 13:25:00 28.9 C 60 % 20.35 C
739 20-07-2016 13:30:00 29 C 58 % 19.9 C
740 20-07-2016 13:35:00 29.2 C 57 % 19.8 C
741 20-07-2016 13:40:00 29.6 C 54 % 19.3 C
742 20-07-2016 13:45:00 29.7 C 58 % 20.55 C
743 20-07-2016 13:50:00 29.6 C 59 % 20.73 C
744 20-07-2016 13:55:00 29.6 C 57 % 20.17 C
745 20-07-2016 14:00:00 29.5 C 64 % 21.97 C
746 20-07-2016 14:05:00 29.4 C 57 % 19.99 C
747 20-07-2016 14:10:00 29.6 C 56 % 19.89 C
748 20-07-2016 14:15:00 29.8 C 57 % 20.36 C
749 20-07-2016 14:20:00 29.9 C 55 % 19.88 C
750 20-07-2016 14:25:00 30.2 C 55 % 20.15 C
Sensor: Nr:Datum:Temp:Feuchte:Taupunkt:
Aussen-T/F 751 20-07-2016 14:30:00 30.6 C 53 % 19.92 C
752 20-07-2016 14:35:00 30.7 C 58 % 21.48 C
753 20-07-2016 14:40:00 30.6 C 52 % 19.62 C
754 20-07-2016 14:45:00 30.7 C 55 % 20.62 C
755 20-07-2016 14:50:00 30.7 C 52 % 19.71 C
756 20-07-2016 14:55:00 30.8 C 52 % 19.8 C
757 20-07-2016 15:00:00 30.9 C 53 % 20.2 C
758 20-07-2016 15:05:00 31 C 52 % 19.98 C
759 20-07-2016 15:10:00 31.1 C 52 % 20.08 C
760 20-07-2016 15:15:00 31.4 C 52 % 20.35 C
761 20-07-2016 15:20:00 31.6 C 50 % 19.9 C
762 20-07-2016 15:25:00 31.9 C 51 % 20.5 C
763 20-07-2016 15:30:00 32.2 C 49 % 20.12 C
764 20-07-2016 15:35:00 32.4 C 49 % 20.31 C
765 20-07-2016 15:40:00 32.8 C 48 % 20.34 C
766 20-07-2016 15:45:00 33.3 C 48 % 20.79 C
767 20-07-2016 15:50:00 33.7 C 46 % 20.46 C
768 20-07-2016 15:55:00 34 C 52 % 22.74 C
769 20-07-2016 16:00:00 34.1 C 48 % 21.52 C
770 20-07-2016 16:05:00 34.2 C 43 % 19.82 C
771 20-07-2016 16:10:00 34.3 C 43 % 19.91 C
772 20-07-2016 16:15:00 34.3 C 46 % 21.01 C
773 20-07-2016 16:20:00 34.4 C 45 % 20.74 C
774 20-07-2016 16:25:00 34.6 C 41 % 19.41 C
775 20-07-2016 16:30:00 34.8 C 48 % 22.16 C
Sensor: Nr:Datum:Temp:Feuchte:Taupunkt:
Aussen-T/F 776 20-07-2016 16:35:00 34.9 C 47 % 21.9 C
777 20-07-2016 16:40:00 35.1 C 41 % 19.86 C
778 20-07-2016 16:45:00 35.3 C 48 % 22.61 C
779 20-07-2016 16:50:00 35.2 C 45 % 21.46 C
780 20-07-2016 16:55:00 35.3 C 49 % 22.95 C
781 20-07-2016 17:00:00 35.3 C 42 % 20.43 C
782 20-07-2016 17:05:00 35.3 C 50 % 23.28 C
783 20-07-2016 17:10:00 35.4 C 53 % 24.35 C
784 20-07-2016 17:15:00 35.2 C 50 % 23.19 C
785 20-07-2016 17:20:00 35.1 C 53 % 24.07 C
786 20-07-2016 17:25:00 34.9 C 51 % 23.25 C
787 20-07-2016 17:30:00 34.8 C 53 % 23.79 C
788 20-07-2016 17:35:00 34.6 C 53 % 23.61 C
789 20-07-2016 17:40:00 34.3 C 49 % 22.04 C
790 20-07-2016 17:45:00 34.3 C 54 % 23.64 C
791 20-07-2016 17:50:00 34.1 C 52 % 22.83 C
792 20-07-2016 17:55:00 33.7 C 55 % 23.39 C
793 20-07-2016 18:00:00 33.2 C 55 % 22.93 C
794 20-07-2016 18:05:00 32.6 C 57 % 22.96 C
795 20-07-2016 18:10:00 32.1 C 57 % 22.5 C
796 20-07-2016 18:15:00 32.2 C 61 % 23.72 C
797 20-07-2016 18:20:00 32.4 C 58 % 23.07 C
798 20-07-2016 18:25:00 32.8 C 52 % 21.64 C
799 20-07-2016 18:30:00 33.2 C 52 % 22.01 C
800 20-07-2016 18:35:00 33.4 C 52 % 22.19 C
Sensor: Nr:Datum:Temp:Feuchte:Taupunkt:
Aussen-T/F 801 20-07-2016 18:40:00 33.6 C 51 % 22.06 C
802 20-07-2016 18:45:00 33.4 C 52 % 22.19 C
803 20-07-2016 18:50:00 33.2 C 51 % 21.69 C
804 20-07-2016 18:55:00 33.1 C 53 % 22.23 C
805 20-07-2016 19:00:00 32.9 C 55 % 22.65 C
806 20-07-2016 19:05:00 32.8 C 54 % 22.26 C
807 20-07-2016 19:10:00 32.7 C 54 % 22.17 C
808 20-07-2016 19:15:00 32.1 C 52 % 21 C
809 20-07-2016 19:20:00 31.3 C 54 % 20.87 C
810 20-07-2016 19:25:00 30.3 C 57 % 20.83 C
811 20-07-2016 19:30:00 29.5 C 57 % 20.08 C
812 20-07-2016 19:35:00 28.8 C 58 % 19.71 C
813 20-07-2016 19:40:00 28.4 C 59 % 19.61 C
814 20-07-2016 19:45:00 28.1 C 61 % 19.87 C
815 20-07-2016 19:50:00 27.8 C 59 % 19.05 C
816 20-07-2016 19:55:00 27.7 C 61 % 19.49 C
817 20-07-2016 20:00:00 27.4 C 63 % 19.73 C
818 20-07-2016 20:05:00 27.2 C 62 % 19.28 C
819 20-07-2016 20:10:00 27.1 C 63 % 19.45 C
820 20-07-2016 20:15:00 26.9 C 63 % 19.26 C
821 20-07-2016 20:20:00 26.7 C 65 % 19.57 C
822 20-07-2016 20:25:00 26.6 C 64 % 19.23 C
823 20-07-2016 20:30:00 26.5 C 64 % 19.13 C
824 20-07-2016 20:35:00 26.4 C 64 % 19.04 C
825 20-07-2016 20:40:00 26.3 C 64 % 18.94 C
Sensor: Nr:Datum:Temp:Feuchte:Taupunkt:
Aussen-T/F 826 20-07-2016 20:45:00 26.2 C 65 % 19.1 C
827 20-07-2016 20:50:00 26.2 C 64 % 18.85 C
828 20-07-2016 20:55:00 26.1 C 65 % 19 C
829 20-07-2016 21:00:00 26.1 C 66 % 19.25 C
830 20-07-2016 21:05:00 26 C 66 % 19.15 C
831 20-07-2016 21:10:00 25.9 C 65 % 18.81 C
832 20-07-2016 21:15:00 25.9 C 66 % 19.06 C
833 20-07-2016 21:20:00 25.9 C 67 % 19.3 C
834 20-07-2016 21:25:00 25.9 C 68 % 19.54 C
835 20-07-2016 21:30:00 25.9 C 68 % 19.54 C
836 20-07-2016 21:35:00 25.8 C 67 % 19.2 C
837 20-07-2016 21:40:00 25.8 C 68 % 19.44 C
838 20-07-2016 21:45:00 25.8 C 68 % 19.44 C
839 20-07-2016 21:50:00 25.8 C 68 % 19.44 C
840 20-07-2016 21:55:00 25.8 C 68 % 19.44 C
841 20-07-2016 22:00:00 25.8 C 68 % 19.44 C
842 20-07-2016 22:05:00 25.7 C 69 % 19.58 C
843 20-07-2016 22:10:00 25.6 C 70 % 19.72 C
844 20-07-2016 22:15:00 25.4 C 70 % 19.53 C
845 20-07-2016 22:20:00 25.3 C 70 % 19.43 C
846 20-07-2016 22:25:00 25.3 C 69 % 19.2 C
847 20-07-2016 22:30:00 25.2 C 69 % 19.11 C
848 20-07-2016 22:35:00 25.2 C 70 % 19.34 C
849 20-07-2016 22:40:00 25.1 C 71 % 19.47 C
850 20-07-2016 22:45:00 24.9 C 71 % 19.28 C
Sensor: Nr:Datum:Temp:Feuchte:Taupunkt:
Aussen-T/F 851 20-07-2016 22:50:00 24.8 C 72 % 19.41 C
852 20-07-2016 22:55:00 24.7 C 72 % 19.31 C
853 20-07-2016 23:00:00 24.4 C 71 % 18.8 C
854 20-07-2016 23:05:00 24.3 C 71 % 18.7 C
855 20-07-2016 23:10:00 24.2 C 71 % 18.61 C
856 20-07-2016 23:15:00 24.1 C 73 % 18.96 C
857 20-07-2016 23:20:00 23.9 C 72 % 18.54 C
858 20-07-2016 23:25:00 23.9 C 74 % 18.98 C
859 20-07-2016 23:30:00 23.9 C 75 % 19.2 C
860 20-07-2016 23:35:00 23.7 C 75 % 19 C
861 20-07-2016 23:40:00 23.6 C 75 % 18.91 C
862 20-07-2016 23:45:00 23.6 C 75 % 18.91 C
863 20-07-2016 23:50:00 23.6 C 74 % 18.69 C
864 20-07-2016 23:55:00 23.6 C 73 % 18.48 C
865 21-07-2016 00:00:00 23.7 C 72 % 18.35 C
866 21-07-2016 00:05:00 23.8 C 71 % 18.22 C
867 21-07-2016 00:10:00 23.9 C 73 % 18.76 C
868 21-07-2016 00:15:00 23.8 C 74 % 18.89 C
869 21-07-2016 00:20:00 23.7 C 74 % 18.79 C
870 21-07-2016 00:25:00 23.6 C 74 % 18.69 C
871 21-07-2016 00:30:00 23.4 C 75 % 18.71 C
872 21-07-2016 00:35:00 23.4 C 74 % 18.5 C
873 21-07-2016 00:40:00 23.3 C 75 % 18.62 C
874 21-07-2016 00:45:00 23.2 C 74 % 18.31 C
875 21-07-2016 00:50:00 23.1 C 76 % 18.64 C
Sensor: Nr:Datum:Temp:Feuchte:Taupunkt:
Aussen-T/F 876 21-07-2016 00:55:00 23.1 C 76 % 18.64 C
877 21-07-2016 01:00:00 23 C 76 % 18.54 C
878 21-07-2016 01:05:00 23 C 77 % 18.75 C
879 21-07-2016 01:10:00 23.1 C 78 % 19.05 C
880 21-07-2016 01:15:00 23 C 78 % 18.96 C
881 21-07-2016 01:20:00 22.9 C 77 % 18.65 C
882 21-07-2016 01:25:00 22.8 C 77 % 18.56 C
883 21-07-2016 01:30:00 22.8 C 78 % 18.76 C
884 21-07-2016 01:35:00 22.7 C 77 % 18.46 C
885 21-07-2016 01:40:00 22.7 C 77 % 18.46 C
886 21-07-2016 01:45:00 22.6 C 78 % 18.57 C
887 21-07-2016 01:50:00 22.6 C 77 % 18.36 C
888 21-07-2016 01:55:00 22.4 C 77 % 18.17 C
889 21-07-2016 02:00:00 22.4 C 78 % 18.37 C
890 21-07-2016 02:05:00 22.4 C 78 % 18.37 C
891 21-07-2016 02:10:00 22.4 C 78 % 18.37 C
892 21-07-2016 02:15:00 22.3 C 77 % 18.07 C
893 21-07-2016 02:20:00 22.3 C 78 % 18.28 C
894 21-07-2016 02:25:00 22.3 C 77 % 18.07 C
895 21-07-2016 02:30:00 22.4 C 78 % 18.37 C
896 21-07-2016 02:35:00 22.4 C 77 % 18.17 C
897 21-07-2016 02:40:00 22.5 C 79 % 18.67 C
898 21-07-2016 02:45:00 22.5 C 78 % 18.47 C
899 21-07-2016 02:50:00 22.4 C 78 % 18.37 C
900 21-07-2016 02:55:00 22.4 C 78 % 18.37 C
Sensor: Nr:Datum:Temp:Feuchte:Taupunkt:
Aussen-T/F 901 21-07-2016 03:00:00 22.3 C 77 % 18.07 C
902 21-07-2016 03:05:00 22.3 C 77 % 18.07 C
903 21-07-2016 03:10:00 22.2 C 78 % 18.18 C
904 21-07-2016 03:15:00 22.2 C 79 % 18.38 C
905 21-07-2016 03:20:00 22.2 C 80 % 18.58 C
906 21-07-2016 03:25:00 22.2 C 80 % 18.58 C
907 21-07-2016 03:30:00 22.3 C 77 % 18.07 C
908 21-07-2016 03:35:00 22.6 C 76 % 18.15 C
909 21-07-2016 03:40:00 22.8 C 75 % 18.14 C
910 21-07-2016 03:45:00 22.9 C 75 % 18.23 C
911 21-07-2016 03:50:00 23 C 75 % 18.33 C
912 21-07-2016 03:55:00 23 C 76 % 18.54 C
913 21-07-2016 04:00:00 22.9 C 76 % 18.44 C
914 21-07-2016 04:05:00 22.8 C 76 % 18.35 C
915 21-07-2016 04:10:00 22.8 C 76 % 18.35 C
916 21-07-2016 04:15:00 22.8 C 76 % 18.35 C
917 21-07-2016 04:20:00 22.8 C 76 % 18.35 C
918 21-07-2016 04:25:00 22.8 C 77 % 18.56 C
919 21-07-2016 04:30:00 22.7 C 77 % 18.46 C
920 21-07-2016 04:35:00 22.6 C 78 % 18.57 C
921 21-07-2016 04:40:00 22.5 C 78 % 18.47 C
922 21-07-2016 04:45:00 22.4 C 78 % 18.37 C
923 21-07-2016 04:50:00 22.3 C 78 % 18.28 C
924 21-07-2016 04:55:00 22.3 C 77 % 18.07 C
925 21-07-2016 05:00:00 22.3 C 77 % 18.07 C
Sensor: Nr:Datum:Temp:Feuchte:Taupunkt:
Aussen-T/F 926 21-07-2016 05:05:00 22.3 C 77 % 18.07 C
927 21-07-2016 05:10:00 22.3 C 77 % 18.07 C
928 21-07-2016 05:15:00 22.2 C 78 % 18.18 C
929 21-07-2016 05:20:00 22.1 C 78 % 18.08 C
930 21-07-2016 05:25:00 22 C 79 % 18.19 C
931 21-07-2016 05:30:00 21.8 C 81 % 18.39 C
932 21-07-2016 05:35:00 21.6 C 81 % 18.2 C
933 21-07-2016 05:40:00 21.4 C 82 % 18.2 C
934 21-07-2016 05:45:00 21.2 C 82 % 18 C
935 21-07-2016 05:50:00 21.1 C 83 % 18.1 C
936 21-07-2016 05:55:00 20.9 C 83 % 17.9 C
937 21-07-2016 06:00:00 20.8 C 84 % 18 C
938 21-07-2016 06:05:00 20.8 C 83 % 17.81 C
939 21-07-2016 06:10:00 20.7 C 84 % 17.9 C
940 21-07-2016 06:15:00 20.7 C 84 % 17.9 C
941 21-07-2016 06:20:00 20.6 C 84 % 17.8 C
942 21-07-2016 06:25:00 20.6 C 84 % 17.8 C
943 21-07-2016 06:30:00 20.6 C 84 % 17.8 C
944 21-07-2016 06:35:00 20.5 C 85 % 17.89 C
945 21-07-2016 06:40:00 20.4 C 85 % 17.79 C
946 21-07-2016 06:45:00 20.4 C 86 % 17.98 C
947 21-07-2016 06:50:00 20.3 C 86 % 17.88 C
948 21-07-2016 06:55:00 20.3 C 86 % 17.88 C
949 21-07-2016 07:00:00 20.2 C 86 % 17.78 C
950 21-07-2016 07:05:00 20.2 C 86 % 17.78 C
Sensor: Nr:Datum:Temp:Feuchte:Taupunkt:
Aussen-T/F 951 21-07-2016 07:10:00 20.1 C 85 % 17.5 C
952 21-07-2016 07:15:00 20.1 C 84 % 17.31 C
953 21-07-2016 07:20:00 20.2 C 85 % 17.6 C
954 21-07-2016 07:25:00 20.2 C 85 % 17.6 C
955 21-07-2016 07:30:00 20.2 C 86 % 17.78 C
956 21-07-2016 07:35:00 20.2 C 86 % 17.78 C
957 21-07-2016 07:40:00 20.1 C 87 % 17.87 C
958 21-07-2016 07:45:00 19.9 C 88 % 17.85 C
959 21-07-2016 07:50:00 19.8 C 88 % 17.75 C
960 21-07-2016 07:55:00 19.7 C 89 % 17.84 C
961 21-07-2016 08:00:00 19.7 C 89 % 17.84 C
962 21-07-2016 08:05:00 19.6 C 89 % 17.74 C
963 21-07-2016 08:10:00 19.5 C 90 % 17.82 C
964 21-07-2016 08:15:00 19.5 C 91 % 17.99 C
965 21-07-2016 08:20:00 19.4 C 91 % 17.89 C
966 21-07-2016 08:25:00 19.2 C 92 % 17.87 C
967 21-07-2016 08:30:00 19.1 C 92 % 17.77 C
968 21-07-2016 08:35:00 19.1 C 92 % 17.77 C
969 21-07-2016 08:40:00 19.1 C 93 % 17.94 C
970 21-07-2016 08:45:00 19 C 93 % 17.84 C
971 21-07-2016 08:50:00 19.1 C 93 % 17.94 C
972 21-07-2016 08:55:00 19.1 C 94 % 18.11 C
973 21-07-2016 09:00:00 19.1 C 94 % 18.11 C
974 21-07-2016 09:05:00 19 C 94 % 18.01 C
975 21-07-2016 09:10:00 19.1 C 94 % 18.11 C
Sensor: Nr:Datum:Temp:Feuchte:Taupunkt:
Aussen-T/F 976 21-07-2016 09:15:00 19.1 C 94 % 18.11 C
977 21-07-2016 09:20:00 19.2 C 94 % 18.21 C
978 21-07-2016 09:25:00 19.2 C 94 % 18.21 C
979 21-07-2016 09:30:00 19.2 C 94 % 18.21 C
980 21-07-2016 09:35:00 19.3 C 95 % 18.48 C
981 21-07-2016 09:40:00 19.3 C 95 % 18.48 C
982 21-07-2016 09:45:00 19.3 C 95 % 18.48 C
983 21-07-2016 09:50:00 19.4 C 95 % 18.58 C
984 21-07-2016 09:55:00 19.4 C 95 % 18.58 C
985 21-07-2016 10:00:00 19.5 C 95 % 18.68 C
986 21-07-2016 10:05:00 19.6 C 95 % 18.78 C
987 21-07-2016 10:10:00 19.6 C 95 % 18.78 C
988 21-07-2016 10:15:00 19.7 C 95 % 18.88 C
989 21-07-2016 10:20:00 19.8 C 95 % 18.98 C
990 21-07-2016 10:25:00 19.8 C 95 % 18.98 C
991 21-07-2016 10:30:00 19.9 C 95 % 19.07 C
992 21-07-2016 10:35:00 19.9 C 95 % 19.07 C
993 21-07-2016 10:40:00 20 C 95 % 19.17 C
994 21-07-2016 10:45:00 20.1 C 95 % 19.27 C
995 21-07-2016 10:50:00 20.1 C 95 % 19.27 C
996 21-07-2016 10:55:00 20.2 C 95 % 19.37 C
997 21-07-2016 11:00:00 20.2 C 95 % 19.37 C
998 21-07-2016 11:05:00 20.2 C 95 % 19.37 C
999 21-07-2016 11:10:00 20.3 C 95 % 19.47 C
1000 21-07-2016 11:15:00 20.4 C 95 % 19.57 C
Sensor: Nr:Datum:Temp:Feuchte:Taupunkt:
Aussen-T/F 1001 21-07-2016 11:20:00 20.5 C 95 % 19.67 C
1002 21-07-2016 11:25:00 20.6 C 95 % 19.77 C
1003 21-07-2016 11:30:00 20.7 C 95 % 19.87 C
1004 21-07-2016 11:35:00 20.9 C 95 % 20.07 C
1005 21-07-2016 11:40:00 21 C 95 % 20.17 C
1006 21-07-2016 11:45:00 21.1 C 94 % 20.1 C
1007 21-07-2016 11:50:00 21.2 C 94 % 20.19 C
1008 21-07-2016 11:55:00 21.2 C 93 % 20.02 C
1009 21-07-2016 12:00:00 21.3 C 93 % 20.12 C
1010 21-07-2016 12:05:00 21.4 C 93 % 20.22 C
1011 21-07-2016 12:10:00 21.6 C 91 % 20.07 C
1012 21-07-2016 12:15:00 21.8 C 91 % 20.26 C
1013 21-07-2016 12:20:00 21.9 C 90 % 20.18 C
1014 21-07-2016 12:25:00 22.3 C 91 % 20.76 C
1015 21-07-2016 12:30:00 22.6 C 92 % 21.23 C
1016 21-07-2016 12:35:00 22.6 C 89 % 20.69 C
1017 21-07-2016 12:40:00 22.7 C 91 % 21.15 C
1018 21-07-2016 12:45:00 22.9 C 91 % 21.35 C
1019 21-07-2016 12:50:00 23 C 91 % 21.45 C
1020 21-07-2016 12:55:00 22.8 C 87 % 20.52 C
1021 21-07-2016 13:00:00 22.9 C 89 % 20.99 C
1022 21-07-2016 13:05:00 22.9 C 88 % 20.81 C
1023 21-07-2016 13:10:00 23 C 87 % 20.72 C
1024 21-07-2016 13:15:00 23.1 C 86 % 20.63 C
1025 21-07-2016 13:20:00 23.2 C 83 % 20.15 C
Sensor: Nr:Datum:Temp:Feuchte:Taupunkt:
Aussen-T/F 1026 21-07-2016 13:25:00 23.2 C 81 % 19.76 C
1027 21-07-2016 13:30:00 23.4 C 82 % 20.15 C
1028 21-07-2016 13:35:00 23.4 C 80 % 19.75 C
1029 21-07-2016 13:40:00 23.6 C 80 % 19.95 C
1030 21-07-2016 13:45:00 23.7 C 82 % 20.44 C
1031 21-07-2016 13:50:00 23.8 C 80 % 20.14 C
1032 21-07-2016 13:55:00 23.9 C 82 % 20.64 C
1033 21-07-2016 14:00:00 23.9 C 79 % 20.03 C
1034 21-07-2016 14:05:00 23.9 C 77 % 19.62 C
1035 21-07-2016 14:10:00 24.3 C 79 % 20.42 C
1036 21-07-2016 14:15:00 24.5 C 76 % 19.99 C
1037 21-07-2016 14:20:00 24.7 C 76 % 20.18 C
1038 21-07-2016 14:25:00 24.9 C 76 % 20.38 C
1039 21-07-2016 14:30:00 25 C 75 % 20.26 C
1040 21-07-2016 14:35:00 25.2 C 72 % 19.79 C
1041 21-07-2016 14:40:00 25.4 C 74 % 20.43 C
1042 21-07-2016 14:45:00 25.6 C 75 % 20.84 C
1043 21-07-2016 14:50:00 25.6 C 72 % 20.17 C
1044 21-07-2016 14:55:00 25.7 C 72 % 20.27 C
1045 21-07-2016 15:00:00 25.8 C 76 % 21.24 C
1046 21-07-2016 15:05:00 25.9 C 71 % 20.24 C
1047 21-07-2016 15:10:00 26.3 C 73 % 21.07 C
1048 21-07-2016 15:15:00 26.5 C 71 % 20.81 C
1049 21-07-2016 15:20:00 26.6 C 70 % 20.67 C
1050 21-07-2016 15:25:00 26.5 C 78 % 22.35 C
Sensor: Nr:Datum:Temp:Feuchte:Taupunkt:
Aussen-T/F 1051 21-07-2016 15:30:00 26.3 C 78 % 22.15 C
1052 21-07-2016 15:35:00 25.9 C 79 % 21.97 C
1053 21-07-2016 15:40:00 25.6 C 81 % 22.09 C
1054 21-07-2016 15:45:00 25.2 C 82 % 21.91 C
1055 21-07-2016 15:50:00 24.9 C 82 % 21.61 C
1056 21-07-2016 15:55:00 24.6 C 84 % 21.71 C
1057 21-07-2016 16:00:00 24.4 C 85 % 21.71 C
1058 21-07-2016 16:05:00 24.1 C 85 % 21.42 C
1059 21-07-2016 16:10:00 23.9 C 86 % 21.41 C
1060 21-07-2016 16:15:00 23.6 C 86 % 21.12 C
1061 21-07-2016 16:20:00 23.3 C 78 % 19.25 C
1062 21-07-2016 16:25:00 23.3 C 81 % 19.85 C
1063 21-07-2016 16:30:00 23.1 C 78 % 19.05 C
1064 21-07-2016 16:35:00 22.8 C 80 % 19.17 C
1065 21-07-2016 16:40:00 22.6 C 83 % 19.56 C
1066 21-07-2016 16:45:00 22.3 C 85 % 19.65 C
1067 21-07-2016 16:50:00 22 C 86 % 19.55 C
1068 21-07-2016 16:55:00 21.8 C 87 % 19.54 C
1069 21-07-2016 17:00:00 21.6 C 88 % 19.53 C
1070 21-07-2016 17:05:00 21.3 C 89 % 19.41 C
1071 21-07-2016 17:10:00 21.2 C 90 % 19.49 C
1072 21-07-2016 17:15:00 21 C 90 % 19.3 C
1073 21-07-2016 17:20:00 20.9 C 91 % 19.37 C
1074 21-07-2016 17:25:00 20.8 C 91 % 19.28 C
1075 21-07-2016 17:30:00 20.7 C 91 % 19.18 C
Sensor: Nr:Datum:Temp:Feuchte:Taupunkt:
Aussen-T/F 1076 21-07-2016 17:35:00 20.5 C 91 % 18.98 C
1077 21-07-2016 17:40:00 20.3 C 91 % 18.78 C
1078 21-07-2016 17:45:00 20.2 C 91 % 18.68 C
1079 21-07-2016 17:50:00 20.1 C 92 % 18.76 C
1080 21-07-2016 17:55:00 20 C 92 % 18.66 C
1081 21-07-2016 18:00:00 19.9 C 92 % 18.56 C
1082 21-07-2016 18:05:00 19.8 C 93 % 18.63 C
1083 21-07-2016 18:10:00 19.8 C 93 % 18.63 C
1084 21-07-2016 18:15:00 19.8 C 93 % 18.63 C
1085 21-07-2016 18:20:00 19.8 C 94 % 18.81 C
1086 21-07-2016 18:25:00 19.8 C 94 % 18.81 C
1087 21-07-2016 18:30:00 19.8 C 94 % 18.81 C
1088 21-07-2016 18:35:00 19.7 C 94 % 18.71 C
1089 21-07-2016 18:40:00 19.7 C 94 % 18.71 C
1090 21-07-2016 18:45:00 19.7 C 94 % 18.71 C
1091 21-07-2016 18:50:00 19.7 C 94 % 18.71 C
1092 21-07-2016 18:55:00 19.7 C 94 % 18.71 C
1093 21-07-2016 19:00:00 19.7 C 94 % 18.71 C
1094 21-07-2016 19:05:00 19.6 C 94 % 18.61 C
1095 21-07-2016 19:10:00 19.6 C 94 % 18.61 C
1096 21-07-2016 19:15:00 19.6 C 94 % 18.61 C
1097 21-07-2016 19:20:00 19.6 C 94 % 18.61 C
1098 21-07-2016 19:25:00 19.6 C 95 % 18.78 C
1099 21-07-2016 19:30:00 19.6 C 95 % 18.78 C
1100 21-07-2016 19:35:00 19.6 C 95 % 18.78 C
Sensor: Nr:Datum:Temp:Feuchte:Taupunkt:
Aussen-T/F 1101 21-07-2016 19:40:00 19.6 C 95 % 18.78 C
1102 21-07-2016 19:45:00 19.6 C 95 % 18.78 C
1103 21-07-2016 19:50:00 19.6 C 95 % 18.78 C
1104 21-07-2016 19:55:00 19.5 C 95 % 18.68 C
1105 21-07-2016 20:00:00 19.4 C 95 % 18.58 C
1106 21-07-2016 20:05:00 19.2 C 94 % 18.21 C
1107 21-07-2016 20:10:00 19.1 C 94 % 18.11 C
1108 21-07-2016 20:15:00 19 C 95 % 18.18 C
1109 21-07-2016 20:20:00 18.9 C 95 % 18.08 C
1110 21-07-2016 20:25:00 18.9 C 95 % 18.08 C
1111 21-07-2016 20:30:00 18.9 C 95 % 18.08 C
1112 21-07-2016 20:35:00 19 C 95 % 18.18 C
1113 21-07-2016 20:40:00 18.9 C 95 % 18.08 C
1114 21-07-2016 20:45:00 18.9 C 95 % 18.08 C
1115 21-07-2016 20:50:00 18.9 C 95 % 18.08 C
1116 21-07-2016 20:55:00 19 C 95 % 18.18 C
1117 21-07-2016 21:00:00 19 C 96 % 18.35 C
1118 21-07-2016 21:05:00 19.1 C 96 % 18.45 C
1119 21-07-2016 21:10:00 19 C 95 % 18.18 C
1120 21-07-2016 21:15:00 19 C 95 % 18.18 C
1121 21-07-2016 21:20:00 18.9 C 95 % 18.08 C
1122 21-07-2016 21:25:00 18.9 C 95 % 18.08 C
1123 21-07-2016 21:30:00 18.9 C 95 % 18.08 C
1124 21-07-2016 21:35:00 18.9 C 95 % 18.08 C
1125 21-07-2016 21:40:00 18.9 C 95 % 18.08 C
Sensor: Nr:Datum:Temp:Feuchte:Taupunkt:
Aussen-T/F 1126 21-07-2016 21:45:00 18.8 C 95 % 17.98 C
1127 21-07-2016 21:50:00 18.8 C 95 % 17.98 C
1128 21-07-2016 21:55:00 18.8 C 96 % 18.15 C
1129 21-07-2016 22:00:00 18.7 C 96 % 18.05 C
1130 21-07-2016 22:05:00 18.7 C 96 % 18.05 C
1131 21-07-2016 22:10:00 18.7 C 96 % 18.05 C
1132 21-07-2016 22:15:00 18.7 C 95 % 17.88 C
1133 21-07-2016 22:20:00 18.6 C 95 % 17.78 C
1134 21-07-2016 22:25:00 18.6 C 96 % 17.95 C
1135 21-07-2016 22:30:00 18.7 C 96 % 18.05 C
1136 21-07-2016 22:35:00 18.6 C 96 % 17.95 C
1137 21-07-2016 22:40:00 18.6 C 96 % 17.95 C
1138 21-07-2016 22:45:00 18.6 C 96 % 17.95 C
1139 21-07-2016 22:50:00 18.6 C 96 % 17.95 C
1140 21-07-2016 22:55:00 18.6 C 96 % 17.95 C
1141 21-07-2016 23:00:00 18.5 C 96 % 17.85 C
1142 21-07-2016 23:05:00 18.5 C 96 % 17.85 C
1143 21-07-2016 23:10:00 18.4 C 96 % 17.75 C
1144 21-07-2016 23:15:00 18.4 C 96 % 17.75 C
1145 21-07-2016 23:20:00 18.4 C 96 % 17.75 C
1146 21-07-2016 23:25:00 18.4 C 96 % 17.75 C
1147 21-07-2016 23:30:00 18.4 C 96 % 17.75 C
1148 21-07-2016 23:35:00 18.4 C 96 % 17.75 C
1149 21-07-2016 23:40:00 18.4 C 96 % 17.75 C
1150 21-07-2016 23:45:00 18.4 C 96 % 17.75 C
Sensor: Nr:Datum:Temp:Feuchte:Taupunkt:
Aussen-T/F 1151 21-07-2016 23:50:00 18.3 C 96 % 17.65 C
1152 21-07-2016 23:55:00 18.3 C 96 % 17.65 C
1153 22-07-2016 00:00:00 18.3 C 96 % 17.65 C
1154 22-07-2016 00:05:00 18.3 C 96 % 17.65 C
1155 22-07-2016 00:10:00 18.3 C 96 % 17.65 C
1156 22-07-2016 00:15:00 18.3 C 96 % 17.65 C
1157 22-07-2016 00:20:00 18.3 C 96 % 17.65 C
1158 22-07-2016 00:25:00 18.3 C 96 % 17.65 C
1159 22-07-2016 00:30:00 18.2 C 96 % 17.55 C
1160 22-07-2016 00:35:00 18.2 C 96 % 17.55 C
1161 22-07-2016 00:40:00 18.2 C 96 % 17.55 C
1162 22-07-2016 00:45:00 18.2 C 96 % 17.55 C
1163 22-07-2016 00:50:00 18.2 C 96 % 17.55 C
1164 22-07-2016 00:55:00 18.1 C 96 % 17.45 C
1165 22-07-2016 01:00:00 18.1 C 96 % 17.45 C
1166 22-07-2016 01:05:00 18.1 C 96 % 17.45 C
1167 22-07-2016 01:10:00 18.1 C 96 % 17.45 C
1168 22-07-2016 01:15:00 18.1 C 96 % 17.45 C
1169 22-07-2016 01:20:00 18.1 C 96 % 17.45 C
1170 22-07-2016 01:25:00 18.1 C 96 % 17.45 C
1171 22-07-2016 01:30:00 18 C 96 % 17.35 C
1172 22-07-2016 01:35:00 18 C 96 % 17.35 C
1173 22-07-2016 01:40:00 18 C 96 % 17.35 C
1174 22-07-2016 01:45:00 18 C 96 % 17.35 C
1175 22-07-2016 01:50:00 18 C 96 % 17.35 C
Sensor: Nr:Datum:Temp:Feuchte:Taupunkt:
Aussen-T/F 1176 22-07-2016 01:55:00 18 C 96 % 17.35 C
1177 22-07-2016 02:00:00 18 C 96 % 17.35 C
1178 22-07-2016 02:05:00 18 C 96 % 17.35 C
1179 22-07-2016 02:10:00 18.1 C 97 % 17.62 C
1180 22-07-2016 02:15:00 18.1 C 97 % 17.62 C
1181 22-07-2016 02:20:00 18.1 C 96 % 17.45 C
1182 22-07-2016 02:25:00 18 C 96 % 17.35 C
1183 22-07-2016 02:30:00 17.9 C 96 % 17.25 C
1184 22-07-2016 02:35:00 17.9 C 96 % 17.25 C
1185 22-07-2016 02:40:00 17.9 C 96 % 17.25 C
1186 22-07-2016 02:45:00 17.8 C 96 % 17.15 C
1187 22-07-2016 02:50:00 17.8 C 96 % 17.15 C
1188 22-07-2016 02:55:00 17.8 C 96 % 17.15 C
1189 22-07-2016 03:00:00 17.7 C 96 % 17.05 C
1190 22-07-2016 03:05:00 17.6 C 96 % 16.95 C
1191 22-07-2016 03:10:00 17.5 C 96 % 16.85 C
1192 22-07-2016 03:15:00 17.4 C 96 % 16.76 C
1193 22-07-2016 03:20:00 17.3 C 96 % 16.66 C
1194 22-07-2016 03:25:00 17.3 C 96 % 16.66 C
1195 22-07-2016 03:30:00 17.3 C 96 % 16.66 C
1196 22-07-2016 03:35:00 17.3 C 96 % 16.66 C
1197 22-07-2016 03:40:00 17.2 C 96 % 16.56 C
1198 22-07-2016 03:45:00 17.2 C 96 % 16.56 C
1199 22-07-2016 03:50:00 17.2 C 96 % 16.56 C
1200 22-07-2016 03:55:00 17.2 C 96 % 16.56 C
Sensor: Nr:Datum:Temp:Feuchte:Taupunkt:
Aussen-T/F 1201 22-07-2016 04:00:00 17.2 C 96 % 16.56 C
1202 22-07-2016 04:05:00 17.2 C 96 % 16.56 C
1203 22-07-2016 04:10:00 17.2 C 96 % 16.56 C
1204 22-07-2016 04:15:00 17.1 C 96 % 16.46 C
1205 22-07-2016 04:20:00 17.1 C 96 % 16.46 C
1206 22-07-2016 04:25:00 17 C 96 % 16.36 C
1207 22-07-2016 04:30:00 16.9 C 97 % 16.42 C
1208 22-07-2016 04:35:00 16.9 C 97 % 16.42 C
1209 22-07-2016 04:40:00 16.9 C 97 % 16.42 C
1210 22-07-2016 04:45:00 16.9 C 97 % 16.42 C
1211 22-07-2016 04:50:00 16.9 C 96 % 16.26 C
1212 22-07-2016 04:55:00 16.8 C 96 % 16.16 C
1213 22-07-2016 05:00:00 16.8 C 96 % 16.16 C
1214 22-07-2016 05:05:00 16.8 C 96 % 16.16 C
1215 22-07-2016 05:10:00 16.8 C 96 % 16.16 C
1216 22-07-2016 05:15:00 16.8 C 96 % 16.16 C
1217 22-07-2016 05:20:00 16.8 C 97 % 16.32 C
1218 22-07-2016 05:25:00 16.8 C 97 % 16.32 C
1219 22-07-2016 05:30:00 16.8 C 97 % 16.32 C
1220 22-07-2016 05:35:00 16.7 C 97 % 16.22 C
1221 22-07-2016 05:40:00 16.6 C 97 % 16.12 C
1222 22-07-2016 05:45:00 16.6 C 97 % 16.12 C
1223 22-07-2016 05:50:00 16.6 C 96 % 15.96 C
1224 22-07-2016 05:55:00 16.5 C 96 % 15.86 C
1225 22-07-2016 06:00:00 16.5 C 96 % 15.86 C
Sensor: Nr:Datum:Temp:Feuchte:Taupunkt:
Aussen-T/F 1226 22-07-2016 06:05:00 16.5 C 97 % 16.02 C
1227 22-07-2016 06:10:00 16.6 C 97 % 16.12 C
1228 22-07-2016 06:15:00 16.6 C 97 % 16.12 C
1229 22-07-2016 06:20:00 16.6 C 97 % 16.12 C
1230 22-07-2016 06:25:00 16.6 C 97 % 16.12 C
1231 22-07-2016 06:30:00 16.6 C 97 % 16.12 C
1232 22-07-2016 06:35:00 16.6 C 97 % 16.12 C
1233 22-07-2016 06:40:00 16.7 C 97 % 16.22 C
1234 22-07-2016 06:45:00 16.8 C 97 % 16.32 C
1235 22-07-2016 06:50:00 16.9 C 97 % 16.42 C
1236 22-07-2016 06:55:00 17.1 C 97 % 16.62 C
1237 22-07-2016 07:00:00 17.1 C 97 % 16.62 C
1238 22-07-2016 07:05:00 17.2 C 97 % 16.72 C
1239 22-07-2016 07:10:00 17.2 C 97 % 16.72 C
1240 22-07-2016 07:15:00 17.2 C 97 % 16.72 C
1241 22-07-2016 07:20:00 17.3 C 97 % 16.82 C
1242 22-07-2016 07:25:00 17.3 C 97 % 16.82 C
1243 22-07-2016 07:30:00 17.3 C 97 % 16.82 C
1244 22-07-2016 07:35:00 17.4 C 97 % 16.92 C
1245 22-07-2016 07:40:00 17.4 C 97 % 16.92 C
1246 22-07-2016 07:45:00 17.5 C 97 % 17.02 C
1247 22-07-2016 07:50:00 17.6 C 97 % 17.12 C
1248 22-07-2016 07:55:00 17.6 C 97 % 17.12 C
1249 22-07-2016 08:00:00 17.6 C 97 % 17.12 C
1250 22-07-2016 08:05:00 17.6 C 97 % 17.12 C
Sensor: Nr:Datum:Temp:Feuchte:Taupunkt:
Aussen-T/F 1251 22-07-2016 08:10:00 17.6 C 97 % 17.12 C
1252 22-07-2016 08:15:00 17.6 C 97 % 17.12 C
1253 22-07-2016 08:20:00 17.5 C 97 % 17.02 C
1254 22-07-2016 08:25:00 17.5 C 97 % 17.02 C
1255 22-07-2016 08:30:00 17.5 C 97 % 17.02 C
1256 22-07-2016 08:35:00 17.6 C 97 % 17.12 C
1257 22-07-2016 08:40:00 17.7 C 97 % 17.22 C
1258 22-07-2016 08:45:00 17.6 C 97 % 17.12 C
1259 22-07-2016 08:50:00 17.6 C 97 % 17.12 C
1260 22-07-2016 08:55:00 17.6 C 97 % 17.12 C
1261 22-07-2016 09:00:00 17.7 C 97 % 17.22 C
1262 22-07-2016 09:05:00 17.7 C 97 % 17.22 C
1263 22-07-2016 09:10:00 17.8 C 97 % 17.32 C
1264 22-07-2016 09:15:00 18 C 97 % 17.52 C
1265 22-07-2016 09:20:00 18.2 C 97 % 17.72 C
1266 22-07-2016 09:25:00 18.2 C 97 % 17.72 C
1267 22-07-2016 09:30:00 18.3 C 97 % 17.82 C
1268 22-07-2016 09:35:00 18.3 C 97 % 17.82 C
1269 22-07-2016 09:40:00 18.4 C 97 % 17.91 C
1270 22-07-2016 09:45:00 18.6 C 97 % 18.11 C
1271 22-07-2016 09:50:00 18.6 C 97 % 18.11 C
1272 22-07-2016 09:55:00 18.7 C 97 % 18.21 C
1273 22-07-2016 10:00:00 18.7 C 97 % 18.21 C
1274 22-07-2016 10:05:00 18.8 C 97 % 18.31 C
1275 22-07-2016 10:10:00 18.9 C 97 % 18.41 C
Sensor: Nr:Datum:Temp:Feuchte:Taupunkt:
Aussen-T/F 1276 22-07-2016 10:15:00 19 C 97 % 18.51 C
1277 22-07-2016 10:20:00 19.2 C 97 % 18.71 C
1278 22-07-2016 10:25:00 19.3 C 97 % 18.81 C
1279 22-07-2016 10:30:00 19.4 C 97 % 18.91 C
1280 22-07-2016 10:35:00 19.5 C 97 % 19.01 C
1281 22-07-2016 10:40:00 19.6 C 97 % 19.11 C
1282 22-07-2016 10:45:00 19.8 C 97 % 19.31 C
1283 22-07-2016 10:50:00 20 C 97 % 19.51 C
1284 22-07-2016 10:55:00 20.2 C 97 % 19.71 C
1285 22-07-2016 11:00:00 20.3 C 97 % 19.81 C
1286 22-07-2016 11:05:00 20.4 C 97 % 19.91 C
1287 22-07-2016 11:10:00 20.5 C 97 % 20.01 C
1288 22-07-2016 11:15:00 20.7 C 97 % 20.21 C
1289 22-07-2016 11:20:00 20.8 C 97 % 20.31 C
1290 22-07-2016 11:25:00 20.9 C 97 % 20.41 C
1291 22-07-2016 11:30:00 21.1 C 97 % 20.6 C
1292 22-07-2016 11:35:00 21.3 C 96 % 20.64 C
1293 22-07-2016 11:40:00 21.4 C 96 % 20.74 C
1294 22-07-2016 11:45:00 21.6 C 96 % 20.93 C
1295 22-07-2016 11:50:00 21.7 C 96 % 21.03 C
1296 22-07-2016 11:55:00 21.7 C 96 % 21.03 C
1297 22-07-2016 12:00:00 21.9 C 96 % 21.23 C
1298 22-07-2016 12:05:00 21.9 C 95 % 21.06 C
1299 22-07-2016 12:10:00 22.2 C 95 % 21.36 C
1300 22-07-2016 12:15:00 22.3 C 94 % 21.29 C
Sensor: Nr:Datum:Temp:Feuchte:Taupunkt:
Aussen-T/F 1301 22-07-2016 12:20:00 22.7 C 94 % 21.68 C
1302 22-07-2016 12:25:00 23.1 C 92 % 21.73 C
1303 22-07-2016 12:30:00 23.4 C 93 % 22.2 C
1304 22-07-2016 12:35:00 23.7 C 93 % 22.5 C
1305 22-07-2016 12:40:00 23.7 C 92 % 22.32 C
1306 22-07-2016 12:45:00 23.8 C 90 % 22.06 C
1307 22-07-2016 12:50:00 24 C 89 % 22.07 C
1308 22-07-2016 12:55:00 24.1 C 86 % 21.61 C
1309 22-07-2016 13:00:00 24.3 C 89 % 22.37 C
1310 22-07-2016 13:05:00 24.5 C 88 % 22.38 C
1311 22-07-2016 13:10:00 24.6 C 89 % 22.66 C
1312 22-07-2016 13:15:00 24.6 C 90 % 22.85 C
1313 22-07-2016 13:20:00 24.6 C 90 % 22.85 C
1314 22-07-2016 13:25:00 24.4 C 87 % 22.09 C
1315 22-07-2016 13:30:00 24.5 C 86 % 22 C
1316 22-07-2016 13:35:00 24.7 C 83 % 21.62 C
1317 22-07-2016 13:40:00 24.9 C 82 % 21.61 C
1318 22-07-2016 13:45:00 25.1 C 82 % 21.81 C
1319 22-07-2016 13:50:00 25.3 C 80 % 21.6 C
1320 22-07-2016 13:55:00 25.6 C 78 % 21.48 C
1321 22-07-2016 14:00:00 25.7 C 79 % 21.78 C
1322 22-07-2016 14:05:00 25.9 C 76 % 21.34 C
1323 22-07-2016 14:10:00 26 C 77 % 21.65 C
1324 22-07-2016 14:15:00 26.2 C 76 % 21.63 C
1325 22-07-2016 14:20:00 26.3 C 74 % 21.29 C
Sensor: Nr:Datum:Temp:Feuchte:Taupunkt:
Aussen-T/F 1326 22-07-2016 14:25:00 26.5 C 73 % 21.26 C
1327 22-07-2016 14:30:00 26.7 C 70 % 20.77 C
1328 22-07-2016 14:35:00 26.9 C 71 % 21.19 C
1329 22-07-2016 14:40:00 27 C 69 % 20.82 C
1330 22-07-2016 14:45:00 27.1 C 70 % 21.15 C
1331 22-07-2016 14:50:00 27.1 C 71 % 21.38 C
1332 22-07-2016 14:55:00 27.2 C 74 % 22.16 C
1333 22-07-2016 15:00:00 27.3 C 71 % 21.58 C
1334 22-07-2016 15:05:00 27.4 C 75 % 22.57 C
1335 22-07-2016 15:10:00 27.4 C 68 % 20.97 C
1336 22-07-2016 15:15:00 27.6 C 72 % 22.09 C
1337 22-07-2016 15:20:00 27.7 C 78 % 23.51 C
1338 22-07-2016 15:25:00 27.6 C 73 % 22.32 C
1339 22-07-2016 15:30:00 27.5 C 76 % 22.89 C
1340 22-07-2016 15:35:00 27.3 C 69 % 21.11 C
1341 22-07-2016 15:40:00 27.4 C 76 % 22.79 C
1342 22-07-2016 15:45:00 27.4 C 72 % 21.9 C
1343 22-07-2016 15:50:00 27.8 C 80 % 24.03 C
1344 22-07-2016 15:55:00 28.2 C 74 % 23.12 C
1345 22-07-2016 16:00:00 28.3 C 64 % 20.83 C
1346 22-07-2016 16:05:00 28.8 C 76 % 24.14 C
1347 22-07-2016 16:10:00 29.1 C 61 % 20.81 C
1348 22-07-2016 16:15:00 29.3 C 64 % 21.78 C
1349 22-07-2016 16:20:00 29.6 C 60 % 21.01 C
1350 22-07-2016 16:25:00 29.6 C 67 % 22.82 C
Sensor: Nr:Datum:Temp:Feuchte:Taupunkt:
Aussen-T/F 1351 22-07-2016 16:30:00 29.2 C 64 % 21.68 C
1352 22-07-2016 16:35:00 28.5 C 70 % 22.49 C
1353 22-07-2016 16:40:00 28 C 71 % 22.25 C
1354 22-07-2016 16:45:00 27.7 C 65 % 20.52 C
1355 22-07-2016 16:50:00 27.8 C 64 % 20.36 C
1356 22-07-2016 16:55:00 27.8 C 66 % 20.86 C
1357 22-07-2016 17:00:00 27.5 C 66 % 20.58 C
1358 22-07-2016 17:05:00 27.2 C 66 % 20.29 C
1359 22-07-2016 17:10:00 27 C 65 % 19.86 C
1360 22-07-2016 17:15:00 27.1 C 65 % 19.95 C
1361 22-07-2016 17:20:00 26.9 C 65 % 19.76 C
1362 22-07-2016 17:25:00 26.8 C 64 % 19.42 C
1363 22-07-2016 17:30:00 26.8 C 64 % 19.42 C
1364 22-07-2016 17:35:00 27.1 C 69 % 20.92 C
1365 22-07-2016 17:40:00 27.1 C 68 % 20.68 C
1366 22-07-2016 17:45:00 27 C 69 % 20.82 C
1367 22-07-2016 17:50:00 26.9 C 70 % 20.96 C
1368 22-07-2016 17:55:00 26.8 C 67 % 20.16 C
1369 22-07-2016 18:00:00 26.6 C 66 % 19.72 C
1370 22-07-2016 18:05:00 26.4 C 74 % 21.39 C
1371 22-07-2016 18:10:00 26.3 C 76 % 21.73 C
1372 22-07-2016 18:15:00 26.1 C 76 % 21.53 C
1373 22-07-2016 18:20:00 25.8 C 78 % 21.67 C
1374 22-07-2016 18:25:00 25.6 C 78 % 21.48 C
1375 22-07-2016 18:30:00 25.2 C 79 % 21.3 C
Sensor: Nr:Datum:Temp:Feuchte:Taupunkt:
Aussen-T/F 1376 22-07-2016 18:35:00 24.8 C 81 % 21.31 C
1377 22-07-2016 18:40:00 24.2 C 79 % 20.32 C
1378 22-07-2016 18:45:00 23.9 C 77 % 19.62 C
1379 22-07-2016 18:50:00 23.8 C 80 % 20.14 C
1380 22-07-2016 18:55:00 23.7 C 82 % 20.44 C
1381 22-07-2016 19:00:00 23.5 C 82 % 20.25 C
1382 22-07-2016 19:05:00 23.3 C 83 % 20.25 C
1383 22-07-2016 19:10:00 23.1 C 80 % 19.46 C
1384 22-07-2016 19:15:00 23 C 84 % 20.15 C
1385 22-07-2016 19:20:00 22.9 C 84 % 20.05 C
1386 22-07-2016 19:25:00 22.8 C 84 % 19.95 C
1387 22-07-2016 19:30:00 22.7 C 84 % 19.86 C
1388 22-07-2016 19:35:00 22.6 C 84 % 19.76 C
1389 22-07-2016 19:40:00 22.4 C 85 % 19.75 C
1390 22-07-2016 19:45:00 22.3 C 85 % 19.65 C
1391 22-07-2016 19:50:00 22.2 C 86 % 19.75 C
1392 22-07-2016 19:55:00 22.1 C 87 % 19.83 C
1393 22-07-2016 20:00:00 22.1 C 87 % 19.83 C
1394 22-07-2016 20:05:00 21.9 C 87 % 19.64 C
1395 22-07-2016 20:10:00 21.8 C 87 % 19.54 C
1396 22-07-2016 20:15:00 21.8 C 88 % 19.72 C
1397 22-07-2016 20:20:00 21.7 C 88 % 19.62 C
1398 22-07-2016 20:25:00 21.7 C 88 % 19.62 C
1399 22-07-2016 20:30:00 21.6 C 89 % 19.71 C
1400 22-07-2016 20:35:00 21.5 C 87 % 19.24 C
Sensor: Nr:Datum:Temp:Feuchte:Taupunkt:
Aussen-T/F 1401 22-07-2016 20:40:00 21.5 C 88 % 19.43 C
1402 22-07-2016 20:45:00 21.4 C 88 % 19.33 C
1403 22-07-2016 20:50:00 21.4 C 86 % 18.96 C
1404 22-07-2016 20:55:00 21.3 C 87 % 19.05 C
1405 22-07-2016 21:00:00 21.2 C 87 % 18.95 C
1406 22-07-2016 21:05:00 21.2 C 87 % 18.95 C
1407 22-07-2016 21:10:00 21.1 C 87 % 18.85 C
1408 22-07-2016 21:15:00 20.9 C 88 % 18.84 C
1409 22-07-2016 21:20:00 20.8 C 88 % 18.74 C
1410 22-07-2016 21:25:00 20.7 C 88 % 18.64 C
1411 22-07-2016 21:30:00 20.7 C 89 % 18.82 C
1412 22-07-2016 21:35:00 20.6 C 88 % 18.54 C
1413 22-07-2016 21:40:00 20.4 C 88 % 18.34 C
1414 22-07-2016 21:45:00 20.4 C 88 % 18.34 C
1415 22-07-2016 21:50:00 20.3 C 89 % 18.43 C
1416 22-07-2016 21:55:00 20.3 C 89 % 18.43 C
1417 22-07-2016 22:00:00 20.2 C 89 % 18.33 C
1418 22-07-2016 22:05:00 20.2 C 89 % 18.33 C
1419 22-07-2016 22:10:00 20.1 C 89 % 18.23 C
1420 22-07-2016 22:15:00 20.1 C 89 % 18.23 C
1421 22-07-2016 22:20:00 20 C 89 % 18.13 C
1422 22-07-2016 22:25:00 19.9 C 89 % 18.03 C
1423 22-07-2016 22:30:00 19.9 C 89 % 18.03 C
1424 22-07-2016 22:35:00 19.9 C 89 % 18.03 C
1425 22-07-2016 22:40:00 19.9 C 88 % 17.85 C
Sensor: Nr:Datum:Temp:Feuchte:Taupunkt:
Aussen-T/F 1426 22-07-2016 22:45:00 19.8 C 88 % 17.75 C
1427 22-07-2016 22:50:00 19.9 C 88 % 17.85 C
1428 22-07-2016 22:55:00 19.9 C 88 % 17.85 C
1429 22-07-2016 23:00:00 19.9 C 89 % 18.03 C
1430 22-07-2016 23:05:00 19.9 C 89 % 18.03 C
1431 22-07-2016 23:10:00 19.9 C 89 % 18.03 C
1432 22-07-2016 23:15:00 19.9 C 89 % 18.03 C
1433 22-07-2016 23:20:00 19.9 C 89 % 18.03 C
1434 22-07-2016 23:25:00 19.9 C 89 % 18.03 C
1435 22-07-2016 23:30:00 19.8 C 89 % 17.93 C
1436 22-07-2016 23:35:00 19.8 C 89 % 17.93 C
1437 22-07-2016 23:40:00 19.8 C 90 % 18.11 C
1438 22-07-2016 23:45:00 19.8 C 90 % 18.11 C
1439 22-07-2016 23:50:00 19.8 C 90 % 18.11 C
1440 22-07-2016 23:55:00 19.7 C 90 % 18.01 C
1441 23-07-2016 00:00:00 19.7 C 90 % 18.01 C
1442 23-07-2016 00:05:00 19.7 C 90 % 18.01 C
1443 23-07-2016 00:10:00 19.6 C 90 % 17.91 C
1444 23-07-2016 00:15:00 19.6 C 91 % 18.09 C
1445 23-07-2016 00:20:00 19.6 C 91 % 18.09 C
1446 23-07-2016 00:25:00 19.5 C 91 % 17.99 C
1447 23-07-2016 00:30:00 19.5 C 91 % 17.99 C
1448 23-07-2016 00:35:00 19.4 C 91 % 17.89 C
1449 23-07-2016 00:40:00 19.3 C 91 % 17.79 C
1450 23-07-2016 00:45:00 19.3 C 91 % 17.79 C
Sensor: Nr:Datum:Temp:Feuchte:Taupunkt:
Aussen-T/F 1451 23-07-2016 00:50:00 19.3 C 91 % 17.79 C
1452 23-07-2016 00:55:00 19.2 C 92 % 17.87 C
1453 23-07-2016 01:00:00 19.2 C 92 % 17.87 C
1454 23-07-2016 01:05:00 19.2 C 92 % 17.87 C
1455 23-07-2016 01:10:00 19.2 C 92 % 17.87 C
1456 23-07-2016 01:15:00 19.2 C 92 % 17.87 C
1457 23-07-2016 01:20:00 19.2 C 92 % 17.87 C
1458 23-07-2016 01:25:00 19.2 C 93 % 18.04 C
1459 23-07-2016 01:30:00 19.2 C 93 % 18.04 C
1460 23-07-2016 01:35:00 19.2 C 93 % 18.04 C
1461 23-07-2016 01:40:00 19.1 C 93 % 17.94 C
1462 23-07-2016 01:45:00 19.1 C 92 % 17.77 C
1463 23-07-2016 01:50:00 19.1 C 92 % 17.77 C
1464 23-07-2016 01:55:00 19.1 C 93 % 17.94 C
1465 23-07-2016 02:00:00 19.1 C 93 % 17.94 C
1466 23-07-2016 02:05:00 19.1 C 93 % 17.94 C
1467 23-07-2016 02:10:00 19 C 93 % 17.84 C
1468 23-07-2016 02:15:00 18.9 C 93 % 17.74 C
1469 23-07-2016 02:20:00 18.9 C 93 % 17.74 C
1470 23-07-2016 02:25:00 18.9 C 93 % 17.74 C
1471 23-07-2016 02:30:00 18.9 C 93 % 17.74 C
1472 23-07-2016 02:35:00 18.9 C 93 % 17.74 C
1473 23-07-2016 02:40:00 18.8 C 93 % 17.64 C
1474 23-07-2016 02:45:00 18.8 C 93 % 17.64 C
1475 23-07-2016 02:50:00 18.8 C 93 % 17.64 C
Sensor: Nr:Datum:Temp:Feuchte:Taupunkt:
Aussen-T/F 1476 23-07-2016 02:55:00 18.8 C 93 % 17.64 C
1477 23-07-2016 03:00:00 18.7 C 93 % 17.54 C
1478 23-07-2016 03:05:00 18.7 C 93 % 17.54 C
1479 23-07-2016 03:10:00 18.7 C 93 % 17.54 C
1480 23-07-2016 03:15:00 18.7 C 93 % 17.54 C
1481 23-07-2016 03:20:00 18.6 C 93 % 17.45 C
1482 23-07-2016 03:25:00 18.6 C 93 % 17.45 C
1483 23-07-2016 03:30:00 18.6 C 93 % 17.45 C
1484 23-07-2016 03:35:00 18.6 C 93 % 17.45 C
1485 23-07-2016 03:40:00 18.6 C 93 % 17.45 C
1486 23-07-2016 03:45:00 18.6 C 93 % 17.45 C
1487 23-07-2016 03:50:00 18.5 C 93 % 17.35 C
1488 23-07-2016 03:55:00 18.4 C 93 % 17.25 C
1489 23-07-2016 04:00:00 18.4 C 93 % 17.25 C
1490 23-07-2016 04:05:00 18.4 C 93 % 17.25 C
1491 23-07-2016 04:10:00 18.4 C 93 % 17.25 C
1492 23-07-2016 04:15:00 18.3 C 93 % 17.15 C
1493 23-07-2016 04:20:00 18.3 C 93 % 17.15 C
1494 23-07-2016 04:25:00 18.3 C 93 % 17.15 C
1495 23-07-2016 04:30:00 18.3 C 93 % 17.15 C
1496 23-07-2016 04:35:00 18.4 C 93 % 17.25 C
1497 23-07-2016 04:40:00 18.4 C 93 % 17.25 C
1498 23-07-2016 04:45:00 18.4 C 94 % 17.42 C
1499 23-07-2016 04:50:00 18.4 C 94 % 17.42 C
1500 23-07-2016 04:55:00 18.5 C 94 % 17.52 C
Sensor: Nr:Datum:Temp:Feuchte:Taupunkt:
Aussen-T/F 1501 23-07-2016 05:00:00 18.4 C 94 % 17.42 C
1502 23-07-2016 05:05:00 18.4 C 94 % 17.42 C
1503 23-07-2016 05:10:00 18.4 C 94 % 17.42 C
1504 23-07-2016 05:15:00 18.4 C 94 % 17.42 C
1505 23-07-2016 05:20:00 18.3 C 94 % 17.32 C
1506 23-07-2016 05:25:00 18.3 C 94 % 17.32 C
1507 23-07-2016 05:30:00 18.3 C 94 % 17.32 C
1508 23-07-2016 05:35:00 18.3 C 94 % 17.32 C
1509 23-07-2016 05:40:00 18.3 C 94 % 17.32 C
1510 23-07-2016 05:45:00 18.3 C 94 % 17.32 C
1511 23-07-2016 05:50:00 18.3 C 95 % 17.48 C
1512 23-07-2016 05:55:00 18.3 C 95 % 17.48 C
1513 23-07-2016 06:00:00 18.3 C 95 % 17.48 C
1514 23-07-2016 06:05:00 18.3 C 95 % 17.48 C
1515 23-07-2016 06:10:00 18.3 C 95 % 17.48 C
1516 23-07-2016 06:15:00 18.3 C 95 % 17.48 C
1517 23-07-2016 06:20:00 18.3 C 95 % 17.48 C
1518 23-07-2016 06:25:00 18.4 C 95 % 17.58 C
1519 23-07-2016 06:30:00 18.4 C 95 % 17.58 C
1520 23-07-2016 06:35:00 18.4 C 95 % 17.58 C
1521 23-07-2016 06:40:00 18.4 C 95 % 17.58 C
1522 23-07-2016 06:45:00 18.4 C 95 % 17.58 C
1523 23-07-2016 06:50:00 18.4 C 95 % 17.58 C
1524 23-07-2016 06:55:00 18.4 C 95 % 17.58 C
1525 23-07-2016 07:00:00 18.4 C 95 % 17.58 C
Sensor: Nr:Datum:Temp:Feuchte:Taupunkt:
Aussen-T/F 1526 23-07-2016 07:05:00 18.5 C 95 % 17.68 C
1527 23-07-2016 07:10:00 18.6 C 95 % 17.78 C
1528 23-07-2016 07:15:00 18.6 C 95 % 17.78 C
1529 23-07-2016 07:20:00 18.6 C 95 % 17.78 C
1530 23-07-2016 07:25:00 18.6 C 95 % 17.78 C
1531 23-07-2016 07:30:00 18.7 C 95 % 17.88 C
1532 23-07-2016 07:35:00 18.7 C 96 % 18.05 C
1533 23-07-2016 07:40:00 18.8 C 96 % 18.15 C
1534 23-07-2016 07:45:00 18.9 C 96 % 18.25 C
1535 23-07-2016 07:50:00 18.9 C 96 % 18.25 C
1536 23-07-2016 07:55:00 19 C 96 % 18.35 C
1537 23-07-2016 08:00:00 19 C 96 % 18.35 C
1538 23-07-2016 08:05:00 19 C 95 % 18.18 C
1539 23-07-2016 08:10:00 19 C 95 % 18.18 C
1540 23-07-2016 08:15:00 19 C 95 % 18.18 C
1541 23-07-2016 08:20:00 19 C 95 % 18.18 C
1542 23-07-2016 08:25:00 19 C 95 % 18.18 C
1543 23-07-2016 08:30:00 19.1 C 96 % 18.45 C
1544 23-07-2016 08:35:00 19.2 C 96 % 18.55 C
1545 23-07-2016 08:40:00 19.3 C 95 % 18.48 C
1546 23-07-2016 08:45:00 19.4 C 96 % 18.75 C
1547 23-07-2016 08:50:00 19.4 C 96 % 18.75 C
1548 23-07-2016 08:55:00 19.5 C 95 % 18.68 C
1549 23-07-2016 09:00:00 19.6 C 95 % 18.78 C
1550 23-07-2016 09:05:00 19.7 C 95 % 18.88 C
Sensor: Nr:Datum:Temp:Feuchte:Taupunkt:
Aussen-T/F 1551 23-07-2016 09:10:00 19.7 C 95 % 18.88 C
1552 23-07-2016 09:15:00 19.8 C 95 % 18.98 C
1553 23-07-2016 09:20:00 19.9 C 95 % 19.07 C
1554 23-07-2016 09:25:00 19.9 C 95 % 19.07 C
1555 23-07-2016 09:30:00 20 C 95 % 19.17 C
1556 23-07-2016 09:35:00 20.1 C 95 % 19.27 C
1557 23-07-2016 09:40:00 20.1 C 95 % 19.27 C
1558 23-07-2016 09:45:00 20.1 C 94 % 19.1 C
1559 23-07-2016 09:50:00 20.1 C 94 % 19.1 C
1560 23-07-2016 09:55:00 20.1 C 94 % 19.1 C
1561 23-07-2016 10:00:00 20.3 C 94 % 19.3 C
1562 23-07-2016 10:05:00 20.4 C 94 % 19.4 C
1563 23-07-2016 10:10:00 20.4 C 93 % 19.23 C
1564 23-07-2016 10:15:00 20.5 C 93 % 19.33 C
1565 23-07-2016 10:20:00 20.6 C 93 % 19.43 C
1566 23-07-2016 10:25:00 20.7 C 93 % 19.53 C
1567 23-07-2016 10:30:00 20.7 C 92 % 19.35 C
1568 23-07-2016 10:35:00 20.7 C 92 % 19.35 C
1569 23-07-2016 10:40:00 20.7 C 91 % 19.18 C
1570 23-07-2016 10:45:00 20.8 C 92 % 19.45 C
1571 23-07-2016 10:50:00 20.8 C 92 % 19.45 C
1572 23-07-2016 10:55:00 20.9 C 92 % 19.55 C
1573 23-07-2016 11:00:00 21 C 92 % 19.65 C
1574 23-07-2016 11:05:00 21.1 C 92 % 19.75 C
1575 23-07-2016 11:10:00 21.1 C 92 % 19.75 C
Sensor: Nr:Datum:Temp:Feuchte:Taupunkt:
Aussen-T/F 1576 23-07-2016 11:15:00 21.2 C 93 % 20.02 C
1577 23-07-2016 11:20:00 21.1 C 91 % 19.57 C
1578 23-07-2016 11:25:00 21.1 C 92 % 19.75 C
1579 23-07-2016 11:30:00 21.2 C 92 % 19.85 C
1580 23-07-2016 11:35:00 21.1 C 91 % 19.57 C
1581 23-07-2016 11:40:00 21.1 C 91 % 19.57 C
1582 23-07-2016 11:45:00 21.1 C 90 % 19.39 C
1583 23-07-2016 11:50:00 21.1 C 90 % 19.39 C
1584 23-07-2016 11:55:00 21.2 C 90 % 19.49 C
1585 23-07-2016 12:00:00 21.3 C 89 % 19.41 C
1586 23-07-2016 12:05:00 21.4 C 90 % 19.69 C
1587 23-07-2016 12:10:00 21.7 C 89 % 19.81 C
1588 23-07-2016 12:15:00 21.8 C 89 % 19.9 C
1589 23-07-2016 12:20:00 21.9 C 87 % 19.64 C
1590 23-07-2016 12:25:00 22.1 C 87 % 19.83 C
1591 23-07-2016 12:30:00 22.1 C 86 % 19.65 C
1592 23-07-2016 12:35:00 22.2 C 85 % 19.56 C
1593 23-07-2016 12:40:00 22.3 C 85 % 19.65 C
1594 23-07-2016 12:45:00 22.3 C 84 % 19.46 C
1595 23-07-2016 12:50:00 22.4 C 84 % 19.56 C
1596 23-07-2016 12:55:00 22.5 C 84 % 19.66 C
1597 23-07-2016 13:00:00 22.5 C 82 % 19.27 C
1598 23-07-2016 13:05:00 22.6 C 82 % 19.37 C
1599 23-07-2016 13:10:00 22.6 C 82 % 19.37 C
1600 23-07-2016 13:15:00 22.7 C 82 % 19.47 C
Sensor: Nr:Datum:Temp:Feuchte:Taupunkt:
Aussen-T/F 1601 23-07-2016 13:20:00 22.8 C 83 % 19.76 C
1602 23-07-2016 13:25:00 22.8 C 82 % 19.56 C
1603 23-07-2016 13:30:00 22.9 C 82 % 19.66 C
1604 23-07-2016 13:35:00 23.1 C 84 % 20.25 C
1605 23-07-2016 13:40:00 23.3 C 82 % 20.05 C
1606 23-07-2016 13:45:00 23.4 C 82 % 20.15 C
1607 23-07-2016 13:50:00 23.5 C 79 % 19.65 C
1608 23-07-2016 13:55:00 23.6 C 79 % 19.74 C
1609 23-07-2016 14:00:00 23.7 C 79 % 19.84 C
1610 23-07-2016 14:05:00 23.8 C 80 % 20.14 C
1611 23-07-2016 14:10:00 23.9 C 78 % 19.83 C
1612 23-07-2016 14:15:00 24.1 C 78 % 20.02 C
1613 23-07-2016 14:20:00 24.1 C 79 % 20.23 C
1614 23-07-2016 14:25:00 24.2 C 76 % 19.7 C
1615 23-07-2016 14:30:00 24.3 C 77 % 20.01 C
1616 23-07-2016 14:35:00 24.3 C 75 % 19.58 C
1617 23-07-2016 14:40:00 24.3 C 74 % 19.37 C
1618 23-07-2016 14:45:00 24.2 C 74 % 19.27 C
1619 23-07-2016 14:50:00 24.2 C 77 % 19.91 C
1620 23-07-2016 14:55:00 24.1 C 77 % 19.81 C
1621 23-07-2016 15:00:00 23.9 C 77 % 19.62 C
1622 23-07-2016 15:05:00 23.8 C 79 % 19.94 C
1623 23-07-2016 15:10:00 23.7 C 79 % 19.84 C
1624 23-07-2016 15:15:00 23.7 C 78 % 19.63 C
1625 23-07-2016 15:20:00 23.6 C 78 % 19.54 C
Sensor: Nr:Datum:Temp:Feuchte:Taupunkt:
Aussen-T/F 1626 23-07-2016 15:25:00 23.4 C 79 % 19.55 C
1627 23-07-2016 15:30:00 23.4 C 80 % 19.75 C
1628 23-07-2016 15:35:00 23.4 C 80 % 19.75 C
1629 23-07-2016 15:40:00 23.3 C 82 % 20.05 C
1630 23-07-2016 15:45:00 23.2 C 81 % 19.76 C
1631 23-07-2016 15:50:00 23 C 81 % 19.56 C
1632 23-07-2016 15:55:00 22.9 C 82 % 19.66 C
1633 23-07-2016 16:00:00 22.9 C 83 % 19.86 C
1634 23-07-2016 16:05:00 22.9 C 84 % 20.05 C
1635 23-07-2016 16:10:00 22.9 C 83 % 19.86 C
1636 23-07-2016 16:15:00 23.1 C 83 % 20.05 C
1637 23-07-2016 16:20:00 23.1 C 83 % 20.05 C
1638 23-07-2016 16:25:00 23.1 C 83 % 20.05 C
1639 23-07-2016 16:30:00 23 C 82 % 19.76 C
1640 23-07-2016 16:35:00 22.8 C 85 % 20.14 C
1641 23-07-2016 16:40:00 22.5 C 87 % 20.23 C
1642 23-07-2016 16:45:00 22 C 88 % 19.92 C
1643 23-07-2016 16:50:00 21.7 C 89 % 19.81 C
1644 23-07-2016 16:55:00 21.4 C 91 % 19.87 C
1645 23-07-2016 17:00:00 21.2 C 91 % 19.67 C
1646 23-07-2016 17:05:00 20.9 C 92 % 19.55 C
1647 23-07-2016 17:10:00 20.8 C 92 % 19.45 C
1648 23-07-2016 17:15:00 20.7 C 92 % 19.35 C
1649 23-07-2016 17:20:00 20.6 C 93 % 19.43 C
1650 23-07-2016 17:25:00 20.5 C 93 % 19.33 C
Sensor: Nr:Datum:Temp:Feuchte:Taupunkt:
Aussen-T/F 1651 23-07-2016 17:30:00 20.5 C 93 % 19.33 C
1652 23-07-2016 17:35:00 20.5 C 93 % 19.33 C
1653 23-07-2016 17:40:00 20.4 C 93 % 19.23 C
1654 23-07-2016 17:45:00 20.4 C 93 % 19.23 C
1655 23-07-2016 17:50:00 20.4 C 93 % 19.23 C
1656 23-07-2016 17:55:00 20.4 C 94 % 19.4 C
1657 23-07-2016 18:00:00 20.4 C 94 % 19.4 C
1658 23-07-2016 18:05:00 20.5 C 94 % 19.5 C
1659 23-07-2016 18:10:00 20.6 C 95 % 19.77 C
1660 23-07-2016 18:15:00 20.6 C 94 % 19.6 C
1661 23-07-2016 18:20:00 20.6 C 95 % 19.77 C
1662 23-07-2016 18:25:00 20.8 C 95 % 19.97 C
1663 23-07-2016 18:30:00 20.8 C 95 % 19.97 C
1664 23-07-2016 18:35:00 20.8 C 95 % 19.97 C
1665 23-07-2016 18:40:00 20.9 C 95 % 20.07 C
1666 23-07-2016 18:45:00 21.1 C 95 % 20.27 C
1667 23-07-2016 18:50:00 21.1 C 95 % 20.27 C
1668 23-07-2016 18:55:00 21.2 C 95 % 20.37 C
1669 23-07-2016 19:00:00 21.2 C 95 % 20.37 C
1670 23-07-2016 19:05:00 21.1 C 95 % 20.27 C
1671 23-07-2016 19:10:00 21.1 C 95 % 20.27 C
1672 23-07-2016 19:15:00 21.1 C 95 % 20.27 C
1673 23-07-2016 19:20:00 21.2 C 95 % 20.37 C
1674 23-07-2016 19:25:00 21.1 C 95 % 20.27 C
1675 23-07-2016 19:30:00 21.1 C 95 % 20.27 C
Sensor: Nr:Datum:Temp:Feuchte:Taupunkt:
Aussen-T/F 1676 23-07-2016 19:35:00 21.1 C 95 % 20.27 C
1677 23-07-2016 19:40:00 21.1 C 95 % 20.27 C
1678 23-07-2016 19:45:00 21 C 95 % 20.17 C
1679 23-07-2016 19:50:00 20.9 C 95 % 20.07 C
1680 23-07-2016 19:55:00 20.9 C 95 % 20.07 C
1681 23-07-2016 20:00:00 20.8 C 95 % 19.97 C
1682 23-07-2016 20:05:00 20.8 C 95 % 19.97 C
1683 23-07-2016 20:10:00 20.8 C 95 % 19.97 C
1684 23-07-2016 20:15:00 20.7 C 95 % 19.87 C
1685 23-07-2016 20:20:00 20.7 C 95 % 19.87 C
1686 23-07-2016 20:25:00 20.7 C 95 % 19.87 C
1687 23-07-2016 20:30:00 20.6 C 95 % 19.77 C
1688 23-07-2016 20:35:00 20.6 C 95 % 19.77 C
1689 23-07-2016 20:40:00 20.6 C 95 % 19.77 C
1690 23-07-2016 20:45:00 20.5 C 95 % 19.67 C
1691 23-07-2016 20:50:00 20.5 C 95 % 19.67 C
1692 23-07-2016 20:55:00 20.4 C 96 % 19.74 C
1693 23-07-2016 21:00:00 20.5 C 96 % 19.84 C
1694 23-07-2016 21:05:00 20.5 C 96 % 19.84 C
1695 23-07-2016 21:10:00 20.4 C 95 % 19.57 C
1696 23-07-2016 21:15:00 20.4 C 96 % 19.74 C
1697 23-07-2016 21:20:00 20.4 C 96 % 19.74 C
1698 23-07-2016 21:25:00 20.4 C 96 % 19.74 C
1699 23-07-2016 21:30:00 20.3 C 95 % 19.47 C
1700 23-07-2016 21:35:00 20.2 C 96 % 19.54 C
Sensor: Nr:Datum:Temp:Feuchte:Taupunkt:
Aussen-T/F 1701 23-07-2016 21:40:00 20.1 C 96 % 19.44 C
1702 23-07-2016 21:45:00 20.1 C 95 % 19.27 C
1703 23-07-2016 21:50:00 19.9 C 95 % 19.07 C
1704 23-07-2016 21:55:00 19.9 C 95 % 19.07 C
1705 23-07-2016 22:00:00 19.8 C 96 % 19.14 C
1706 23-07-2016 22:05:00 19.8 C 96 % 19.14 C
1707 23-07-2016 22:10:00 19.7 C 95 % 18.88 C
1708 23-07-2016 22:15:00 19.7 C 96 % 19.04 C
1709 23-07-2016 22:20:00 19.7 C 96 % 19.04 C
1710 23-07-2016 22:25:00 19.6 C 96 % 18.94 C
1711 23-07-2016 22:30:00 19.6 C 96 % 18.94 C
1712 23-07-2016 22:35:00 19.6 C 96 % 18.94 C
1713 23-07-2016 22:40:00 19.6 C 96 % 18.94 C
1714 23-07-2016 22:45:00 19.5 C 96 % 18.84 C
1715 23-07-2016 22:50:00 19.5 C 96 % 18.84 C
1716 23-07-2016 22:55:00 19.4 C 96 % 18.75 C
1717 23-07-2016 23:00:00 19.4 C 96 % 18.75 C
1718 23-07-2016 23:05:00 19.4 C 96 % 18.75 C
1719 23-07-2016 23:10:00 19.4 C 96 % 18.75 C
1720 23-07-2016 23:15:00 19.4 C 96 % 18.75 C
1721 23-07-2016 23:20:00 19.4 C 96 % 18.75 C
1722 23-07-2016 23:25:00 19.4 C 96 % 18.75 C
1723 23-07-2016 23:30:00 19.4 C 96 % 18.75 C
1724 23-07-2016 23:35:00 19.4 C 96 % 18.75 C
1725 23-07-2016 23:40:00 19.3 C 96 % 18.65 C
Sensor: Nr:Datum:Temp:Feuchte:Taupunkt:
Aussen-T/F 1726 23-07-2016 23:45:00 19.3 C 96 % 18.65 C
1727 23-07-2016 23:50:00 19.3 C 96 % 18.65 C
1728 23-07-2016 23:55:00 19.3 C 96 % 18.65 C
1729 24-07-2016 00:00:00 19.3 C 96 % 18.65 C
1730 24-07-2016 00:05:00 19.3 C 96 % 18.65 C
1731 24-07-2016 00:10:00 19.3 C 96 % 18.65 C
1732 24-07-2016 00:15:00 19.3 C 96 % 18.65 C
1733 24-07-2016 00:20:00 19.3 C 96 % 18.65 C
1734 24-07-2016 00:25:00 19.2 C 96 % 18.55 C
1735 24-07-2016 00:30:00 19.2 C 96 % 18.55 C
1736 24-07-2016 00:35:00 19.1 C 96 % 18.45 C
1737 24-07-2016 00:40:00 19.1 C 96 % 18.45 C
1738 24-07-2016 00:45:00 19.1 C 96 % 18.45 C
1739 24-07-2016 00:50:00 19.1 C 96 % 18.45 C
1740 24-07-2016 00:55:00 19.1 C 96 % 18.45 C
1741 24-07-2016 01:00:00 19.1 C 96 % 18.45 C
1742 24-07-2016 01:05:00 19.1 C 96 % 18.45 C
1743 24-07-2016 01:10:00 19.1 C 96 % 18.45 C
1744 24-07-2016 01:15:00 19.1 C 96 % 18.45 C
1745 24-07-2016 01:20:00 19.1 C 96 % 18.45 C
1746 24-07-2016 01:25:00 19.1 C 96 % 18.45 C
1747 24-07-2016 01:30:00 19.1 C 96 % 18.45 C
1748 24-07-2016 01:35:00 19.2 C 97 % 18.71 C
1749 24-07-2016 01:40:00 19.2 C 97 % 18.71 C
1750 24-07-2016 01:45:00 19.2 C 97 % 18.71 C
Sensor: Nr:Datum:Temp:Feuchte:Taupunkt:
Aussen-T/F 1751 24-07-2016 01:50:00 19.2 C 97 % 18.71 C
1752 24-07-2016 01:55:00 19.1 C 97 % 18.61 C
1753 24-07-2016 02:00:00 19.1 C 97 % 18.61 C
1754 24-07-2016 02:05:00 19.1 C 97 % 18.61 C
1755 24-07-2016 02:10:00 19.1 C 97 % 18.61 C
1756 24-07-2016 02:15:00 19.1 C 97 % 18.61 C
1757 24-07-2016 02:20:00 19.1 C 96 % 18.45 C
1758 24-07-2016 02:25:00 19.1 C 96 % 18.45 C
1759 24-07-2016 02:30:00 19.1 C 96 % 18.45 C
1760 24-07-2016 02:35:00 19.1 C 96 % 18.45 C
1761 24-07-2016 02:40:00 19.1 C 97 % 18.61 C
1762 24-07-2016 02:45:00 19.1 C 97 % 18.61 C
1763 24-07-2016 02:50:00 19.1 C 97 % 18.61 C
1764 24-07-2016 02:55:00 19.1 C 97 % 18.61 C
1765 24-07-2016 03:00:00 19.1 C 97 % 18.61 C
1766 24-07-2016 03:05:00 19.1 C 97 % 18.61 C
1767 24-07-2016 03:10:00 19.1 C 97 % 18.61 C
1768 24-07-2016 03:15:00 19.1 C 97 % 18.61 C
1769 24-07-2016 03:20:00 19.1 C 97 % 18.61 C
1770 24-07-2016 03:25:00 19.1 C 97 % 18.61 C
1771 24-07-2016 03:30:00 19.1 C 97 % 18.61 C
1772 24-07-2016 03:35:00 19.1 C 97 % 18.61 C
1773 24-07-2016 03:40:00 19.1 C 97 % 18.61 C
1774 24-07-2016 03:45:00 19.1 C 97 % 18.61 C
1775 24-07-2016 03:50:00 19.2 C 97 % 18.71 C
Sensor: Nr:Datum:Temp:Feuchte:Taupunkt:
Aussen-T/F 1776 24-07-2016 03:55:00 19.1 C 97 % 18.61 C
1777 24-07-2016 04:00:00 19.1 C 97 % 18.61 C
1778 24-07-2016 04:05:00 19.1 C 97 % 18.61 C
1779 24-07-2016 04:10:00 19.1 C 97 % 18.61 C
1780 24-07-2016 04:15:00 19.1 C 97 % 18.61 C
1781 24-07-2016 04:20:00 19.1 C 97 % 18.61 C
1782 24-07-2016 04:25:00 19.1 C 97 % 18.61 C
1783 24-07-2016 04:30:00 19.1 C 97 % 18.61 C
1784 24-07-2016 04:35:00 19.1 C 97 % 18.61 C
1785 24-07-2016 04:40:00 19 C 97 % 18.51 C
1786 24-07-2016 04:45:00 18.9 C 97 % 18.41 C
1787 24-07-2016 04:50:00 18.9 C 97 % 18.41 C
1788 24-07-2016 04:55:00 18.8 C 97 % 18.31 C
1789 24-07-2016 05:00:00 18.8 C 97 % 18.31 C
1790 24-07-2016 05:05:00 18.7 C 96 % 18.05 C
1791 24-07-2016 05:10:00 18.7 C 96 % 18.05 C
1792 24-07-2016 05:15:00 18.6 C 97 % 18.11 C
1793 24-07-2016 05:20:00 18.6 C 97 % 18.11 C
1794 24-07-2016 05:25:00 18.6 C 97 % 18.11 C
1795 24-07-2016 05:30:00 18.5 C 97 % 18.01 C
1796 24-07-2016 05:35:00 18.5 C 97 % 18.01 C
1797 24-07-2016 05:40:00 18.5 C 97 % 18.01 C
1798 24-07-2016 05:45:00 18.6 C 97 % 18.11 C
1799 24-07-2016 05:50:00 18.6 C 97 % 18.11 C
1800 24-07-2016 05:55:00 18.6 C 97 % 18.11 C
Sensor: Nr:Datum:Temp:Feuchte:Taupunkt:
Aussen-T/F 1801 24-07-2016 06:00:00 18.6 C 97 % 18.11 C
1802 24-07-2016 06:05:00 18.6 C 97 % 18.11 C
1803 24-07-2016 06:10:00 18.6 C 97 % 18.11 C
1804 24-07-2016 06:15:00 18.6 C 97 % 18.11 C
1805 24-07-2016 06:20:00 18.6 C 97 % 18.11 C
1806 24-07-2016 06:25:00 18.6 C 97 % 18.11 C
1807 24-07-2016 06:30:00 18.7 C 97 % 18.21 C
1808 24-07-2016 06:35:00 18.7 C 97 % 18.21 C
1809 24-07-2016 06:40:00 18.7 C 97 % 18.21 C
1810 24-07-2016 06:45:00 18.7 C 97 % 18.21 C
1811 24-07-2016 06:50:00 18.8 C 97 % 18.31 C
1812 24-07-2016 06:55:00 18.8 C 97 % 18.31 C
1813 24-07-2016 07:00:00 18.8 C 97 % 18.31 C
1814 24-07-2016 07:05:00 18.8 C 97 % 18.31 C
1815 24-07-2016 07:10:00 18.9 C 97 % 18.41 C
1816 24-07-2016 07:15:00 18.9 C 97 % 18.41 C
1817 24-07-2016 07:20:00 18.9 C 97 % 18.41 C
1818 24-07-2016 07:25:00 19 C 97 % 18.51 C
1819 24-07-2016 07:30:00 19 C 97 % 18.51 C
1820 24-07-2016 07:35:00 19.1 C 97 % 18.61 C
1821 24-07-2016 07:40:00 19.1 C 97 % 18.61 C
1822 24-07-2016 07:45:00 19.2 C 97 % 18.71 C
1823 24-07-2016 07:50:00 19.2 C 97 % 18.71 C
1824 24-07-2016 07:55:00 19.3 C 97 % 18.81 C
1825 24-07-2016 08:00:00 19.3 C 97 % 18.81 C
Sensor: Nr:Datum:Temp:Feuchte:Taupunkt:
Aussen-T/F 1826 24-07-2016 08:05:00 19.3 C 97 % 18.81 C
1827 24-07-2016 08:10:00 19.3 C 97 % 18.81 C
1828 24-07-2016 08:15:00 19.3 C 97 % 18.81 C
1829 24-07-2016 08:20:00 19.4 C 97 % 18.91 C
1830 24-07-2016 08:25:00 19.4 C 97 % 18.91 C
1831 24-07-2016 08:30:00 19.4 C 97 % 18.91 C
1832 24-07-2016 08:35:00 19.4 C 97 % 18.91 C
1833 24-07-2016 08:40:00 19.4 C 97 % 18.91 C
1834 24-07-2016 08:45:00 19.6 C 97 % 19.11 C
1835 24-07-2016 08:50:00 19.6 C 97 % 19.11 C
1836 24-07-2016 08:55:00 19.6 C 97 % 19.11 C
1837 24-07-2016 09:00:00 19.6 C 97 % 19.11 C
1838 24-07-2016 09:05:00 19.7 C 97 % 19.21 C
1839 24-07-2016 09:10:00 19.7 C 97 % 19.21 C
1840 24-07-2016 09:15:00 19.7 C 97 % 19.21 C
1841 24-07-2016 09:20:00 19.7 C 97 % 19.21 C
1842 24-07-2016 09:25:00 19.8 C 97 % 19.31 C
1843 24-07-2016 09:30:00 19.7 C 97 % 19.21 C
1844 24-07-2016 09:35:00 19.7 C 97 % 19.21 C
1845 24-07-2016 09:40:00 19.7 C 97 % 19.21 C
1846 24-07-2016 09:45:00 19.7 C 97 % 19.21 C
1847 24-07-2016 09:50:00 19.7 C 96 % 19.04 C
1848 24-07-2016 09:55:00 19.8 C 96 % 19.14 C
1849 24-07-2016 10:00:00 19.9 C 96 % 19.24 C
1850 24-07-2016 10:05:00 19.9 C 96 % 19.24 C
Sensor: Nr:Datum:Temp:Feuchte:Taupunkt:
Aussen-T/F 1851 24-07-2016 10:10:00 20.1 C 96 % 19.44 C
1852 24-07-2016 10:15:00 20.1 C 95 % 19.27 C
1853 24-07-2016 10:20:00 20.2 C 94 % 19.2 C
1854 24-07-2016 10:25:00 20.3 C 94 % 19.3 C
1855 24-07-2016 10:30:00 20.4 C 94 % 19.4 C
1856 24-07-2016 10:35:00 20.4 C 93 % 19.23 C
1857 24-07-2016 10:40:00 20.6 C 93 % 19.43 C
1858 24-07-2016 10:45:00 20.7 C 92 % 19.35 C
1859 24-07-2016 10:50:00 20.7 C 92 % 19.35 C
1860 24-07-2016 10:55:00 20.8 C 91 % 19.28 C
1861 24-07-2016 11:00:00 20.8 C 91 % 19.28 C
1862 24-07-2016 11:05:00 20.9 C 91 % 19.37 C
1863 24-07-2016 11:10:00 21.1 C 90 % 19.39 C
1864 24-07-2016 11:15:00 21.3 C 89 % 19.41 C
1865 24-07-2016 11:20:00 21.4 C 90 % 19.69 C
1866 24-07-2016 11:25:00 21.4 C 88 % 19.33 C
1867 24-07-2016 11:30:00 21.7 C 91 % 20.17 C
1868 24-07-2016 11:35:00 21.8 C 92 % 20.44 C
1869 24-07-2016 11:40:00 21.8 C 89 % 19.9 C
1870 24-07-2016 11:45:00 21.9 C 90 % 20.18 C
1871 24-07-2016 11:50:00 22 C 88 % 19.92 C
1872 24-07-2016 11:55:00 22.1 C 87 % 19.83 C
1873 24-07-2016 12:00:00 22.3 C 85 % 19.65 C
1874 24-07-2016 12:05:00 22.5 C 87 % 20.23 C
1875 24-07-2016 12:10:00 22.7 C 85 % 20.05 C
Sensor: Nr:Datum:Temp:Feuchte:Taupunkt:
Aussen-T/F 1876 24-07-2016 12:15:00 22.9 C 82 % 19.66 C
1877 24-07-2016 12:20:00 23.2 C 82 % 19.95 C
1878 24-07-2016 12:25:00 23.3 C 81 % 19.85 C
1879 24-07-2016 12:30:00 23.3 C 80 % 19.65 C
1880 24-07-2016 12:35:00 23.3 C 79 % 19.45 C
1881 24-07-2016 12:40:00 23.3 C 79 % 19.45 C
1882 24-07-2016 12:45:00 23.3 C 79 % 19.45 C
1883 24-07-2016 12:50:00 23.3 C 77 % 19.04 C
1884 24-07-2016 12:55:00 23.4 C 83 % 20.35 C
1885 24-07-2016 13:00:00 23.5 C 80 % 19.85 C
1886 24-07-2016 13:05:00 23.6 C 80 % 19.95 C
1887 24-07-2016 13:10:00 23.7 C 81 % 20.24 C
1888 24-07-2016 13:15:00 23.7 C 81 % 20.24 C
1889 24-07-2016 13:20:00 23.6 C 81 % 20.15 C
1890 24-07-2016 13:25:00 23.7 C 81 % 20.24 C
1891 24-07-2016 13:30:00 23.7 C 82 % 20.44 C
1892 24-07-2016 13:35:00 23.8 C 83 % 20.74 C
1893 24-07-2016 13:40:00 23.9 C 79 % 20.03 C
1894 24-07-2016 13:45:00 23.9 C 76 % 19.41 C
1895 24-07-2016 13:50:00 24 C 80 % 20.33 C
1896 24-07-2016 13:55:00 24.1 C 77 % 19.81 C
1897 24-07-2016 14:00:00 24.2 C 76 % 19.7 C
1898 24-07-2016 14:05:00 24.3 C 76 % 19.8 C
1899 24-07-2016 14:10:00 24.3 C 76 % 19.8 C
1900 24-07-2016 14:15:00 24.5 C 77 % 20.2 C
Sensor: Nr:Datum:Temp:Feuchte:Taupunkt:
Aussen-T/F 1901 24-07-2016 14:20:00 24.6 C 74 % 19.66 C
1902 24-07-2016 14:25:00 24.6 C 73 % 19.44 C
1903 24-07-2016 14:30:00 24.7 C 75 % 19.97 C
1904 24-07-2016 14:35:00 24.7 C 73 % 19.53 C
1905 24-07-2016 14:40:00 24.7 C 73 % 19.53 C
1906 24-07-2016 14:45:00 24.7 C 74 % 19.75 C
1907 24-07-2016 14:50:00 24.7 C 82 % 21.42 C
1908 24-07-2016 14:55:00 24.7 C 76 % 20.18 C
1909 24-07-2016 15:00:00 24.8 C 74 % 19.85 C
1910 24-07-2016 15:05:00 25.2 C 75 % 20.45 C
1911 24-07-2016 15:10:00 25.6 C 70 % 19.72 C
1912 24-07-2016 15:15:00 25.8 C 70 % 19.91 C
1913 24-07-2016 15:20:00 25.9 C 69 % 19.77 C
1914 24-07-2016 15:25:00 25.9 C 70 % 20.01 C
1915 24-07-2016 15:30:00 26.1 C 67 % 19.49 C
1916 24-07-2016 15:35:00 26.3 C 66 % 19.44 C
1917 24-07-2016 15:40:00 26.6 C 66 % 19.72 C
1918 24-07-2016 15:45:00 27 C 63 % 19.35 C
1919 24-07-2016 15:50:00 27.3 C 63 % 19.63 C
1920 24-07-2016 15:55:00 27.4 C 59 % 18.68 C
1921 24-07-2016 16:00:00 27.7 C 63 % 20.01 C
1922 24-07-2016 16:05:00 28 C 59 % 19.24 C
1923 24-07-2016 16:10:00 28.1 C 64 % 20.64 C
1924 24-07-2016 16:15:00 28.2 C 70 % 22.2 C
1925 24-07-2016 16:20:00 28 C 60 % 19.51 C
Sensor: Nr:Datum:Temp:Feuchte:Taupunkt:
Aussen-T/F 1926 24-07-2016 16:25:00 27.8 C 59 % 19.05 C
1927 24-07-2016 16:30:00 28.1 C 67 % 21.39 C
1928 24-07-2016 16:35:00 28.1 C 64 % 20.64 C
1929 24-07-2016 16:40:00 27.9 C 62 % 19.94 C
1930 24-07-2016 16:45:00 27.6 C 63 % 19.92 C
1931 24-07-2016 16:50:00 27.5 C 60 % 19.04 C
1932 24-07-2016 16:55:00 27.6 C 71 % 21.86 C
1933 24-07-2016 17:00:00 27.5 C 65 % 20.33 C
1934 24-07-2016 17:05:00 27.8 C 74 % 22.73 C
1935 24-07-2016 17:10:00 27.9 C 61 % 19.68 C
1936 24-07-2016 17:15:00 28.2 C 61 % 19.96 C
1937 24-07-2016 17:20:00 28.3 C 60 % 19.79 C
1938 24-07-2016 17:25:00 28.4 C 59 % 19.61 C
1939 24-07-2016 17:30:00 28.5 C 57 % 19.15 C
1940 24-07-2016 17:35:00 28.6 C 58 % 19.52 C
1941 24-07-2016 17:40:00 28.7 C 63 % 20.95 C
1942 24-07-2016 17:45:00 28.7 C 57 % 19.34 C
1943 24-07-2016 17:50:00 28.8 C 59 % 19.99 C
1944 24-07-2016 17:55:00 29.1 C 56 % 19.42 C
1945 24-07-2016 18:00:00 29.2 C 57 % 19.8 C
1946 24-07-2016 18:05:00 29.1 C 57 % 19.71 C
1947 24-07-2016 18:10:00 28.9 C 56 % 19.24 C
1948 24-07-2016 18:15:00 28.9 C 58 % 19.8 C
1949 24-07-2016 18:20:00 28.7 C 59 % 19.89 C
1950 24-07-2016 18:25:00 28.5 C 60 % 19.98 C
Sensor: Nr:Datum:Temp:Feuchte:Taupunkt:
Aussen-T/F 1951 24-07-2016 18:30:00 28.2 C 62 % 20.22 C
1952 24-07-2016 18:35:00 28 C 62 % 20.04 C
1953 24-07-2016 18:40:00 27.8 C 60 % 19.32 C
1954 24-07-2016 18:45:00 27.8 C 69 % 21.59 C
1955 24-07-2016 18:50:00 27.6 C 71 % 21.86 C
1956 24-07-2016 18:55:00 27.5 C 67 % 20.82 C
1957 24-07-2016 19:00:00 27.7 C 64 % 20.27 C
1958 24-07-2016 19:05:00 28 C 67 % 21.3 C
1959 24-07-2016 19:10:00 28 C 62 % 20.04 C
1960 24-07-2016 19:15:00 28.1 C 63 % 20.39 C
1961 24-07-2016 19:20:00 28.1 C 63 % 20.39 C
1962 24-07-2016 19:25:00 28.1 C 68 % 21.63 C
1963 24-07-2016 19:30:00 27.9 C 63 % 20.2 C
1964 24-07-2016 19:35:00 27.7 C 69 % 21.49 C
1965 24-07-2016 19:40:00 27.6 C 72 % 22.09 C
1966 24-07-2016 19:45:00 27.3 C 73 % 22.03 C
1967 24-07-2016 19:50:00 27.1 C 73 % 21.84 C
1968 24-07-2016 19:55:00 26.7 C 74 % 21.68 C
1969 24-07-2016 20:00:00 26.4 C 75 % 21.61 C
1970 24-07-2016 20:05:00 26.1 C 75 % 21.32 C
1971 24-07-2016 20:10:00 25.7 C 75 % 20.93 C
1972 24-07-2016 20:15:00 25.4 C 77 % 21.07 C
1973 24-07-2016 20:20:00 25.1 C 77 % 20.78 C
1974 24-07-2016 20:25:00 24.8 C 78 % 20.7 C
1975 24-07-2016 20:30:00 24.6 C 79 % 20.71 C
Sensor: Nr:Datum:Temp:Feuchte:Taupunkt:
Aussen-T/F 1976 24-07-2016 20:35:00 24.3 C 80 % 20.63 C
1977 24-07-2016 20:40:00 24 C 80 % 20.33 C
1978 24-07-2016 20:45:00 23.7 C 81 % 20.24 C
1979 24-07-2016 20:50:00 23.4 C 81 % 19.95 C
1980 24-07-2016 20:55:00 23.2 C 82 % 19.95 C
1981 24-07-2016 21:00:00 22.9 C 82 % 19.66 C
1982 24-07-2016 21:05:00 22.8 C 83 % 19.76 C
1983 24-07-2016 21:10:00 22.6 C 83 % 19.56 C
1984 24-07-2016 21:15:00 22.3 C 84 % 19.46 C
1985 24-07-2016 21:20:00 22.1 C 84 % 19.27 C
1986 24-07-2016 21:25:00 21.9 C 84 % 19.07 C
1987 24-07-2016 21:30:00 21.8 C 85 % 19.16 C
1988 24-07-2016 21:35:00 21.6 C 85 % 18.97 C
1989 24-07-2016 21:40:00 21.5 C 85 % 18.87 C
1990 24-07-2016 21:45:00 21.4 C 85 % 18.77 C
1991 24-07-2016 21:50:00 21.3 C 85 % 18.67 C
1992 24-07-2016 21:55:00 21.2 C 86 % 18.76 C
1993 24-07-2016 22:00:00 21.2 C 86 % 18.76 C
1994 24-07-2016 22:05:00 21.1 C 87 % 18.85 C
1995 24-07-2016 22:10:00 21 C 87 % 18.75 C
1996 24-07-2016 22:15:00 20.9 C 87 % 18.65 C
1997 24-07-2016 22:20:00 20.8 C 87 % 18.56 C
1998 24-07-2016 22:25:00 20.7 C 88 % 18.64 C
1999 24-07-2016 22:30:00 20.7 C 88 % 18.64 C
2000 24-07-2016 22:35:00 20.6 C 89 % 18.72 C
Sensor: Nr:Datum:Temp:Feuchte:Taupunkt:
Aussen-T/F 2001 24-07-2016 22:40:00 20.4 C 89 % 18.53 C
2002 24-07-2016 22:45:00 20.4 C 89 % 18.53 C
2003 24-07-2016 22:50:00 20.3 C 90 % 18.61 C
2004 24-07-2016 22:55:00 20.3 C 90 % 18.61 C
2005 24-07-2016 23:00:00 20.3 C 90 % 18.61 C
2006 24-07-2016 23:05:00 20.3 C 91 % 18.78 C
2007 24-07-2016 23:10:00 20.3 C 91 % 18.78 C
2008 24-07-2016 23:15:00 20.3 C 91 % 18.78 C
2009 24-07-2016 23:20:00 20.3 C 91 % 18.78 C
2010 24-07-2016 23:25:00 20.3 C 91 % 18.78 C
2011 24-07-2016 23:30:00 20.2 C 91 % 18.68 C
2012 24-07-2016 23:35:00 20.2 C 91 % 18.68 C
2013 24-07-2016 23:40:00 20.1 C 91 % 18.58 C
2014 24-07-2016 23:45:00 20.1 C 91 % 18.58 C
2015 24-07-2016 23:50:00 19.9 C 91 % 18.39 C
2016 24-07-2016 23:55:00 19.9 C 91 % 18.39 C
2017 25-07-2016 00:00:00 19.8 C 91 % 18.29 C
2018 25-07-2016 00:05:00 19.8 C 91 % 18.29 C
2019 25-07-2016 00:10:00 19.7 C 92 % 18.36 C
2020 25-07-2016 00:15:00 19.7 C 92 % 18.36 C
2021 25-07-2016 00:20:00 19.8 C 92 % 18.46 C
2022 25-07-2016 00:25:00 19.8 C 92 % 18.46 C
2023 25-07-2016 00:30:00 19.8 C 92 % 18.46 C
2024 25-07-2016 00:35:00 19.8 C 92 % 18.46 C
2025 25-07-2016 00:40:00 19.8 C 92 % 18.46 C
Sensor: Nr:Datum:Temp:Feuchte:Taupunkt:
Aussen-T/F 2026 25-07-2016 00:45:00 19.8 C 92 % 18.46 C
2027 25-07-2016 00:50:00 19.8 C 92 % 18.46 C
2028 25-07-2016 00:55:00 19.8 C 92 % 18.46 C
2029 25-07-2016 01:00:00 19.8 C 92 % 18.46 C
2030 25-07-2016 01:05:00 19.8 C 92 % 18.46 C
2031 25-07-2016 01:10:00 19.8 C 92 % 18.46 C
2032 25-07-2016 01:15:00 19.8 C 92 % 18.46 C
2033 25-07-2016 01:20:00 19.8 C 92 % 18.46 C
2034 25-07-2016 01:25:00 19.8 C 92 % 18.46 C
2035 25-07-2016 01:30:00 19.7 C 92 % 18.36 C
2036 25-07-2016 01:35:00 19.7 C 92 % 18.36 C
2037 25-07-2016 01:40:00 19.6 C 92 % 18.26 C
2038 25-07-2016 01:45:00 19.5 C 92 % 18.17 C
2039 25-07-2016 01:50:00 19.3 C 91 % 17.79 C
2040 25-07-2016 01:55:00 19.3 C 92 % 17.97 C
2041 25-07-2016 02:00:00 19.2 C 92 % 17.87 C
2042 25-07-2016 02:05:00 19.2 C 92 % 17.87 C
2043 25-07-2016 02:10:00 19.2 C 92 % 17.87 C
2044 25-07-2016 02:15:00 19.1 C 92 % 17.77 C
2045 25-07-2016 02:20:00 18.9 C 92 % 17.57 C
2046 25-07-2016 02:25:00 18.8 C 92 % 17.47 C
2047 25-07-2016 02:30:00 18.7 C 92 % 17.37 C
2048 25-07-2016 02:35:00 18.6 C 92 % 17.27 C
2049 25-07-2016 02:40:00 18.6 C 93 % 17.45 C
2050 25-07-2016 02:45:00 18.5 C 93 % 17.35 C
Sensor: Nr:Datum:Temp:Feuchte:Taupunkt:
Aussen-T/F 2051 25-07-2016 02:50:00 18.5 C 93 % 17.35 C
2052 25-07-2016 02:55:00 18.5 C 94 % 17.52 C
2053 25-07-2016 03:00:00 18.6 C 94 % 17.62 C
2054 25-07-2016 03:05:00 18.6 C 94 % 17.62 C
2055 25-07-2016 03:10:00 18.6 C 94 % 17.62 C
2056 25-07-2016 03:15:00 18.4 C 94 % 17.42 C
2057 25-07-2016 03:20:00 18.4 C 93 % 17.25 C
2058 25-07-2016 03:25:00 18.3 C 94 % 17.32 C
2059 25-07-2016 03:30:00 18.3 C 94 % 17.32 C
2060 25-07-2016 03:35:00 18.2 C 94 % 17.22 C
2061 25-07-2016 03:40:00 18.2 C 94 % 17.22 C
2062 25-07-2016 03:45:00 18.2 C 94 % 17.22 C
2063 25-07-2016 03:50:00 18.1 C 94 % 17.12 C
2064 25-07-2016 03:55:00 18.1 C 94 % 17.12 C
2065 25-07-2016 04:00:00 18.1 C 94 % 17.12 C
2066 25-07-2016 04:05:00 18.1 C 94 % 17.12 C
2067 25-07-2016 04:10:00 18 C 94 % 17.02 C
2068 25-07-2016 04:15:00 17.9 C 94 % 16.92 C
2069 25-07-2016 04:20:00 17.9 C 94 % 16.92 C
2070 25-07-2016 04:25:00 17.8 C 94 % 16.82 C
2071 25-07-2016 04:30:00 17.8 C 94 % 16.82 C
2072 25-07-2016 04:35:00 17.8 C 95 % 16.99 C
2073 25-07-2016 04:40:00 17.8 C 95 % 16.99 C
2074 25-07-2016 04:45:00 17.8 C 95 % 16.99 C
2075 25-07-2016 04:50:00 17.8 C 95 % 16.99 C
Sensor: Nr:Datum:Temp:Feuchte:Taupunkt:
Aussen-T/F 2076 25-07-2016 04:55:00 17.8 C 95 % 16.99 C
2077 25-07-2016 05:00:00 17.7 C 95 % 16.89 C
2078 25-07-2016 05:05:00 17.7 C 95 % 16.89 C
2079 25-07-2016 05:10:00 17.6 C 95 % 16.79 C
2080 25-07-2016 05:15:00 17.6 C 95 % 16.79 C
2081 25-07-2016 05:20:00 17.5 C 95 % 16.69 C
2082 25-07-2016 05:25:00 17.5 C 95 % 16.69 C
2083 25-07-2016 05:30:00 17.5 C 95 % 16.69 C
2084 25-07-2016 05:35:00 17.6 C 95 % 16.79 C
2085 25-07-2016 05:40:00 17.6 C 95 % 16.79 C
2086 25-07-2016 05:45:00 17.6 C 95 % 16.79 C
2087 25-07-2016 05:50:00 17.5 C 95 % 16.69 C
2088 25-07-2016 05:55:00 17.5 C 95 % 16.69 C
2089 25-07-2016 06:00:00 17.4 C 95 % 16.59 C
2090 25-07-2016 06:05:00 17.3 C 95 % 16.49 C
2091 25-07-2016 06:10:00 17.3 C 95 % 16.49 C
2092 25-07-2016 06:15:00 17.2 C 95 % 16.39 C
2093 25-07-2016 06:20:00 17.3 C 95 % 16.49 C
2094 25-07-2016 06:25:00 17.3 C 95 % 16.49 C
2095 25-07-2016 06:30:00 17.3 C 95 % 16.49 C
2096 25-07-2016 06:35:00 17.4 C 95 % 16.59 C
2097 25-07-2016 06:40:00 17.4 C 95 % 16.59 C
2098 25-07-2016 06:45:00 17.5 C 96 % 16.85 C
2099 25-07-2016 06:50:00 17.6 C 96 % 16.95 C
2100 25-07-2016 06:55:00 17.7 C 96 % 17.05 C
Sensor: Nr:Datum:Temp:Feuchte:Taupunkt:
Aussen-T/F 2101 25-07-2016 07:00:00 17.7 C 96 % 17.05 C
2102 25-07-2016 07:05:00 17.8 C 96 % 17.15 C
2103 25-07-2016 07:10:00 17.9 C 96 % 17.25 C
2104 25-07-2016 07:15:00 17.9 C 96 % 17.25 C
2105 25-07-2016 07:20:00 18.1 C 96 % 17.45 C
2106 25-07-2016 07:25:00 18.2 C 96 % 17.55 C
2107 25-07-2016 07:30:00 18.3 C 96 % 17.65 C
2108 25-07-2016 07:35:00 18.3 C 96 % 17.65 C
2109 25-07-2016 07:40:00 18.4 C 96 % 17.75 C
2110 25-07-2016 07:45:00 18.4 C 95 % 17.58 C
2111 25-07-2016 07:50:00 18.6 C 95 % 17.78 C
2112 25-07-2016 07:55:00 18.6 C 95 % 17.78 C
2113 25-07-2016 08:00:00 18.7 C 95 % 17.88 C
2114 25-07-2016 08:05:00 18.8 C 95 % 17.98 C
2115 25-07-2016 08:10:00 18.9 C 95 % 18.08 C
2116 25-07-2016 08:15:00 19 C 95 % 18.18 C
2117 25-07-2016 08:20:00 19.1 C 95 % 18.28 C
2118 25-07-2016 08:25:00 19.1 C 94 % 18.11 C
2119 25-07-2016 08:30:00 19.1 C 94 % 18.11 C
2120 25-07-2016 08:35:00 19.2 C 94 % 18.21 C
2121 25-07-2016 08:40:00 19.3 C 94 % 18.31 C
2122 25-07-2016 08:45:00 19.4 C 94 % 18.41 C
2123 25-07-2016 08:50:00 19.6 C 94 % 18.61 C
2124 25-07-2016 08:55:00 19.7 C 94 % 18.71 C
2125 25-07-2016 09:00:00 19.7 C 93 % 18.54 C
Sensor: Nr:Datum:Temp:Feuchte:Taupunkt:
Aussen-T/F 2126 25-07-2016 09:05:00 19.8 C 93 % 18.63 C
2127 25-07-2016 09:10:00 20 C 93 % 18.83 C
2128 25-07-2016 09:15:00 20.1 C 93 % 18.93 C
2129 25-07-2016 09:20:00 20.1 C 92 % 18.76 C
2130 25-07-2016 09:25:00 20.2 C 91 % 18.68 C
2131 25-07-2016 09:30:00 20.2 C 90 % 18.51 C
2132 25-07-2016 09:35:00 20.3 C 91 % 18.78 C
2133 25-07-2016 09:40:00 20.3 C 88 % 18.25 C
2134 25-07-2016 09:45:00 20.5 C 90 % 18.8 C
2135 25-07-2016 09:50:00 20.6 C 86 % 18.18 C
2136 25-07-2016 09:55:00 20.7 C 87 % 18.46 C
2137 25-07-2016 10:00:00 20.8 C 85 % 18.18 C
2138 25-07-2016 10:05:00 21 C 86 % 18.57 C
2139 25-07-2016 10:10:00 21.1 C 86 % 18.67 C
2140 25-07-2016 10:15:00 21.2 C 84 % 18.39 C
2141 25-07-2016 10:20:00 21.3 C 83 % 18.29 C
2142 25-07-2016 10:25:00 21.5 C 81 % 18.1 C
2143 25-07-2016 10:30:00 21.8 C 84 % 18.97 C
2144 25-07-2016 10:35:00 22 C 79 % 18.19 C
2145 25-07-2016 10:40:00 22.2 C 77 % 17.98 C
2146 25-07-2016 10:45:00 22.4 C 76 % 17.96 C
2147 25-07-2016 10:50:00 22.6 C 76 % 18.15 C
2148 25-07-2016 10:55:00 22.7 C 80 % 19.07 C
2149 25-07-2016 11:00:00 22.6 C 73 % 17.51 C
2150 25-07-2016 11:05:00 22.7 C 76 % 18.25 C
Sensor: Nr:Datum:Temp:Feuchte:Taupunkt:
Aussen-T/F 2151 25-07-2016 11:10:00 22.7 C 73 % 17.61 C
2152 25-07-2016 11:15:00 22.8 C 72 % 17.49 C
2153 25-07-2016 11:20:00 23 C 73 % 17.9 C
2154 25-07-2016 11:25:00 23.1 C 77 % 18.85 C
2155 25-07-2016 11:30:00 23.2 C 71 % 17.65 C
2156 25-07-2016 11:35:00 23.2 C 74 % 18.31 C
2157 25-07-2016 11:40:00 23.4 C 77 % 19.14 C
2158 25-07-2016 11:45:00 23.4 C 69 % 17.39 C
2159 25-07-2016 11:50:00 23.6 C 69 % 17.58 C
2160 25-07-2016 11:55:00 23.7 C 69 % 17.67 C
2161 25-07-2016 12:00:00 23.7 C 69 % 17.67 C
2162 25-07-2016 12:05:00 23.8 C 69 % 17.77 C
2163 25-07-2016 12:10:00 23.9 C 69 % 17.87 C
2164 25-07-2016 12:15:00 24.1 C 69 % 18.06 C
2165 25-07-2016 12:20:00 24.2 C 68 % 17.92 C
2166 25-07-2016 12:25:00 24.2 C 67 % 17.68 C
2167 25-07-2016 12:30:00 24.2 C 69 % 18.15 C
2168 25-07-2016 12:35:00 24.2 C 72 % 18.83 C
2169 25-07-2016 12:40:00 24.2 C 70 % 18.38 C
2170 25-07-2016 12:45:00 24.2 C 72 % 18.83 C
2171 25-07-2016 12:50:00 24.2 C 74 % 19.27 C
2172 25-07-2016 12:55:00 24.1 C 74 % 19.17 C
2173 25-07-2016 13:00:00 24.1 C 73 % 18.96 C
2174 25-07-2016 13:05:00 24.1 C 72 % 18.73 C
2175 25-07-2016 13:10:00 24.1 C 75 % 19.39 C
Sensor: Nr:Datum:Temp:Feuchte:Taupunkt:
Aussen-T/F 2176 25-07-2016 13:15:00 24.1 C 74 % 19.17 C
2177 25-07-2016 13:20:00 24.2 C 73 % 19.05 C
2178 25-07-2016 13:25:00 24.5 C 71 % 18.89 C
2179 25-07-2016 13:30:00 24.8 C 69 % 18.72 C
2180 25-07-2016 13:35:00 24.9 C 70 % 19.05 C
2181 25-07-2016 13:40:00 24.8 C 75 % 20.06 C
2182 25-07-2016 13:45:00 24.7 C 76 % 20.18 C
2183 25-07-2016 13:50:00 24.4 C 73 % 19.24 C
2184 25-07-2016 13:55:00 24.3 C 77 % 20.01 C
2185 25-07-2016 14:00:00 24.3 C 78 % 20.22 C
2186 25-07-2016 14:05:00 24.3 C 71 % 18.7 C
2187 25-07-2016 14:10:00 24.6 C 70 % 18.76 C
2188 25-07-2016 14:15:00 24.8 C 69 % 18.72 C
2189 25-07-2016 14:20:00 25.1 C 67 % 18.54 C
2190 25-07-2016 14:25:00 25.3 C 67 % 18.73 C
2191 25-07-2016 14:30:00 25.4 C 68 % 19.06 C
2192 25-07-2016 14:35:00 25.5 C 69 % 19.39 C
2193 25-07-2016 14:40:00 25.5 C 68 % 19.16 C
2194 25-07-2016 14:45:00 25.6 C 65 % 18.53 C
2195 25-07-2016 14:50:00 25.7 C 72 % 20.27 C
2196 25-07-2016 14:55:00 25.7 C 68 % 19.35 C
2197 25-07-2016 15:00:00 25.8 C 68 % 19.44 C
2198 25-07-2016 15:05:00 25.9 C 63 % 18.31 C
2199 25-07-2016 15:10:00 26 C 65 % 18.91 C
2200 25-07-2016 15:15:00 26.1 C 72 % 20.65 C
Sensor: Nr:Datum:Temp:Feuchte:Taupunkt:
Aussen-T/F 2201 25-07-2016 15:20:00 25.9 C 63 % 18.31 C
2202 25-07-2016 15:25:00 26.1 C 62 % 18.25 C
2203 25-07-2016 15:30:00 26.3 C 63 % 18.69 C
2204 25-07-2016 15:35:00 26.5 C 65 % 19.38 C
2205 25-07-2016 15:40:00 26.2 C 68 % 19.82 C
2206 25-07-2016 15:45:00 25.9 C 73 % 20.69 C
2207 25-07-2016 15:50:00 25.7 C 67 % 19.11 C
2208 25-07-2016 15:55:00 25.9 C 64 % 18.57 C
2209 25-07-2016 16:00:00 26.5 C 66 % 19.63 C
2210 25-07-2016 16:05:00 26.7 C 67 % 20.06 C
2211 25-07-2016 16:10:00 26.6 C 62 % 18.72 C
2212 25-07-2016 16:15:00 26.6 C 59 % 17.93 C
2213 25-07-2016 16:20:00 26.6 C 59 % 17.93 C
2214 25-07-2016 16:25:00 26.4 C 60 % 18.01 C
2215 25-07-2016 16:30:00 26.3 C 61 % 18.18 C
2216 25-07-2016 16:35:00 26.3 C 61 % 18.18 C
2217 25-07-2016 16:40:00 26.2 C 60 % 17.82 C
2218 25-07-2016 16:45:00 26.2 C 62 % 18.34 C
2219 25-07-2016 16:50:00 26.2 C 62 % 18.34 C
2220 25-07-2016 16:55:00 26.3 C 60 % 17.91 C
2221 25-07-2016 17:00:00 26.3 C 59 % 17.65 C
2222 25-07-2016 17:05:00 26.3 C 60 % 17.91 C
2223 25-07-2016 17:10:00 26.3 C 64 % 18.94 C
2224 25-07-2016 17:15:00 26.2 C 68 % 19.82 C
2225 25-07-2016 17:20:00 26.1 C 70 % 20.2 C
Sensor: Nr:Datum:Temp:Feuchte:Taupunkt:
Aussen-T/F 2226 25-07-2016 17:25:00 25.8 C 64 % 18.47 C
2227 25-07-2016 17:30:00 25.8 C 70 % 19.91 C
2228 25-07-2016 17:35:00 25.8 C 73 % 20.59 C
2229 25-07-2016 17:40:00 25.8 C 74 % 20.81 C
2230 25-07-2016 17:45:00 25.7 C 64 % 18.38 C
2231 25-07-2016 17:50:00 25.6 C 65 % 18.53 C
2232 25-07-2016 17:55:00 25.5 C 63 % 17.94 C
2233 25-07-2016 18:00:00 25.6 C 63 % 18.03 C
2234 25-07-2016 18:05:00 25.7 C 72 % 20.27 C
2235 25-07-2016 18:10:00 25.6 C 75 % 20.84 C
2236 25-07-2016 18:15:00 25.2 C 70 % 19.34 C
2237 25-07-2016 18:20:00 24.9 C 76 % 20.38 C
2238 25-07-2016 18:25:00 24.7 C 76 % 20.18 C
2239 25-07-2016 18:30:00 24.6 C 78 % 20.51 C
2240 25-07-2016 18:35:00 24.3 C 78 % 20.22 C
2241 25-07-2016 18:40:00 24.3 C 80 % 20.63 C
2242 25-07-2016 18:45:00 24.3 C 80 % 20.63 C
2243 25-07-2016 18:50:00 24.7 C 76 % 20.18 C
2244 25-07-2016 18:55:00 25.3 C 68 % 18.97 C
2245 25-07-2016 19:00:00 25.9 C 75 % 21.13 C
2246 25-07-2016 19:05:00 25.9 C 75 % 21.13 C
2247 25-07-2016 19:10:00 25.7 C 75 % 20.93 C
2248 25-07-2016 19:15:00 25.3 C 76 % 20.76 C
2249 25-07-2016 19:20:00 24.8 C 78 % 20.7 C
2250 25-07-2016 19:25:00 24.5 C 79 % 20.62 C
Sensor: Nr:Datum:Temp:Feuchte:Taupunkt:
Aussen-T/F 2251 25-07-2016 19:30:00 24.3 C 80 % 20.63 C
2252 25-07-2016 19:35:00 24.3 C 72 % 18.93 C
2253 25-07-2016 19:40:00 24.6 C 72 % 19.21 C
2254 25-07-2016 19:45:00 24.9 C 68 % 18.59 C
2255 25-07-2016 19:50:00 25.2 C 70 % 19.34 C
2256 25-07-2016 19:55:00 25.3 C 66 % 18.49 C
2257 25-07-2016 20:00:00 25.4 C 65 % 18.34 C
2258 25-07-2016 20:05:00 25.6 C 67 % 19.01 C
2259 25-07-2016 20:10:00 25.6 C 67 % 19.01 C
2260 25-07-2016 20:15:00 25.7 C 65 % 18.62 C
2261 25-07-2016 20:20:00 25.7 C 65 % 18.62 C
2262 25-07-2016 20:25:00 25.7 C 66 % 18.87 C
2263 25-07-2016 20:30:00 25.5 C 65 % 18.44 C
2264 25-07-2016 20:35:00 25.3 C 68 % 18.97 C
2265 25-07-2016 20:40:00 25.1 C 69 % 19.01 C
2266 25-07-2016 20:45:00 24.8 C 68 % 18.49 C
2267 25-07-2016 20:50:00 24.6 C 68 % 18.3 C
2268 25-07-2016 20:55:00 24.4 C 69 % 18.34 C
2269 25-07-2016 21:00:00 24.2 C 71 % 18.61 C
2270 25-07-2016 21:05:00 23.9 C 76 % 19.41 C
2271 25-07-2016 21:10:00 23.4 C 77 % 19.14 C
2272 25-07-2016 21:15:00 23 C 78 % 18.96 C
2273 25-07-2016 21:20:00 22.6 C 80 % 18.97 C
2274 25-07-2016 21:25:00 22.3 C 81 % 18.88 C
2275 25-07-2016 21:30:00 22.2 C 83 % 19.17 C
Sensor: Nr:Datum:Temp:Feuchte:Taupunkt:
Aussen-T/F 2276 25-07-2016 21:35:00 22 C 83 % 18.98 C
2277 25-07-2016 21:40:00 21.8 C 83 % 18.78 C
2278 25-07-2016 21:45:00 21.8 C 84 % 18.97 C
2279 25-07-2016 21:50:00 21.8 C 84 % 18.97 C
2280 25-07-2016 21:55:00 21.7 C 84 % 18.88 C
2281 25-07-2016 22:00:00 21.7 C 84 % 18.88 C
2282 25-07-2016 22:05:00 21.7 C 84 % 18.88 C
2283 25-07-2016 22:10:00 21.7 C 83 % 18.69 C
2284 25-07-2016 22:15:00 21.7 C 83 % 18.69 C
2285 25-07-2016 22:20:00 21.7 C 84 % 18.88 C
2286 25-07-2016 22:25:00 21.7 C 84 % 18.88 C
2287 25-07-2016 22:30:00 21.6 C 84 % 18.78 C
2288 25-07-2016 22:35:00 21.5 C 83 % 18.49 C
2289 25-07-2016 22:40:00 21.5 C 84 % 18.68 C
2290 25-07-2016 22:45:00 21.4 C 84 % 18.58 C
2291 25-07-2016 22:50:00 21.3 C 84 % 18.49 C
2292 25-07-2016 22:55:00 21.2 C 84 % 18.39 C
2293 25-07-2016 23:00:00 21 C 84 % 18.19 C
2294 25-07-2016 23:05:00 20.8 C 84 % 18 C
2295 25-07-2016 23:10:00 20.7 C 85 % 18.09 C
2296 25-07-2016 23:15:00 20.6 C 85 % 17.99 C
2297 25-07-2016 23:20:00 20.5 C 85 % 17.89 C
2298 25-07-2016 23:25:00 20.4 C 85 % 17.79 C
2299 25-07-2016 23:30:00 20.4 C 86 % 17.98 C
2300 25-07-2016 23:35:00 20.3 C 86 % 17.88 C
Sensor: Nr:Datum:Temp:Feuchte:Taupunkt:
Aussen-T/F 2301 25-07-2016 23:40:00 20.2 C 85 % 17.6 C
2302 25-07-2016 23:45:00 20.2 C 86 % 17.78 C
2303 25-07-2016 23:50:00 20.1 C 86 % 17.68 C
2304 25-07-2016 23:55:00 19.9 C 87 % 17.67 C
2305 26-07-2016 00:00:00 19.8 C 87 % 17.57 C
2306 26-07-2016 00:05:00 19.8 C 87 % 17.57 C
2307 26-07-2016 00:10:00 19.7 C 88 % 17.66 C
2308 26-07-2016 00:15:00 19.7 C 88 % 17.66 C
2309 26-07-2016 00:20:00 19.7 C 88 % 17.66 C
2310 26-07-2016 00:25:00 19.6 C 88 % 17.56 C
2311 26-07-2016 00:30:00 19.6 C 88 % 17.56 C
2312 26-07-2016 00:35:00 19.4 C 89 % 17.54 C
2313 26-07-2016 00:40:00 19.3 C 89 % 17.44 C
2314 26-07-2016 00:45:00 19.3 C 89 % 17.44 C
2315 26-07-2016 00:50:00 19.2 C 90 % 17.52 C
2316 26-07-2016 00:55:00 19.2 C 90 % 17.52 C
2317 26-07-2016 01:00:00 19.1 C 90 % 17.42 C
2318 26-07-2016 01:05:00 19 C 91 % 17.5 C
2319 26-07-2016 01:10:00 18.9 C 91 % 17.4 C
2320 26-07-2016 01:15:00 18.9 C 91 % 17.4 C
2321 26-07-2016 01:20:00 18.8 C 91 % 17.3 C
2322 26-07-2016 01:25:00 18.7 C 91 % 17.2 C
2323 26-07-2016 01:30:00 18.7 C 91 % 17.2 C
2324 26-07-2016 01:35:00 18.6 C 92 % 17.27 C
2325 26-07-2016 01:40:00 18.6 C 92 % 17.27 C
Sensor: Nr:Datum:Temp:Feuchte:Taupunkt:
Aussen-T/F 2326 26-07-2016 01:45:00 18.5 C 92 % 17.18 C
2327 26-07-2016 01:50:00 18.4 C 92 % 17.08 C
2328 26-07-2016 01:55:00 18.4 C 92 % 17.08 C
2329 26-07-2016 02:00:00 18.3 C 92 % 16.98 C
2330 26-07-2016 02:05:00 18.2 C 92 % 16.88 C
2331 26-07-2016 02:10:00 18.2 C 92 % 16.88 C
2332 26-07-2016 02:15:00 18.1 C 93 % 16.95 C
2333 26-07-2016 02:20:00 18.1 C 93 % 16.95 C
2334 26-07-2016 02:25:00 18.1 C 93 % 16.95 C
2335 26-07-2016 02:30:00 18.1 C 93 % 16.95 C
2336 26-07-2016 02:35:00 18.1 C 93 % 16.95 C
2337 26-07-2016 02:40:00 18.1 C 93 % 16.95 C
2338 26-07-2016 02:45:00 18.2 C 94 % 17.22 C
2339 26-07-2016 02:50:00 18.2 C 94 % 17.22 C
2340 26-07-2016 02:55:00 18.2 C 94 % 17.22 C
2341 26-07-2016 03:00:00 18.2 C 94 % 17.22 C
2342 26-07-2016 03:05:00 18.2 C 94 % 17.22 C
2343 26-07-2016 03:10:00 18.2 C 93 % 17.05 C
2344 26-07-2016 03:15:00 18.1 C 93 % 16.95 C
2345 26-07-2016 03:20:00 18.1 C 93 % 16.95 C
2346 26-07-2016 03:25:00 18 C 93 % 16.85 C
2347 26-07-2016 03:30:00 18 C 93 % 16.85 C
2348 26-07-2016 03:35:00 17.9 C 93 % 16.75 C
2349 26-07-2016 03:40:00 17.9 C 93 % 16.75 C
2350 26-07-2016 03:45:00 17.9 C 94 % 16.92 C
Sensor: Nr:Datum:Temp:Feuchte:Taupunkt:
Aussen-T/F 2351 26-07-2016 03:50:00 17.9 C 94 % 16.92 C
2352 26-07-2016 03:55:00 17.9 C 94 % 16.92 C
2353 26-07-2016 04:00:00 17.9 C 94 % 16.92 C
2354 26-07-2016 04:05:00 17.9 C 94 % 16.92 C
2355 26-07-2016 04:10:00 17.9 C 94 % 16.92 C
2356 26-07-2016 04:15:00 17.9 C 94 % 16.92 C
2357 26-07-2016 04:20:00 17.9 C 94 % 16.92 C
2358 26-07-2016 04:25:00 17.9 C 94 % 16.92 C
2359 26-07-2016 04:30:00 17.9 C 94 % 16.92 C
2360 26-07-2016 04:35:00 17.9 C 94 % 16.92 C
2361 26-07-2016 04:40:00 17.9 C 94 % 16.92 C
2362 26-07-2016 04:45:00 17.9 C 94 % 16.92 C
2363 26-07-2016 04:50:00 17.9 C 94 % 16.92 C
2364 26-07-2016 04:55:00 17.8 C 94 % 16.82 C
2365 26-07-2016 05:00:00 17.8 C 94 % 16.82 C
2366 26-07-2016 05:05:00 17.8 C 94 % 16.82 C
2367 26-07-2016 05:10:00 17.7 C 94 % 16.72 C
2368 26-07-2016 05:15:00 17.7 C 94 % 16.72 C
2369 26-07-2016 05:20:00 17.7 C 94 % 16.72 C
2370 26-07-2016 05:25:00 17.6 C 94 % 16.62 C
2371 26-07-2016 05:30:00 17.6 C 94 % 16.62 C
2372 26-07-2016 05:35:00 17.4 C 94 % 16.42 C
2373 26-07-2016 05:40:00 17.4 C 94 % 16.42 C
2374 26-07-2016 05:45:00 17.3 C 94 % 16.33 C
2375 26-07-2016 05:50:00 17.3 C 94 % 16.33 C
Sensor: Nr:Datum:Temp:Feuchte:Taupunkt:
Aussen-T/F 2376 26-07-2016 05:55:00 17.3 C 95 % 16.49 C
2377 26-07-2016 06:00:00 17.3 C 95 % 16.49 C
2378 26-07-2016 06:05:00 17.4 C 95 % 16.59 C
2379 26-07-2016 06:10:00 17.4 C 95 % 16.59 C
2380 26-07-2016 06:15:00 17.4 C 95 % 16.59 C
2381 26-07-2016 06:20:00 17.5 C 95 % 16.69 C
2382 26-07-2016 06:25:00 17.6 C 95 % 16.79 C
2383 26-07-2016 06:30:00 17.6 C 95 % 16.79 C
2384 26-07-2016 06:35:00 17.7 C 95 % 16.89 C
2385 26-07-2016 06:40:00 17.7 C 95 % 16.89 C
2386 26-07-2016 06:45:00 17.8 C 95 % 16.99 C
2387 26-07-2016 06:50:00 17.8 C 95 % 16.99 C
2388 26-07-2016 06:55:00 17.9 C 95 % 17.09 C
2389 26-07-2016 07:00:00 18 C 95 % 17.19 C
2390 26-07-2016 07:05:00 18.1 C 95 % 17.29 C
2391 26-07-2016 07:10:00 18.2 C 95 % 17.39 C
2392 26-07-2016 07:15:00 18.4 C 96 % 17.75 C
2393 26-07-2016 07:20:00 18.4 C 95 % 17.58 C
2394 26-07-2016 07:25:00 18.5 C 95 % 17.68 C
2395 26-07-2016 07:30:00 18.6 C 95 % 17.78 C
2396 26-07-2016 07:35:00 18.6 C 95 % 17.78 C
2397 26-07-2016 07:40:00 18.7 C 95 % 17.88 C
2398 26-07-2016 07:45:00 18.7 C 95 % 17.88 C
2399 26-07-2016 07:50:00 18.8 C 94 % 17.81 C
2400 26-07-2016 07:55:00 18.9 C 94 % 17.91 C
Sensor: Nr:Datum:Temp:Feuchte:Taupunkt:
Aussen-T/F 2401 26-07-2016 08:00:00 19 C 94 % 18.01 C
2402 26-07-2016 08:05:00 19.1 C 93 % 17.94 C
2403 26-07-2016 08:10:00 19.2 C 93 % 18.04 C
2404 26-07-2016 08:15:00 19.2 C 92 % 17.87 C
2405 26-07-2016 08:20:00 19.3 C 92 % 17.97 C
2406 26-07-2016 08:25:00 19.4 C 92 % 18.07 C
2407 26-07-2016 08:30:00 19.5 C 91 % 17.99 C
2408 26-07-2016 08:35:00 19.7 C 91 % 18.19 C
2409 26-07-2016 08:40:00 19.8 C 91 % 18.29 C
2410 26-07-2016 08:45:00 20 C 90 % 18.31 C
2411 26-07-2016 08:50:00 20.1 C 90 % 18.41 C
2412 26-07-2016 08:55:00 20.2 C 89 % 18.33 C
2413 26-07-2016 09:00:00 20.3 C 89 % 18.43 C
2414 26-07-2016 09:05:00 20.3 C 89 % 18.43 C
2415 26-07-2016 09:10:00 20.4 C 89 % 18.53 C
2416 26-07-2016 09:15:00 20.5 C 88 % 18.44 C
2417 26-07-2016 09:20:00 20.6 C 88 % 18.54 C
2418 26-07-2016 09:25:00 20.7 C 88 % 18.64 C
2419 26-07-2016 09:30:00 20.8 C 88 % 18.74 C
2420 26-07-2016 09:35:00 20.8 C 88 % 18.74 C
2421 26-07-2016 09:40:00 20.8 C 87 % 18.56 C
2422 26-07-2016 09:45:00 20.8 C 88 % 18.74 C
2423 26-07-2016 09:50:00 20.8 C 88 % 18.74 C
2424 26-07-2016 09:55:00 20.8 C 87 % 18.56 C
2425 26-07-2016 10:00:00 20.8 C 88 % 18.74 C
Sensor: Nr:Datum:Temp:Feuchte:Taupunkt:
Aussen-T/F 2426 26-07-2016 10:05:00 20.8 C 88 % 18.74 C
2427 26-07-2016 10:10:00 20.8 C 87 % 18.56 C
2428 26-07-2016 10:15:00 20.7 C 87 % 18.46 C
2429 26-07-2016 10:20:00 20.7 C 88 % 18.64 C
2430 26-07-2016 10:25:00 20.7 C 87 % 18.46 C
2431 26-07-2016 10:30:00 20.6 C 87 % 18.36 C
2432 26-07-2016 10:35:00 20.7 C 88 % 18.64 C
2433 26-07-2016 10:40:00 20.6 C 87 % 18.36 C
2434 26-07-2016 10:45:00 20.7 C 87 % 18.46 C
2435 26-07-2016 10:50:00 20.6 C 87 % 18.36 C
2436 26-07-2016 10:55:00 20.7 C 88 % 18.64 C
2437 26-07-2016 11:00:00 20.8 C 89 % 18.92 C
2438 26-07-2016 11:05:00 20.9 C 89 % 19.02 C
2439 26-07-2016 11:10:00 20.8 C 88 % 18.74 C
2440 26-07-2016 11:15:00 20.7 C 87 % 18.46 C
2441 26-07-2016 11:20:00 20.7 C 88 % 18.64 C
2442 26-07-2016 11:25:00 20.6 C 88 % 18.54 C
2443 26-07-2016 11:30:00 20.6 C 87 % 18.36 C
2444 26-07-2016 11:35:00 20.7 C 86 % 18.27 C
2445 26-07-2016 11:40:00 20.8 C 86 % 18.37 C
2446 26-07-2016 11:45:00 21 C 85 % 18.38 C
2447 26-07-2016 11:50:00 21.3 C 84 % 18.49 C
2448 26-07-2016 11:55:00 21.4 C 83 % 18.39 C
2449 26-07-2016 12:00:00 21.6 C 84 % 18.78 C
2450 26-07-2016 12:05:00 21.7 C 83 % 18.69 C
Sensor: Nr:Datum:Temp:Feuchte:Taupunkt:
Aussen-T/F 2451 26-07-2016 12:10:00 21.8 C 84 % 18.97 C
2452 26-07-2016 12:15:00 21.9 C 82 % 18.69 C
2453 26-07-2016 12:20:00 22.1 C 82 % 18.88 C
2454 26-07-2016 12:25:00 22.1 C 81 % 18.69 C
2455 26-07-2016 12:30:00 22.2 C 82 % 18.98 C
2456 26-07-2016 12:35:00 22.3 C 82 % 19.08 C
2457 26-07-2016 12:40:00 22.5 C 83 % 19.47 C
2458 26-07-2016 12:45:00 22.7 C 82 % 19.47 C
2459 26-07-2016 12:50:00 22.7 C 79 % 18.87 C
2460 26-07-2016 12:55:00 22.7 C 80 % 19.07 C
2461 26-07-2016 13:00:00 22.8 C 79 % 18.97 C
2462 26-07-2016 13:05:00 22.9 C 79 % 19.06 C
2463 26-07-2016 13:10:00 22.9 C 79 % 19.06 C
2464 26-07-2016 13:15:00 22.9 C 79 % 19.06 C
2465 26-07-2016 13:20:00 23.1 C 79 % 19.26 C
2466 26-07-2016 13:25:00 23.2 C 79 % 19.35 C
2467 26-07-2016 13:30:00 23.3 C 79 % 19.45 C
2468 26-07-2016 13:35:00 23.5 C 80 % 19.85 C
2469 26-07-2016 13:40:00 23.6 C 78 % 19.54 C
2470 26-07-2016 13:45:00 23.7 C 76 % 19.22 C
2471 26-07-2016 13:50:00 23.7 C 77 % 19.43 C
2472 26-07-2016 13:55:00 23.8 C 78 % 19.73 C
2473 26-07-2016 14:00:00 23.8 C 77 % 19.52 C
2474 26-07-2016 14:05:00 23.9 C 77 % 19.62 C
2475 26-07-2016 14:10:00 24 C 76 % 19.51 C
Sensor: Nr:Datum:Temp:Feuchte:Taupunkt:
Aussen-T/F 2476 26-07-2016 14:15:00 24.1 C 76 % 19.6 C
2477 26-07-2016 14:20:00 24.3 C 76 % 19.8 C
2478 26-07-2016 14:25:00 24.3 C 75 % 19.58 C
2479 26-07-2016 14:30:00 24.3 C 76 % 19.8 C
2480 26-07-2016 14:35:00 24.3 C 74 % 19.37 C
2481 26-07-2016 14:40:00 24.3 C 75 % 19.58 C
2482 26-07-2016 14:45:00 24.3 C 72 % 18.93 C
2483 26-07-2016 14:50:00 24.3 C 73 % 19.15 C
2484 26-07-2016 14:55:00 24.3 C 73 % 19.15 C
2485 26-07-2016 15:00:00 24.3 C 75 % 19.58 C
2486 26-07-2016 15:05:00 24.3 C 73 % 19.15 C
2487 26-07-2016 15:10:00 24.3 C 73 % 19.15 C
2488 26-07-2016 15:15:00 24.3 C 73 % 19.15 C
2489 26-07-2016 15:20:00 24.3 C 73 % 19.15 C
2490 26-07-2016 15:25:00 24.3 C 72 % 18.93 C
2491 26-07-2016 15:30:00 24.2 C 72 % 18.83 C
2492 26-07-2016 15:35:00 24.1 C 73 % 18.96 C
2493 26-07-2016 15:40:00 24 C 72 % 18.64 C
2494 26-07-2016 15:45:00 24 C 74 % 19.08 C
2495 26-07-2016 15:50:00 23.9 C 74 % 18.98 C
2496 26-07-2016 15:55:00 23.9 C 75 % 19.2 C
2497 26-07-2016 16:00:00 23.9 C 74 % 18.98 C
2498 26-07-2016 16:05:00 23.8 C 75 % 19.1 C
2499 26-07-2016 16:10:00 23.6 C 75 % 18.91 C
2500 26-07-2016 16:15:00 23.4 C 75 % 18.71 C
Sensor: Nr:Datum:Temp:Feuchte:Taupunkt:
Aussen-T/F 2501 26-07-2016 16:20:00 23.2 C 76 % 18.73 C
2502 26-07-2016 16:25:00 23.2 C 76 % 18.73 C
2503 26-07-2016 16:30:00 23.1 C 76 % 18.64 C
2504 26-07-2016 16:35:00 22.9 C 77 % 18.65 C
2505 26-07-2016 16:40:00 22.7 C 78 % 18.67 C
2506 26-07-2016 16:45:00 22.4 C 80 % 18.78 C
2507 26-07-2016 16:50:00 22.2 C 81 % 18.78 C
2508 26-07-2016 16:55:00 22.1 C 81 % 18.69 C
2509 26-07-2016 17:00:00 21.9 C 81 % 18.49 C
2510 26-07-2016 17:05:00 21.7 C 81 % 18.3 C
2511 26-07-2016 17:10:00 21.6 C 81 % 18.2 C
2512 26-07-2016 17:15:00 21.5 C 81 % 18.1 C
2513 26-07-2016 17:20:00 21.4 C 81 % 18 C
2514 26-07-2016 17:25:00 21.4 C 81 % 18 C
2515 26-07-2016 17:30:00 21.3 C 81 % 17.91 C
2516 26-07-2016 17:35:00 21.3 C 81 % 17.91 C
2517 26-07-2016 17:40:00 21.7 C 80 % 18.1 C
2518 26-07-2016 17:45:00 22.1 C 78 % 18.08 C
2519 26-07-2016 17:50:00 22.3 C 78 % 18.28 C
2520 26-07-2016 17:55:00 22.6 C 77 % 18.36 C
2521 26-07-2016 18:00:00 22.7 C 76 % 18.25 C
2522 26-07-2016 18:05:00 22.8 C 76 % 18.35 C
2523 26-07-2016 18:10:00 22.8 C 76 % 18.35 C
2524 26-07-2016 18:15:00 22.8 C 76 % 18.35 C
2525 26-07-2016 18:20:00 22.8 C 76 % 18.35 C
Sensor: Nr:Datum:Temp:Feuchte:Taupunkt:
Aussen-T/F 2526 26-07-2016 18:25:00 22.7 C 77 % 18.46 C
2527 26-07-2016 18:30:00 22.7 C 77 % 18.46 C
2528 26-07-2016 18:35:00 22.7 C 77 % 18.46 C
2529 26-07-2016 18:40:00 22.6 C 77 % 18.36 C
2530 26-07-2016 18:45:00 22.6 C 76 % 18.15 C
2531 26-07-2016 18:50:00 22.3 C 77 % 18.07 C
2532 26-07-2016 18:55:00 22 C 77 % 17.78 C
2533 26-07-2016 19:00:00 21.8 C 79 % 18 C
2534 26-07-2016 19:05:00 21.7 C 79 % 17.9 C
2535 26-07-2016 19:10:00 21.7 C 80 % 18.1 C
2536 26-07-2016 19:15:00 21.6 C 80 % 18 C
2537 26-07-2016 19:20:00 21.6 C 80 % 18 C
2538 26-07-2016 19:25:00 21.6 C 79 % 17.8 C
2539 26-07-2016 19:30:00 21.7 C 80 % 18.1 C
2540 26-07-2016 19:35:00 21.7 C 79 % 17.9 C
2541 26-07-2016 19:40:00 21.7 C 79 % 17.9 C
2542 26-07-2016 19:45:00 21.6 C 80 % 18 C
2543 26-07-2016 19:50:00 21.6 C 81 % 18.2 C
2544 26-07-2016 19:55:00 21.6 C 80 % 18 C
2545 26-07-2016 20:00:00 21.7 C 80 % 18.1 C
2546 26-07-2016 20:05:00 21.7 C 79 % 17.9 C
2547 26-07-2016 20:10:00 21.6 C 79 % 17.8 C
2548 26-07-2016 20:15:00 21.4 C 80 % 17.81 C
2549 26-07-2016 20:20:00 21.1 C 80 % 17.51 C
2550 26-07-2016 20:25:00 20.9 C 81 % 17.52 C
Sensor: Nr:Datum:Temp:Feuchte:Taupunkt:
Aussen-T/F 2551 26-07-2016 20:30:00 20.7 C 81 % 17.32 C
2552 26-07-2016 20:35:00 20.4 C 82 % 17.22 C
2553 26-07-2016 20:40:00 20.3 C 83 % 17.32 C
2554 26-07-2016 20:45:00 20.2 C 83 % 17.22 C
2555 26-07-2016 20:50:00 20 C 83 % 17.02 C
2556 26-07-2016 20:55:00 19.9 C 84 % 17.12 C
2557 26-07-2016 21:00:00 19.8 C 85 % 17.21 C
2558 26-07-2016 21:05:00 19.7 C 85 % 17.11 C
2559 26-07-2016 21:10:00 19.5 C 86 % 17.1 C
2560 26-07-2016 21:15:00 19.3 C 86 % 16.9 C
2561 26-07-2016 21:20:00 19.1 C 87 % 16.89 C
2562 26-07-2016 21:25:00 18.9 C 87 % 16.69 C
2563 26-07-2016 21:30:00 18.8 C 87 % 16.59 C
2564 26-07-2016 21:35:00 18.6 C 88 % 16.57 C
2565 26-07-2016 21:40:00 18.4 C 88 % 16.38 C
2566 26-07-2016 21:45:00 18.3 C 89 % 16.46 C
2567 26-07-2016 21:50:00 18.1 C 89 % 16.26 C
2568 26-07-2016 21:55:00 18 C 89 % 16.16 C
2569 26-07-2016 22:00:00 17.8 C 90 % 16.14 C
2570 26-07-2016 22:05:00 17.8 C 90 % 16.14 C
2571 26-07-2016 22:10:00 17.7 C 90 % 16.04 C
2572 26-07-2016 22:15:00 17.6 C 91 % 16.11 C
2573 26-07-2016 22:20:00 17.4 C 91 % 15.92 C
2574 26-07-2016 22:25:00 17.4 C 91 % 15.92 C
2575 26-07-2016 22:30:00 17.3 C 91 % 15.82 C
Sensor: Nr:Datum:Temp:Feuchte:Taupunkt:
Aussen-T/F 2576 26-07-2016 22:35:00 17.3 C 92 % 15.99 C
2577 26-07-2016 22:40:00 17.3 C 92 % 15.99 C
2578 26-07-2016 22:45:00 17.3 C 92 % 15.99 C
2579 26-07-2016 22:50:00 17.2 C 92 % 15.89 C
2580 26-07-2016 22:55:00 17.2 C 92 % 15.89 C
2581 26-07-2016 23:00:00 17.2 C 92 % 15.89 C
2582 26-07-2016 23:05:00 17.2 C 93 % 16.06 C
2583 26-07-2016 23:10:00 17.3 C 93 % 16.16 C
2584 26-07-2016 23:15:00 17.3 C 93 % 16.16 C
2585 26-07-2016 23:20:00 17.3 C 93 % 16.16 C
2586 26-07-2016 23:25:00 17.2 C 92 % 15.89 C
2587 26-07-2016 23:30:00 17.2 C 92 % 15.89 C
2588 26-07-2016 23:35:00 17.1 C 92 % 15.79 C
2589 26-07-2016 23:40:00 17.1 C 92 % 15.79 C
2590 26-07-2016 23:45:00 17 C 93 % 15.86 C
2591 26-07-2016 23:50:00 17 C 93 % 15.86 C
2592 26-07-2016 23:55:00 16.9 C 93 % 15.76 C
2593 27-07-2016 00:00:00 16.9 C 93 % 15.76 C
2594 27-07-2016 00:05:00 16.9 C 93 % 15.76 C
2595 27-07-2016 00:10:00 16.8 C 93 % 15.66 C
2596 27-07-2016 00:15:00 16.8 C 93 % 15.66 C
2597 27-07-2016 00:20:00 16.8 C 93 % 15.66 C
2598 27-07-2016 00:25:00 16.7 C 93 % 15.56 C
2599 27-07-2016 00:30:00 16.6 C 93 % 15.46 C
2600 27-07-2016 00:35:00 16.6 C 93 % 15.46 C
Sensor: Nr:Datum:Temp:Feuchte:Taupunkt:
Aussen-T/F 2601 27-07-2016 00:40:00 16.5 C 93 % 15.36 C
2602 27-07-2016 00:45:00 16.4 C 93 % 15.27 C
2603 27-07-2016 00:50:00 16.3 C 93 % 15.17 C
2604 27-07-2016 00:55:00 16.3 C 93 % 15.17 C
2605 27-07-2016 01:00:00 16.3 C 93 % 15.17 C
2606 27-07-2016 01:05:00 16.2 C 94 % 15.23 C
2607 27-07-2016 01:10:00 16.3 C 94 % 15.33 C
2608 27-07-2016 01:15:00 16.2 C 93 % 15.07 C
2609 27-07-2016 01:20:00 16.2 C 94 % 15.23 C
2610 27-07-2016 01:25:00 16.1 C 93 % 14.97 C
2611 27-07-2016 01:30:00 15.9 C 93 % 14.77 C
2612 27-07-2016 01:35:00 15.9 C 94 % 14.94 C
2613 27-07-2016 01:40:00 15.9 C 94 % 14.94 C
2614 27-07-2016 01:45:00 15.8 C 94 % 14.84 C
2615 27-07-2016 01:50:00 15.8 C 94 % 14.84 C
2616 27-07-2016 01:55:00 15.8 C 94 % 14.84 C
2617 27-07-2016 02:00:00 15.7 C 94 % 14.74 C
2618 27-07-2016 02:05:00 15.8 C 94 % 14.84 C
2619 27-07-2016 02:10:00 15.9 C 95 % 15.1 C
2620 27-07-2016 02:15:00 15.9 C 95 % 15.1 C
2621 27-07-2016 02:20:00 16.1 C 95 % 15.3 C
2622 27-07-2016 02:25:00 16.1 C 95 % 15.3 C
2623 27-07-2016 02:30:00 16.2 C 95 % 15.4 C
2624 27-07-2016 02:35:00 16.2 C 95 % 15.4 C
2625 27-07-2016 02:40:00 16.2 C 95 % 15.4 C
Sensor: Nr:Datum:Temp:Feuchte:Taupunkt:
Aussen-T/F 2626 27-07-2016 02:45:00 16.3 C 95 % 15.5 C
2627 27-07-2016 02:50:00 16.3 C 95 % 15.5 C
2628 27-07-2016 02:55:00 16.3 C 95 % 15.5 C
2629 27-07-2016 03:00:00 16.3 C 95 % 15.5 C
2630 27-07-2016 03:05:00 16.2 C 95 % 15.4 C
2631 27-07-2016 03:10:00 16.2 C 95 % 15.4 C
2632 27-07-2016 03:15:00 16.1 C 95 % 15.3 C
2633 27-07-2016 03:20:00 16.1 C 95 % 15.3 C
2634 27-07-2016 03:25:00 16 C 95 % 15.2 C
2635 27-07-2016 03:30:00 15.9 C 95 % 15.1 C
2636 27-07-2016 03:35:00 15.9 C 95 % 15.1 C
2637 27-07-2016 03:40:00 15.8 C 95 % 15 C
2638 27-07-2016 03:45:00 15.8 C 95 % 15 C
2639 27-07-2016 03:50:00 15.8 C 95 % 15 C
2640 27-07-2016 03:55:00 15.7 C 95 % 14.9 C
2641 27-07-2016 04:00:00 15.7 C 95 % 14.9 C
2642 27-07-2016 04:05:00 15.7 C 95 % 14.9 C
2643 27-07-2016 04:10:00 15.7 C 95 % 14.9 C
2644 27-07-2016 04:15:00 15.7 C 95 % 14.9 C
2645 27-07-2016 04:20:00 15.8 C 95 % 15 C
2646 27-07-2016 04:25:00 15.8 C 95 % 15 C
2647 27-07-2016 04:30:00 15.8 C 95 % 15 C
2648 27-07-2016 04:35:00 15.8 C 95 % 15 C
2649 27-07-2016 04:40:00 15.8 C 95 % 15 C
2650 27-07-2016 04:45:00 15.8 C 96 % 15.16 C
Sensor: Nr:Datum:Temp:Feuchte:Taupunkt:
Aussen-T/F 2651 27-07-2016 04:50:00 15.8 C 96 % 15.16 C
2652 27-07-2016 04:55:00 15.9 C 96 % 15.26 C
2653 27-07-2016 05:00:00 15.9 C 96 % 15.26 C
2654 27-07-2016 05:05:00 15.9 C 96 % 15.26 C
2655 27-07-2016 05:10:00 15.9 C 96 % 15.26 C
2656 27-07-2016 05:15:00 15.9 C 96 % 15.26 C
2657 27-07-2016 05:20:00 15.8 C 96 % 15.16 C
2658 27-07-2016 05:25:00 15.8 C 95 % 15 C
2659 27-07-2016 05:30:00 15.8 C 95 % 15 C
2660 27-07-2016 05:35:00 15.7 C 95 % 14.9 C
2661 27-07-2016 05:40:00 15.7 C 95 % 14.9 C
2662 27-07-2016 05:45:00 15.6 C 95 % 14.8 C
2663 27-07-2016 05:50:00 15.6 C 95 % 14.8 C
2664 27-07-2016 05:55:00 15.6 C 95 % 14.8 C
2665 27-07-2016 06:00:00 15.6 C 95 % 14.8 C
2666 27-07-2016 06:05:00 15.5 C 95 % 14.7 C
2667 27-07-2016 06:10:00 15.4 C 95 % 14.6 C
2668 27-07-2016 06:15:00 15.4 C 95 % 14.6 C
2669 27-07-2016 06:20:00 15.4 C 96 % 14.77 C
2670 27-07-2016 06:25:00 15.4 C 96 % 14.77 C
2671 27-07-2016 06:30:00 15.4 C 96 % 14.77 C
2672 27-07-2016 06:35:00 15.5 C 96 % 14.86 C
2673 27-07-2016 06:40:00 15.6 C 96 % 14.96 C
2674 27-07-2016 06:45:00 15.6 C 96 % 14.96 C
2675 27-07-2016 06:50:00 15.7 C 96 % 15.06 C
Sensor: Nr:Datum:Temp:Feuchte:Taupunkt:
Aussen-T/F 2676 27-07-2016 06:55:00 15.7 C 96 % 15.06 C
2677 27-07-2016 07:00:00 15.7 C 96 % 15.06 C
2678 27-07-2016 07:05:00 15.7 C 96 % 15.06 C
2679 27-07-2016 07:10:00 15.8 C 96 % 15.16 C
2680 27-07-2016 07:15:00 15.8 C 96 % 15.16 C
2681 27-07-2016 07:20:00 15.8 C 96 % 15.16 C
2682 27-07-2016 07:25:00 15.9 C 96 % 15.26 C
2683 27-07-2016 07:30:00 16 C 96 % 15.36 C
2684 27-07-2016 07:35:00 16.1 C 96 % 15.46 C
2685 27-07-2016 07:40:00 16.1 C 96 % 15.46 C
2686 27-07-2016 07:45:00 16.1 C 96 % 15.46 C
2687 27-07-2016 07:50:00 16.1 C 96 % 15.46 C
2688 27-07-2016 07:55:00 16.2 C 96 % 15.56 C
2689 27-07-2016 08:00:00 16.3 C 96 % 15.66 C
2690 27-07-2016 08:05:00 16.3 C 96 % 15.66 C
2691 27-07-2016 08:10:00 16.4 C 96 % 15.76 C
2692 27-07-2016 08:15:00 16.5 C 96 % 15.86 C
2693 27-07-2016 08:20:00 16.4 C 95 % 15.6 C
2694 27-07-2016 08:25:00 16.4 C 95 % 15.6 C
2695 27-07-2016 08:30:00 16.4 C 95 % 15.6 C
2696 27-07-2016 08:35:00 16.5 C 95 % 15.7 C
2697 27-07-2016 08:40:00 16.6 C 94 % 15.63 C
2698 27-07-2016 08:45:00 16.7 C 94 % 15.73 C
2699 27-07-2016 08:50:00 16.7 C 94 % 15.73 C
2700 27-07-2016 08:55:00 16.8 C 94 % 15.83 C
Sensor: Nr:Datum:Temp:Feuchte:Taupunkt:
Aussen-T/F 2701 27-07-2016 09:00:00 16.8 C 94 % 15.83 C
2702 27-07-2016 09:05:00 17 C 94 % 16.03 C
2703 27-07-2016 09:10:00 17.1 C 93 % 15.96 C
2704 27-07-2016 09:15:00 17.2 C 93 % 16.06 C
2705 27-07-2016 09:20:00 17.3 C 92 % 15.99 C
2706 27-07-2016 09:25:00 17.6 C 92 % 16.28 C
2707 27-07-2016 09:30:00 17.7 C 92 % 16.38 C
2708 27-07-2016 09:35:00 17.8 C 91 % 16.31 C
2709 27-07-2016 09:40:00 18 C 90 % 16.34 C
2710 27-07-2016 09:45:00 18.2 C 90 % 16.53 C
2711 27-07-2016 09:50:00 18.3 C 90 % 16.63 C
2712 27-07-2016 09:55:00 18.3 C 90 % 16.63 C
2713 27-07-2016 10:00:00 18.3 C 90 % 16.63 C
2714 27-07-2016 10:05:00 18.3 C 91 % 16.81 C
2715 27-07-2016 10:10:00 18.3 C 89 % 16.46 C
2716 27-07-2016 10:15:00 18.4 C 88 % 16.38 C
2717 27-07-2016 10:20:00 18.5 C 87 % 16.3 C
2718 27-07-2016 10:25:00 18.8 C 86 % 16.41 C
2719 27-07-2016 10:30:00 18.9 C 87 % 16.69 C
2720 27-07-2016 10:35:00 19.1 C 86 % 16.7 C
2721 27-07-2016 10:40:00 19.3 C 85 % 16.72 C
2722 27-07-2016 10:45:00 19.5 C 83 % 16.54 C
2723 27-07-2016 10:50:00 19.7 C 84 % 16.92 C
2724 27-07-2016 10:55:00 19.8 C 83 % 16.83 C
2725 27-07-2016 11:00:00 19.9 C 81 % 16.54 C
Sensor: Nr:Datum:Temp:Feuchte:Taupunkt:
Aussen-T/F 2726 27-07-2016 11:05:00 20.1 C 84 % 17.31 C
2727 27-07-2016 11:10:00 20.1 C 83 % 17.12 C
2728 27-07-2016 11:15:00 20.1 C 80 % 16.54 C
2729 27-07-2016 11:20:00 20.2 C 78 % 16.24 C
2730 27-07-2016 11:25:00 20.3 C 79 % 16.54 C
2731 27-07-2016 11:30:00 20.6 C 78 % 16.63 C
2732 27-07-2016 11:35:00 20.9 C 76 % 16.51 C
2733 27-07-2016 11:40:00 21.2 C 76 % 16.8 C
2734 27-07-2016 11:45:00 21.3 C 76 % 16.9 C
2735 27-07-2016 11:50:00 21.4 C 78 % 17.4 C
2736 27-07-2016 11:55:00 21.4 C 77 % 17.2 C
2737 27-07-2016 12:00:00 21.4 C 79 % 17.61 C
2738 27-07-2016 12:05:00 21.5 C 76 % 17.09 C
2739 27-07-2016 12:10:00 21.7 C 74 % 16.86 C
2740 27-07-2016 12:15:00 21.8 C 72 % 16.53 C
2741 27-07-2016 12:20:00 21.9 C 72 % 16.62 C
2742 27-07-2016 12:25:00 22.2 C 72 % 16.91 C
2743 27-07-2016 12:30:00 22.3 C 73 % 17.23 C
2744 27-07-2016 12:35:00 22.4 C 71 % 16.88 C
2745 27-07-2016 12:40:00 22.6 C 72 % 17.3 C
2746 27-07-2016 12:45:00 22.6 C 73 % 17.51 C
2747 27-07-2016 12:50:00 22.4 C 71 % 16.88 C
2748 27-07-2016 12:55:00 22.4 C 74 % 17.54 C
2749 27-07-2016 13:00:00 22.5 C 73 % 17.42 C
2750 27-07-2016 13:05:00 22.6 C 70 % 16.85 C
Sensor: Nr:Datum:Temp:Feuchte:Taupunkt:
Aussen-T/F 2751 27-07-2016 13:10:00 22.7 C 77 % 18.46 C
2752 27-07-2016 13:15:00 22.8 C 76 % 18.35 C
2753 27-07-2016 13:20:00 22.9 C 68 % 16.68 C
2754 27-07-2016 13:25:00 23.2 C 69 % 17.2 C
2755 27-07-2016 13:30:00 23.3 C 68 % 17.06 C
2756 27-07-2016 13:35:00 23.4 C 64 % 16.2 C
2757 27-07-2016 13:40:00 23.4 C 65 % 16.45 C
2758 27-07-2016 13:45:00 23.4 C 61 % 15.45 C
2759 27-07-2016 13:50:00 23.5 C 60 % 15.29 C
2760 27-07-2016 13:55:00 23.6 C 62 % 15.89 C
2761 27-07-2016 14:00:00 23.6 C 61 % 15.64 C
2762 27-07-2016 14:05:00 23.7 C 66 % 16.97 C
2763 27-07-2016 14:10:00 23.8 C 59 % 15.31 C
2764 27-07-2016 14:15:00 24 C 58 % 15.23 C
2765 27-07-2016 14:20:00 24.1 C 56 % 14.78 C
2766 27-07-2016 14:25:00 24 C 59 % 15.5 C
2767 27-07-2016 14:30:00 23.9 C 58 % 15.14 C
2768 27-07-2016 14:35:00 23.9 C 60 % 15.66 C
2769 27-07-2016 14:40:00 23.8 C 60 % 15.57 C
2770 27-07-2016 14:45:00 23.7 C 61 % 15.73 C
2771 27-07-2016 14:50:00 23.7 C 59 % 15.21 C
2772 27-07-2016 14:55:00 23.8 C 57 % 14.77 C
2773 27-07-2016 15:00:00 24 C 58 % 15.23 C
2774 27-07-2016 15:05:00 24.1 C 64 % 16.86 C
2775 27-07-2016 15:10:00 24.1 C 58 % 15.32 C
Sensor: Nr:Datum:Temp:Feuchte:Taupunkt:
Aussen-T/F 2776 27-07-2016 15:15:00 24 C 64 % 16.77 C
2777 27-07-2016 15:20:00 23.8 C 61 % 15.83 C
2778 27-07-2016 15:25:00 23.7 C 65 % 16.73 C
2779 27-07-2016 15:30:00 23.7 C 57 % 14.68 C
2780 27-07-2016 15:35:00 23.8 C 69 % 17.77 C
2781 27-07-2016 15:40:00 23.8 C 69 % 17.77 C
2782 27-07-2016 15:45:00 23.7 C 62 % 15.99 C
2783 27-07-2016 15:50:00 23.7 C 66 % 16.97 C
2784 27-07-2016 15:55:00 23.8 C 68 % 17.54 C
2785 27-07-2016 16:00:00 23.7 C 65 % 16.73 C
2786 27-07-2016 16:05:00 23.6 C 69 % 17.58 C
2787 27-07-2016 16:10:00 23.5 C 71 % 17.94 C
2788 27-07-2016 16:15:00 23.3 C 62 % 15.61 C
2789 27-07-2016 16:20:00 23.6 C 63 % 16.14 C
2790 27-07-2016 16:25:00 24 C 59 % 15.5 C
2791 27-07-2016 16:30:00 24.2 C 56 % 14.87 C
2792 27-07-2016 16:35:00 24.1 C 56 % 14.78 C
2793 27-07-2016 16:40:00 24.1 C 58 % 15.32 C
2794 27-07-2016 16:45:00 24.1 C 67 % 17.59 C
2795 27-07-2016 16:50:00 24.1 C 64 % 16.86 C
2796 27-07-2016 16:55:00 24.2 C 59 % 15.68 C
2797 27-07-2016 17:00:00 24.3 C 55 % 14.68 C
2798 27-07-2016 17:05:00 24.6 C 60 % 16.32 C
2799 27-07-2016 17:10:00 24.8 C 63 % 17.28 C
2800 27-07-2016 17:15:00 25.1 C 65 % 18.06 C
Sensor: Nr:Datum:Temp:Feuchte:Taupunkt:
Aussen-T/F 2801 27-07-2016 17:20:00 25.2 C 67 % 18.63 C
2802 27-07-2016 17:25:00 25.4 C 63 % 17.84 C
2803 27-07-2016 17:30:00 25.8 C 61 % 17.71 C
2804 27-07-2016 17:35:00 25.9 C 52 % 15.29 C
2805 27-07-2016 17:40:00 26.4 C 54 % 16.34 C
2806 27-07-2016 17:45:00 27 C 47 % 14.73 C
2807 27-07-2016 17:50:00 27.3 C 46 % 14.67 C
2808 27-07-2016 17:55:00 27.3 C 54 % 17.18 C
2809 27-07-2016 18:00:00 26.9 C 47 % 14.64 C
2810 27-07-2016 18:05:00 26.7 C 55 % 16.91 C
2811 27-07-2016 18:10:00 26.3 C 49 % 14.74 C
2812 27-07-2016 18:15:00 25.9 C 60 % 17.54 C
2813 27-07-2016 18:20:00 25.5 C 55 % 15.8 C
2814 27-07-2016 18:25:00 25.1 C 52 % 14.55 C
2815 27-07-2016 18:30:00 24.9 C 63 % 17.37 C
2816 27-07-2016 18:35:00 24.7 C 66 % 17.92 C
2817 27-07-2016 18:40:00 24.3 C 66 % 17.54 C
2818 27-07-2016 18:45:00 23.9 C 66 % 17.16 C
2819 27-07-2016 18:50:00 23.6 C 68 % 17.35 C
2820 27-07-2016 18:55:00 23.4 C 66 % 16.69 C
2821 27-07-2016 19:00:00 23.4 C 70 % 17.62 C
2822 27-07-2016 19:05:00 23.8 C 62 % 16.08 C
2823 27-07-2016 19:10:00 24.1 C 68 % 17.82 C
2824 27-07-2016 19:15:00 23.8 C 68 % 17.54 C
2825 27-07-2016 19:20:00 23.4 C 69 % 17.39 C
Sensor: Nr:Datum:Temp:Feuchte:Taupunkt:
Aussen-T/F 2826 27-07-2016 19:25:00 23.1 C 71 % 17.55 C
2827 27-07-2016 19:30:00 22.6 C 71 % 17.07 C
2828 27-07-2016 19:35:00 22.3 C 71 % 16.79 C
2829 27-07-2016 19:40:00 22.2 C 72 % 16.91 C
2830 27-07-2016 19:45:00 22 C 73 % 16.94 C
2831 27-07-2016 19:50:00 21.7 C 73 % 16.65 C
2832 27-07-2016 19:55:00 21.4 C 73 % 16.36 C
2833 27-07-2016 20:00:00 21.3 C 75 % 16.69 C
2834 27-07-2016 20:05:00 21.1 C 75 % 16.5 C
2835 27-07-2016 20:10:00 20.9 C 76 % 16.51 C
2836 27-07-2016 20:15:00 20.8 C 77 % 16.62 C
2837 27-07-2016 20:20:00 20.7 C 79 % 16.93 C
2838 27-07-2016 20:25:00 20.6 C 77 % 16.43 C
2839 27-07-2016 20:30:00 20.4 C 78 % 16.44 C
2840 27-07-2016 20:35:00 20.3 C 77 % 16.14 C
2841 27-07-2016 20:40:00 20.3 C 77 % 16.14 C
2842 27-07-2016 20:45:00 20.3 C 77 % 16.14 C
2843 27-07-2016 20:50:00 20.2 C 78 % 16.24 C
2844 27-07-2016 20:55:00 20.2 C 78 % 16.24 C
2845 27-07-2016 21:00:00 20.1 C 76 % 15.74 C
2846 27-07-2016 21:05:00 20.1 C 76 % 15.74 C
2847 27-07-2016 21:10:00 20.1 C 77 % 15.94 C
2848 27-07-2016 21:15:00 20.1 C 77 % 15.94 C
2849 27-07-2016 21:20:00 20.1 C 77 % 15.94 C
2850 27-07-2016 21:25:00 20.1 C 77 % 15.94 C
Sensor: Nr:Datum:Temp:Feuchte:Taupunkt:
Aussen-T/F 2851 27-07-2016 21:30:00 20 C 78 % 16.05 C
2852 27-07-2016 21:35:00 20 C 79 % 16.25 C
2853 27-07-2016 21:40:00 20 C 80 % 16.44 C
2854 27-07-2016 21:45:00 19.9 C 79 % 16.15 C
2855 27-07-2016 21:50:00 19.8 C 79 % 16.05 C
2856 27-07-2016 21:55:00 19.8 C 79 % 16.05 C
2857 27-07-2016 22:00:00 19.7 C 80 % 16.15 C
2858 27-07-2016 22:05:00 19.7 C 81 % 16.35 C
2859 27-07-2016 22:10:00 19.7 C 81 % 16.35 C
2860 27-07-2016 22:15:00 19.6 C 82 % 16.44 C
2861 27-07-2016 22:20:00 19.6 C 82 % 16.44 C
2862 27-07-2016 22:25:00 19.5 C 81 % 16.15 C
2863 27-07-2016 22:30:00 19.4 C 82 % 16.25 C
2864 27-07-2016 22:35:00 19.4 C 83 % 16.44 C
2865 27-07-2016 22:40:00 19.4 C 83 % 16.44 C
2866 27-07-2016 22:45:00 19.4 C 84 % 16.63 C
2867 27-07-2016 22:50:00 19.4 C 84 % 16.63 C
2868 27-07-2016 22:55:00 19.3 C 84 % 16.53 C
2869 27-07-2016 23:00:00 19.3 C 83 % 16.34 C
2870 27-07-2016 23:05:00 19.3 C 82 % 16.15 C
2871 27-07-2016 23:10:00 19.3 C 83 % 16.34 C
2872 27-07-2016 23:15:00 19.3 C 83 % 16.34 C
2873 27-07-2016 23:20:00 19.3 C 84 % 16.53 C
2874 27-07-2016 23:25:00 19.3 C 84 % 16.53 C
2875 27-07-2016 23:30:00 19.2 C 84 % 16.43 C
Sensor: Nr:Datum:Temp:Feuchte:Taupunkt:
Aussen-T/F 2876 27-07-2016 23:35:00 19.2 C 84 % 16.43 C
2877 27-07-2016 23:40:00 19.1 C 84 % 16.33 C
2878 27-07-2016 23:45:00 19.1 C 84 % 16.33 C
2879 27-07-2016 23:50:00 19 C 84 % 16.24 C
2880 27-07-2016 23:55:00 18.9 C 84 % 16.14 C
2881 28-07-2016 00:00:00 18.9 C 84 % 16.14 C
2882 28-07-2016 00:05:00 18.8 C 84 % 16.04 C
2883 28-07-2016 00:10:00 18.8 C 84 % 16.04 C
2884 28-07-2016 00:15:00 18.7 C 84 % 15.94 C
2885 28-07-2016 00:20:00 18.7 C 84 % 15.94 C
2886 28-07-2016 00:25:00 18.6 C 84 % 15.84 C
2887 28-07-2016 00:30:00 18.5 C 85 % 15.93 C
2888 28-07-2016 00:35:00 18.4 C 84 % 15.65 C
2889 28-07-2016 00:40:00 18.4 C 85 % 15.83 C
2890 28-07-2016 00:45:00 18.4 C 85 % 15.83 C
2891 28-07-2016 00:50:00 18.4 C 85 % 15.83 C
2892 28-07-2016 00:55:00 18.3 C 85 % 15.74 C
2893 28-07-2016 01:00:00 18.3 C 85 % 15.74 C
2894 28-07-2016 01:05:00 18.3 C 85 % 15.74 C
2895 28-07-2016 01:10:00 18.3 C 86 % 15.92 C
2896 28-07-2016 01:15:00 18.2 C 86 % 15.82 C
2897 28-07-2016 01:20:00 18.1 C 86 % 15.72 C
2898 28-07-2016 01:25:00 18.1 C 86 % 15.72 C
2899 28-07-2016 01:30:00 18 C 86 % 15.62 C
2900 28-07-2016 01:35:00 17.9 C 87 % 15.71 C
Sensor: Nr:Datum:Temp:Feuchte:Taupunkt:
Aussen-T/F 2901 28-07-2016 01:40:00 17.9 C 87 % 15.71 C
2902 28-07-2016 01:45:00 17.9 C 87 % 15.71 C
2903 28-07-2016 01:50:00 17.8 C 87 % 15.61 C
2904 28-07-2016 01:55:00 17.8 C 87 % 15.61 C
2905 28-07-2016 02:00:00 17.8 C 87 % 15.61 C
2906 28-07-2016 02:05:00 17.8 C 87 % 15.61 C
2907 28-07-2016 02:10:00 17.7 C 88 % 15.69 C
2908 28-07-2016 02:15:00 17.7 C 88 % 15.69 C
2909 28-07-2016 02:20:00 17.7 C 88 % 15.69 C
2910 28-07-2016 02:25:00 17.6 C 88 % 15.59 C
2911 28-07-2016 02:30:00 17.6 C 88 % 15.59 C
2912 28-07-2016 02:35:00 17.6 C 88 % 15.59 C
2913 28-07-2016 02:40:00 17.6 C 88 % 15.59 C
2914 28-07-2016 02:45:00 17.6 C 88 % 15.59 C
2915 28-07-2016 02:50:00 17.6 C 88 % 15.59 C
2916 28-07-2016 02:55:00 17.6 C 88 % 15.59 C
2917 28-07-2016 03:00:00 17.6 C 88 % 15.59 C
2918 28-07-2016 03:05:00 17.6 C 88 % 15.59 C
2919 28-07-2016 03:10:00 17.5 C 88 % 15.49 C
2920 28-07-2016 03:15:00 17.5 C 88 % 15.49 C
2921 28-07-2016 03:20:00 17.6 C 89 % 15.77 C
2922 28-07-2016 03:25:00 17.6 C 89 % 15.77 C
2923 28-07-2016 03:30:00 17.6 C 89 % 15.77 C
2924 28-07-2016 03:35:00 17.6 C 89 % 15.77 C
2925 28-07-2016 03:40:00 17.5 C 89 % 15.67 C
Sensor: Nr:Datum:Temp:Feuchte:Taupunkt:
Aussen-T/F 2926 28-07-2016 03:45:00 17.6 C 89 % 15.77 C
2927 28-07-2016 03:50:00 17.5 C 89 % 15.67 C
2928 28-07-2016 03:55:00 17.5 C 89 % 15.67 C
2929 28-07-2016 04:00:00 17.5 C 89 % 15.67 C
2930 28-07-2016 04:05:00 17.4 C 89 % 15.57 C
2931 28-07-2016 04:10:00 17.3 C 89 % 15.47 C
2932 28-07-2016 04:15:00 17.3 C 89 % 15.47 C
2933 28-07-2016 04:20:00 17.2 C 89 % 15.37 C
2934 28-07-2016 04:25:00 17.1 C 89 % 15.27 C
2935 28-07-2016 04:30:00 17.1 C 89 % 15.27 C
2936 28-07-2016 04:35:00 17.1 C 89 % 15.27 C
2937 28-07-2016 04:40:00 17 C 89 % 15.17 C
2938 28-07-2016 04:45:00 17 C 89 % 15.17 C
2939 28-07-2016 04:50:00 16.9 C 89 % 15.08 C
2940 28-07-2016 04:55:00 16.9 C 89 % 15.08 C
2941 28-07-2016 05:00:00 16.9 C 89 % 15.08 C
2942 28-07-2016 05:05:00 16.8 C 89 % 14.98 C
2943 28-07-2016 05:10:00 16.8 C 90 % 15.15 C
2944 28-07-2016 05:15:00 16.7 C 90 % 15.05 C
2945 28-07-2016 05:20:00 16.7 C 90 % 15.05 C
2946 28-07-2016 05:25:00 16.7 C 90 % 15.05 C
2947 28-07-2016 05:30:00 16.6 C 90 % 14.95 C
2948 28-07-2016 05:35:00 16.5 C 90 % 14.85 C
2949 28-07-2016 05:40:00 16.4 C 90 % 14.76 C
2950 28-07-2016 05:45:00 16.4 C 90 % 14.76 C
Sensor: Nr:Datum:Temp:Feuchte:Taupunkt:
Aussen-T/F 2951 28-07-2016 05:50:00 16.4 C 91 % 14.93 C
2952 28-07-2016 05:55:00 16.4 C 91 % 14.93 C
2953 28-07-2016 06:00:00 16.4 C 91 % 14.93 C
2954 28-07-2016 06:05:00 16.4 C 92 % 15.1 C
2955 28-07-2016 06:10:00 16.4 C 92 % 15.1 C
2956 28-07-2016 06:15:00 16.4 C 92 % 15.1 C
2957 28-07-2016 06:20:00 16.4 C 92 % 15.1 C
2958 28-07-2016 06:25:00 16.4 C 92 % 15.1 C
2959 28-07-2016 06:30:00 16.4 C 92 % 15.1 C
2960 28-07-2016 06:35:00 16.4 C 92 % 15.1 C
2961 28-07-2016 06:40:00 16.4 C 92 % 15.1 C
2962 28-07-2016 06:45:00 16.5 C 92 % 15.2 C
2963 28-07-2016 06:50:00 16.5 C 92 % 15.2 C
2964 28-07-2016 06:55:00 16.6 C 92 % 15.3 C
2965 28-07-2016 07:00:00 16.7 C 93 % 15.56 C
2966 28-07-2016 07:05:00 16.7 C 93 % 15.56 C
2967 28-07-2016 07:10:00 16.8 C 93 % 15.66 C
2968 28-07-2016 07:15:00 16.8 C 93 % 15.66 C
2969 28-07-2016 07:20:00 16.9 C 93 % 15.76 C
2970 28-07-2016 07:25:00 16.9 C 93 % 15.76 C
2971 28-07-2016 07:30:00 17.1 C 93 % 15.96 C
2972 28-07-2016 07:35:00 17.2 C 93 % 16.06 C
2973 28-07-2016 07:40:00 17.3 C 93 % 16.16 C
2974 28-07-2016 07:45:00 17.4 C 92 % 16.09 C
2975 28-07-2016 07:50:00 17.6 C 92 % 16.28 C
Sensor: Nr:Datum:Temp:Feuchte:Taupunkt:
Aussen-T/F 2976 28-07-2016 07:55:00 17.7 C 92 % 16.38 C
2977 28-07-2016 08:00:00 17.8 C 92 % 16.48 C
2978 28-07-2016 08:05:00 17.9 C 92 % 16.58 C
2979 28-07-2016 08:10:00 18 C 91 % 16.51 C
2980 28-07-2016 08:15:00 18.1 C 90 % 16.43 C
2981 28-07-2016 08:20:00 18.2 C 90 % 16.53 C
2982 28-07-2016 08:25:00 18.3 C 89 % 16.46 C
2983 28-07-2016 08:30:00 18.4 C 88 % 16.38 C
2984 28-07-2016 08:35:00 18.7 C 88 % 16.67 C
2985 28-07-2016 08:40:00 18.8 C 87 % 16.59 C
2986 28-07-2016 08:45:00 18.9 C 87 % 16.69 C
2987 28-07-2016 08:50:00 19.1 C 87 % 16.89 C
2988 28-07-2016 08:55:00 19.2 C 85 % 16.62 C
2989 28-07-2016 09:00:00 19.3 C 86 % 16.9 C
2990 28-07-2016 09:05:00 19.5 C 87 % 17.28 C
2991 28-07-2016 09:10:00 19.6 C 87 % 17.38 C
2992 28-07-2016 09:15:00 19.7 C 87 % 17.47 C
2993 28-07-2016 09:20:00 19.8 C 87 % 17.57 C
2994 28-07-2016 09:25:00 19.9 C 85 % 17.3 C
2995 28-07-2016 09:30:00 20.1 C 86 % 17.68 C
2996 28-07-2016 09:35:00 20.3 C 84 % 17.51 C
2997 28-07-2016 09:40:00 20.4 C 80 % 16.83 C
2998 28-07-2016 09:45:00 20.6 C 79 % 16.83 C
2999 28-07-2016 09:50:00 20.7 C 80 % 17.13 C
3000 28-07-2016 09:55:00 20.8 C 81 % 17.42 C
Sensor: Nr:Datum:Temp:Feuchte:Taupunkt:
Aussen-T/F 3001 28-07-2016 10:00:00 20.9 C 83 % 17.9 C
3002 28-07-2016 10:05:00 20.9 C 82 % 17.71 C
3003 28-07-2016 10:10:00 20.9 C 78 % 16.92 C
3004 28-07-2016 10:15:00 20.9 C 77 % 16.72 C
3005 28-07-2016 10:20:00 21.1 C 77 % 16.91 C
3006 28-07-2016 10:25:00 21.3 C 82 % 18.1 C
3007 28-07-2016 10:30:00 21.3 C 79 % 17.51 C
3008 28-07-2016 10:35:00 21.3 C 79 % 17.51 C
3009 28-07-2016 10:40:00 21.3 C 79 % 17.51 C
3010 28-07-2016 10:45:00 21.4 C 83 % 18.39 C
3011 28-07-2016 10:50:00 21.4 C 81 % 18 C
3012 28-07-2016 10:55:00 21.3 C 80 % 17.71 C
3013 28-07-2016 11:00:00 21.4 C 79 % 17.61 C
3014 28-07-2016 11:05:00 21.4 C 79 % 17.61 C
3015 28-07-2016 11:10:00 21.6 C 74 % 16.77 C
3016 28-07-2016 11:15:00 21.7 C 77 % 17.49 C
3017 28-07-2016 11:20:00 21.8 C 75 % 17.17 C
3018 28-07-2016 11:25:00 21.9 C 75 % 17.27 C
3019 28-07-2016 11:30:00 22 C 75 % 17.36 C
3020 28-07-2016 11:35:00 22 C 73 % 16.94 C
3021 28-07-2016 11:40:00 22.1 C 77 % 17.88 C
3022 28-07-2016 11:45:00 22.1 C 75 % 17.46 C
3023 28-07-2016 11:50:00 22.1 C 74 % 17.25 C
3024 28-07-2016 11:55:00 22.2 C 74 % 17.34 C
3025 28-07-2016 12:00:00 22.3 C 72 % 17.01 C
Sensor: Nr:Datum:Temp:Feuchte:Taupunkt:
Aussen-T/F 3026 28-07-2016 12:05:00 22.5 C 72 % 17.2 C
3027 28-07-2016 12:10:00 22.6 C 71 % 17.07 C
3028 28-07-2016 12:15:00 22.7 C 71 % 17.17 C
3029 28-07-2016 12:20:00 22.8 C 76 % 18.35 C
3030 28-07-2016 12:25:00 22.9 C 71 % 17.36 C
3031 28-07-2016 12:30:00 22.9 C 70 % 17.14 C
3032 28-07-2016 12:35:00 23.1 C 71 % 17.55 C
3033 28-07-2016 12:40:00 23.2 C 69 % 17.2 C
3034 28-07-2016 12:45:00 23.3 C 70 % 17.52 C
3035 28-07-2016 12:50:00 23.3 C 73 % 18.19 C
3036 28-07-2016 12:55:00 23.4 C 71 % 17.84 C
3037 28-07-2016 13:00:00 23.4 C 69 % 17.39 C
3038 28-07-2016 13:05:00 23.4 C 69 % 17.39 C
3039 28-07-2016 13:10:00 23.4 C 68 % 17.16 C
3040 28-07-2016 13:15:00 23.3 C 69 % 17.29 C
3041 28-07-2016 13:20:00 23.3 C 68 % 17.06 C
3042 28-07-2016 13:25:00 23.3 C 69 % 17.29 C
3043 28-07-2016 13:30:00 23.3 C 68 % 17.06 C
3044 28-07-2016 13:35:00 23.4 C 69 % 17.39 C
3045 28-07-2016 13:40:00 23.6 C 67 % 17.11 C
3046 28-07-2016 13:45:00 23.7 C 69 % 17.67 C
3047 28-07-2016 13:50:00 23.8 C 69 % 17.77 C
3048 28-07-2016 13:55:00 23.8 C 67 % 17.3 C
3049 28-07-2016 14:00:00 23.9 C 69 % 17.87 C
3050 28-07-2016 14:05:00 24.1 C 67 % 17.59 C
Sensor: Nr:Datum:Temp:Feuchte:Taupunkt:
Aussen-T/F 3051 28-07-2016 14:10:00 24.3 C 68 % 18.01 C
3052 28-07-2016 14:15:00 24.6 C 64 % 17.34 C
3053 28-07-2016 14:20:00 24.6 C 63 % 17.09 C
3054 28-07-2016 14:25:00 24.5 C 65 % 17.49 C
3055 28-07-2016 14:30:00 24.5 C 64 % 17.24 C
3056 28-07-2016 14:35:00 24.4 C 65 % 17.39 C
3057 28-07-2016 14:40:00 24.4 C 66 % 17.64 C
3058 28-07-2016 14:45:00 24.3 C 64 % 17.05 C
3059 28-07-2016 14:50:00 24.2 C 66 % 17.45 C
3060 28-07-2016 14:55:00 23.9 C 65 % 16.92 C
3061 28-07-2016 15:00:00 23.7 C 67 % 17.21 C
3062 28-07-2016 15:05:00 23.6 C 67 % 17.11 C
3063 28-07-2016 15:10:00 23.6 C 70 % 17.81 C
3064 28-07-2016 15:15:00 23.6 C 68 % 17.35 C
3065 28-07-2016 15:20:00 23.7 C 70 % 17.9 C
3066 28-07-2016 15:25:00 23.8 C 71 % 18.22 C
3067 28-07-2016 15:30:00 23.9 C 68 % 17.63 C
3068 28-07-2016 15:35:00 24.1 C 68 % 17.82 C
3069 28-07-2016 15:40:00 24.2 C 69 % 18.15 C
3070 28-07-2016 15:45:00 24.2 C 69 % 18.15 C
3071 28-07-2016 15:50:00 24.2 C 67 % 17.68 C
3072 28-07-2016 15:55:00 24.2 C 68 % 17.92 C
3073 28-07-2016 16:00:00 24.1 C 66 % 17.35 C
3074 28-07-2016 16:05:00 24.1 C 71 % 18.51 C
3075 28-07-2016 16:10:00 23.9 C 72 % 18.54 C
Sensor: Nr:Datum:Temp:Feuchte:Taupunkt:
Aussen-T/F 3076 28-07-2016 16:15:00 23.6 C 70 % 17.81 C
3077 28-07-2016 16:20:00 23.2 C 73 % 18.09 C
3078 28-07-2016 16:25:00 22.7 C 77 % 18.46 C
3079 28-07-2016 16:30:00 22 C 81 % 18.59 C
3080 28-07-2016 16:35:00 21.6 C 83 % 18.59 C
3081 28-07-2016 16:40:00 21.4 C 86 % 18.96 C
3082 28-07-2016 16:45:00 21.5 C 88 % 19.43 C
3083 28-07-2016 16:50:00 21.7 C 88 % 19.62 C
3084 28-07-2016 16:55:00 21.9 C 88 % 19.82 C
3085 28-07-2016 17:00:00 22.4 C 86 % 19.94 C
3086 28-07-2016 17:05:00 22.7 C 83 % 19.66 C
3087 28-07-2016 17:10:00 22.8 C 83 % 19.76 C
3088 28-07-2016 17:15:00 23 C 83 % 19.96 C
3089 28-07-2016 17:20:00 23.2 C 82 % 19.95 C
3090 28-07-2016 17:25:00 23.3 C 81 % 19.85 C
3091 28-07-2016 17:30:00 23.3 C 80 % 19.65 C
3092 28-07-2016 17:35:00 23.2 C 81 % 19.76 C
3093 28-07-2016 17:40:00 23.1 C 80 % 19.46 C
3094 28-07-2016 17:45:00 23.1 C 80 % 19.46 C
3095 28-07-2016 17:50:00 23.2 C 80 % 19.56 C
3096 28-07-2016 17:55:00 23.3 C 78 % 19.25 C
3097 28-07-2016 18:00:00 23.4 C 78 % 19.34 C
3098 28-07-2016 18:05:00 23.6 C 79 % 19.74 C
3099 28-07-2016 18:10:00 23.8 C 78 % 19.73 C
3100 28-07-2016 18:15:00 23.9 C 75 % 19.2 C
Sensor: Nr:Datum:Temp:Feuchte:Taupunkt:
Aussen-T/F 3101 28-07-2016 18:20:00 23.6 C 75 % 18.91 C
3102 28-07-2016 18:25:00 23.3 C 78 % 19.25 C
3103 28-07-2016 18:30:00 22.9 C 78 % 18.86 C
3104 28-07-2016 18:35:00 22.6 C 78 % 18.57 C
3105 28-07-2016 18:40:00 22.5 C 79 % 18.67 C
3106 28-07-2016 18:45:00 22.6 C 77 % 18.36 C
3107 28-07-2016 18:50:00 22.7 C 77 % 18.46 C
3108 28-07-2016 18:55:00 22.8 C 78 % 18.76 C
3109 28-07-2016 19:00:00 22.7 C 77 % 18.46 C
3110 28-07-2016 19:05:00 22.7 C 78 % 18.67 C
3111 28-07-2016 19:10:00 22.6 C 77 % 18.36 C
3112 28-07-2016 19:15:00 22.6 C 79 % 18.77 C
3113 28-07-2016 19:20:00 22.6 C 79 % 18.77 C
3114 28-07-2016 19:25:00 22.6 C 81 % 19.17 C
3115 28-07-2016 19:30:00 22.6 C 79 % 18.77 C
3116 28-07-2016 19:35:00 22.5 C 81 % 19.08 C
3117 28-07-2016 19:40:00 22.4 C 81 % 18.98 C
3118 28-07-2016 19:45:00 22.3 C 82 % 19.08 C
3119 28-07-2016 19:50:00 22.2 C 83 % 19.17 C
3120 28-07-2016 19:55:00 22.1 C 84 % 19.27 C
3121 28-07-2016 20:00:00 21.9 C 83 % 18.88 C
3122 28-07-2016 20:05:00 21.8 C 83 % 18.78 C
3123 28-07-2016 20:10:00 21.7 C 83 % 18.69 C
3124 28-07-2016 20:15:00 21.6 C 83 % 18.59 C
3125 28-07-2016 20:20:00 21.4 C 84 % 18.58 C
Sensor: Nr:Datum:Temp:Feuchte:Taupunkt:
Aussen-T/F 3126 28-07-2016 20:25:00 21.3 C 84 % 18.49 C
3127 28-07-2016 20:30:00 21.2 C 85 % 18.58 C
3128 28-07-2016 20:35:00 21 C 85 % 18.38 C
3129 28-07-2016 20:40:00 20.9 C 86 % 18.47 C
3130 28-07-2016 20:45:00 20.8 C 86 % 18.37 C
3131 28-07-2016 20:50:00 20.7 C 86 % 18.27 C
3132 28-07-2016 20:55:00 20.6 C 86 % 18.18 C
3133 28-07-2016 21:00:00 20.4 C 87 % 18.16 C
3134 28-07-2016 21:05:00 20.2 C 87 % 17.97 C
3135 28-07-2016 21:10:00 20.1 C 87 % 17.87 C
3136 28-07-2016 21:15:00 20 C 88 % 17.95 C
3137 28-07-2016 21:20:00 19.9 C 88 % 17.85 C
3138 28-07-2016 21:25:00 19.7 C 88 % 17.66 C
3139 28-07-2016 21:30:00 19.6 C 88 % 17.56 C
3140 28-07-2016 21:35:00 19.5 C 88 % 17.46 C
3141 28-07-2016 21:40:00 19.4 C 89 % 17.54 C
3142 28-07-2016 21:45:00 19.3 C 89 % 17.44 C
3143 28-07-2016 21:50:00 19.3 C 90 % 17.62 C
3144 28-07-2016 21:55:00 19.2 C 90 % 17.52 C
3145 28-07-2016 22:00:00 19.1 C 90 % 17.42 C
3146 28-07-2016 22:05:00 19.1 C 90 % 17.42 C
3147 28-07-2016 22:10:00 18.9 C 90 % 17.22 C
3148 28-07-2016 22:15:00 18.9 C 91 % 17.4 C
3149 28-07-2016 22:20:00 18.9 C 91 % 17.4 C
3150 28-07-2016 22:25:00 18.8 C 91 % 17.3 C
Sensor: Nr:Datum:Temp:Feuchte:Taupunkt:
Aussen-T/F 3151 28-07-2016 22:30:00 18.8 C 91 % 17.3 C
3152 28-07-2016 22:35:00 18.8 C 91 % 17.3 C
3153 28-07-2016 22:40:00 18.7 C 91 % 17.2 C
3154 28-07-2016 22:45:00 18.7 C 92 % 17.37 C
3155 28-07-2016 22:50:00 18.6 C 92 % 17.27 C
3156 28-07-2016 22:55:00 18.6 C 92 % 17.27 C
3157 28-07-2016 23:00:00 18.6 C 92 % 17.27 C
3158 28-07-2016 23:05:00 18.6 C 92 % 17.27 C
3159 28-07-2016 23:10:00 18.5 C 92 % 17.18 C
3160 28-07-2016 23:15:00 18.5 C 92 % 17.18 C
3161 28-07-2016 23:20:00 18.5 C 93 % 17.35 C
3162 28-07-2016 23:25:00 18.4 C 93 % 17.25 C
3163 28-07-2016 23:30:00 18.4 C 93 % 17.25 C
3164 28-07-2016 23:35:00 18.4 C 93 % 17.25 C
3165 28-07-2016 23:40:00 18.5 C 93 % 17.35 C
3166 28-07-2016 23:45:00 18.5 C 93 % 17.35 C
3167 28-07-2016 23:50:00 18.4 C 93 % 17.25 C
3168 28-07-2016 23:55:00 18.4 C 93 % 17.25 C
3169 29-07-2016 00:00:00 18.4 C 93 % 17.25 C
3170 29-07-2016 00:05:00 18.3 C 93 % 17.15 C
3171 29-07-2016 00:10:00 18.3 C 93 % 17.15 C
3172 29-07-2016 00:15:00 18.3 C 93 % 17.15 C
3173 29-07-2016 00:20:00 18.4 C 93 % 17.25 C
3174 29-07-2016 00:25:00 18.3 C 93 % 17.15 C
3175 29-07-2016 00:30:00 18.3 C 93 % 17.15 C
Sensor: Nr:Datum:Temp:Feuchte:Taupunkt:
Aussen-T/F 3176 29-07-2016 00:35:00 18.3 C 93 % 17.15 C
3177 29-07-2016 00:40:00 18.2 C 93 % 17.05 C
3178 29-07-2016 00:45:00 18.2 C 92 % 16.88 C
3179 29-07-2016 00:50:00 18.1 C 92 % 16.78 C
3180 29-07-2016 00:55:00 18.1 C 92 % 16.78 C
3181 29-07-2016 01:00:00 17.9 C 92 % 16.58 C
3182 29-07-2016 01:05:00 17.9 C 92 % 16.58 C
3183 29-07-2016 01:10:00 17.8 C 92 % 16.48 C
3184 29-07-2016 01:15:00 17.7 C 92 % 16.38 C
3185 29-07-2016 01:20:00 17.6 C 92 % 16.28 C
3186 29-07-2016 01:25:00 17.6 C 92 % 16.28 C
3187 29-07-2016 01:30:00 17.4 C 92 % 16.09 C
3188 29-07-2016 01:35:00 17.4 C 92 % 16.09 C
3189 29-07-2016 01:40:00 17.3 C 92 % 15.99 C
3190 29-07-2016 01:45:00 17.2 C 92 % 15.89 C
3191 29-07-2016 01:50:00 17.2 C 92 % 15.89 C
3192 29-07-2016 01:55:00 17.1 C 92 % 15.79 C
3193 29-07-2016 02:00:00 16.9 C 92 % 15.59 C
3194 29-07-2016 02:05:00 16.8 C 92 % 15.49 C
3195 29-07-2016 02:10:00 16.7 C 92 % 15.39 C
3196 29-07-2016 02:15:00 16.6 C 92 % 15.3 C
3197 29-07-2016 02:20:00 16.5 C 92 % 15.2 C
3198 29-07-2016 02:25:00 16.4 C 92 % 15.1 C
3199 29-07-2016 02:30:00 16.3 C 92 % 15 C
3200 29-07-2016 02:35:00 16.3 C 93 % 15.17 C
Sensor: Nr:Datum:Temp:Feuchte:Taupunkt:
Aussen-T/F 3201 29-07-2016 02:40:00 16.2 C 93 % 15.07 C
3202 29-07-2016 02:45:00 16.1 C 93 % 14.97 C
3203 29-07-2016 02:50:00 16 C 93 % 14.87 C
3204 29-07-2016 02:55:00 15.9 C 93 % 14.77 C
3205 29-07-2016 03:00:00 15.9 C 93 % 14.77 C
3206 29-07-2016 03:05:00 15.8 C 93 % 14.67 C
3207 29-07-2016 03:10:00 15.8 C 93 % 14.67 C
3208 29-07-2016 03:15:00 15.7 C 93 % 14.57 C
3209 29-07-2016 03:20:00 15.6 C 93 % 14.47 C
3210 29-07-2016 03:25:00 15.6 C 93 % 14.47 C
3211 29-07-2016 03:30:00 15.5 C 93 % 14.37 C
3212 29-07-2016 03:35:00 15.5 C 94 % 14.54 C
3213 29-07-2016 03:40:00 15.6 C 94 % 14.64 C
3214 29-07-2016 03:45:00 15.5 C 94 % 14.54 C
3215 29-07-2016 03:50:00 15.5 C 94 % 14.54 C
3216 29-07-2016 03:55:00 15.7 C 95 % 14.9 C
3217 29-07-2016 04:00:00 15.8 C 95 % 15 C
3218 29-07-2016 04:05:00 15.9 C 95 % 15.1 C
3219 29-07-2016 04:10:00 16 C 95 % 15.2 C
3220 29-07-2016 04:15:00 16.2 C 95 % 15.4 C
3221 29-07-2016 04:20:00 16.2 C 95 % 15.4 C
3222 29-07-2016 04:25:00 16.3 C 94 % 15.33 C
3223 29-07-2016 04:30:00 16.3 C 94 % 15.33 C
3224 29-07-2016 04:35:00 16.4 C 94 % 15.43 C
3225 29-07-2016 04:40:00 16.4 C 94 % 15.43 C
Sensor: Nr:Datum:Temp:Feuchte:Taupunkt:
Aussen-T/F 3226 29-07-2016 04:45:00 16.4 C 94 % 15.43 C
3227 29-07-2016 04:50:00 16.4 C 94 % 15.43 C
3228 29-07-2016 04:55:00 16.5 C 94 % 15.53 C
3229 29-07-2016 05:00:00 16.6 C 94 % 15.63 C
3230 29-07-2016 05:05:00 16.6 C 94 % 15.63 C
3231 29-07-2016 05:10:00 16.6 C 94 % 15.63 C
3232 29-07-2016 05:15:00 16.7 C 94 % 15.73 C
3233 29-07-2016 05:20:00 16.7 C 94 % 15.73 C
3234 29-07-2016 05:25:00 16.7 C 94 % 15.73 C
3235 29-07-2016 05:30:00 16.7 C 94 % 15.73 C
3236 29-07-2016 05:35:00 16.7 C 94 % 15.73 C
3237 29-07-2016 05:40:00 16.7 C 94 % 15.73 C
3238 29-07-2016 05:45:00 16.7 C 94 % 15.73 C
3239 29-07-2016 05:50:00 16.7 C 94 % 15.73 C
3240 29-07-2016 05:55:00 16.7 C 94 % 15.73 C
3241 29-07-2016 06:00:00 16.7 C 94 % 15.73 C
3242 29-07-2016 06:05:00 16.7 C 94 % 15.73 C
3243 29-07-2016 06:10:00 16.7 C 94 % 15.73 C
3244 29-07-2016 06:15:00 16.7 C 94 % 15.73 C
3245 29-07-2016 06:20:00 16.7 C 94 % 15.73 C
3246 29-07-2016 06:25:00 16.7 C 94 % 15.73 C
3247 29-07-2016 06:30:00 16.6 C 94 % 15.63 C
3248 29-07-2016 06:35:00 16.6 C 94 % 15.63 C
3249 29-07-2016 06:40:00 16.6 C 94 % 15.63 C
3250 29-07-2016 06:45:00 16.7 C 94 % 15.73 C
Sensor: Nr:Datum:Temp:Feuchte:Taupunkt:
Aussen-T/F 3251 29-07-2016 06:50:00 16.7 C 95 % 15.9 C
3252 29-07-2016 06:55:00 16.8 C 95 % 15.99 C
3253 29-07-2016 07:00:00 16.8 C 95 % 15.99 C
3254 29-07-2016 07:05:00 16.9 C 95 % 16.09 C
3255 29-07-2016 07:10:00 16.9 C 95 % 16.09 C
3256 29-07-2016 07:15:00 17 C 95 % 16.19 C
3257 29-07-2016 07:20:00 17 C 95 % 16.19 C
3258 29-07-2016 07:25:00 17 C 95 % 16.19 C
3259 29-07-2016 07:30:00 17.1 C 95 % 16.29 C
3260 29-07-2016 07:35:00 17.1 C 95 % 16.29 C
3261 29-07-2016 07:40:00 17.1 C 95 % 16.29 C
3262 29-07-2016 07:45:00 17.2 C 95 % 16.39 C
3263 29-07-2016 07:50:00 17.1 C 95 % 16.29 C
3264 29-07-2016 07:55:00 17.2 C 95 % 16.39 C
3265 29-07-2016 08:00:00 17.2 C 95 % 16.39 C
3266 29-07-2016 08:05:00 17.3 C 95 % 16.49 C
3267 29-07-2016 08:10:00 17.4 C 95 % 16.59 C
3268 29-07-2016 08:15:00 17.4 C 95 % 16.59 C
3269 29-07-2016 08:20:00 17.4 C 95 % 16.59 C
3270 29-07-2016 08:25:00 17.4 C 94 % 16.42 C
3271 29-07-2016 08:30:00 17.4 C 94 % 16.42 C
3272 29-07-2016 08:35:00 17.5 C 94 % 16.52 C
3273 29-07-2016 08:40:00 17.6 C 94 % 16.62 C
3274 29-07-2016 08:45:00 17.6 C 93 % 16.45 C
3275 29-07-2016 08:50:00 17.7 C 93 % 16.55 C
Sensor: Nr:Datum:Temp:Feuchte:Taupunkt:
Aussen-T/F 3276 29-07-2016 08:55:00 17.8 C 93 % 16.65 C
3277 29-07-2016 09:00:00 17.9 C 92 % 16.58 C
3278 29-07-2016 09:05:00 18 C 92 % 16.68 C
3279 29-07-2016 09:10:00 18.2 C 91 % 16.71 C
3280 29-07-2016 09:15:00 18.3 C 91 % 16.81 C
3281 29-07-2016 09:20:00 18.3 C 90 % 16.63 C
3282 29-07-2016 09:25:00 18.5 C 89 % 16.65 C
3283 29-07-2016 09:30:00 18.7 C 89 % 16.85 C
3284 29-07-2016 09:35:00 18.7 C 88 % 16.67 C
3285 29-07-2016 09:40:00 18.8 C 87 % 16.59 C
3286 29-07-2016 09:45:00 18.9 C 87 % 16.69 C
3287 29-07-2016 09:50:00 19.1 C 87 % 16.89 C
3288 29-07-2016 09:55:00 19.2 C 87 % 16.98 C
3289 29-07-2016 10:00:00 19.2 C 86 % 16.8 C
3290 29-07-2016 10:05:00 19.2 C 86 % 16.8 C
3291 29-07-2016 10:10:00 19.3 C 87 % 17.08 C
3292 29-07-2016 10:15:00 19.3 C 88 % 17.26 C
3293 29-07-2016 10:20:00 19.3 C 88 % 17.26 C
3294 29-07-2016 10:25:00 19.3 C 88 % 17.26 C
3295 29-07-2016 10:30:00 19.3 C 88 % 17.26 C
3296 29-07-2016 10:35:00 19.3 C 88 % 17.26 C
3297 29-07-2016 10:40:00 19.3 C 88 % 17.26 C
3298 29-07-2016 10:45:00 19.3 C 89 % 17.44 C
3299 29-07-2016 10:50:00 19.4 C 89 % 17.54 C
3300 29-07-2016 10:55:00 19.3 C 89 % 17.44 C
Sensor: Nr:Datum:Temp:Feuchte:Taupunkt:
Aussen-T/F 3301 29-07-2016 11:00:00 19.3 C 90 % 17.62 C
3302 29-07-2016 11:05:00 19.4 C 91 % 17.89 C
3303 29-07-2016 11:10:00 19.4 C 91 % 17.89 C
3304 29-07-2016 11:15:00 19.4 C 91 % 17.89 C
3305 29-07-2016 11:20:00 19.5 C 91 % 17.99 C
3306 29-07-2016 11:25:00 19.5 C 91 % 17.99 C
3307 29-07-2016 11:30:00 19.4 C 91 % 17.89 C
3308 29-07-2016 11:35:00 19.5 C 91 % 17.99 C
3309 29-07-2016 11:40:00 19.7 C 92 % 18.36 C
3310 29-07-2016 11:45:00 19.9 C 92 % 18.56 C
3311 29-07-2016 11:50:00 19.9 C 90 % 18.21 C
3312 29-07-2016 11:55:00 20.1 C 90 % 18.41 C
3313 29-07-2016 12:00:00 20.2 C 90 % 18.51 C
3314 29-07-2016 12:05:00 20.4 C 90 % 18.7 C
3315 29-07-2016 12:10:00 20.4 C 88 % 18.34 C
3316 29-07-2016 12:15:00 20.7 C 90 % 19 C
3317 29-07-2016 12:20:00 20.9 C 91 % 19.37 C
3318 29-07-2016 12:25:00 21 C 90 % 19.3 C
3319 29-07-2016 12:30:00 21.1 C 87 % 18.85 C
3320 29-07-2016 12:35:00 21.2 C 87 % 18.95 C
3321 29-07-2016 12:40:00 21.3 C 89 % 19.41 C
3322 29-07-2016 12:45:00 21.4 C 85 % 18.77 C
3323 29-07-2016 12:50:00 21.7 C 83 % 18.69 C
3324 29-07-2016 12:55:00 22 C 83 % 18.98 C
3325 29-07-2016 13:00:00 22.3 C 81 % 18.88 C
Sensor: Nr:Datum:Temp:Feuchte:Taupunkt:
Aussen-T/F 3326 29-07-2016 13:05:00 22.4 C 79 % 18.58 C
3327 29-07-2016 13:10:00 22.3 C 80 % 18.68 C
3328 29-07-2016 13:15:00 22.3 C 80 % 18.68 C
3329 29-07-2016 13:20:00 22.4 C 81 % 18.98 C
3330 29-07-2016 13:25:00 22.6 C 83 % 19.56 C
3331 29-07-2016 13:30:00 22.8 C 80 % 19.17 C
3332 29-07-2016 13:35:00 22.9 C 79 % 19.06 C
3333 29-07-2016 13:40:00 22.9 C 76 % 18.44 C
3334 29-07-2016 13:45:00 23.1 C 77 % 18.85 C
3335 29-07-2016 13:50:00 23.3 C 78 % 19.25 C
3336 29-07-2016 13:55:00 23.4 C 73 % 18.28 C
3337 29-07-2016 14:00:00 23.6 C 73 % 18.48 C
3338 29-07-2016 14:05:00 23.6 C 73 % 18.48 C
3339 29-07-2016 14:10:00 23.7 C 75 % 19 C
3340 29-07-2016 14:15:00 23.9 C 71 % 18.32 C
3341 29-07-2016 14:20:00 24.1 C 71 % 18.51 C
3342 29-07-2016 14:25:00 24.2 C 71 % 18.61 C
3343 29-07-2016 14:30:00 24.3 C 72 % 18.93 C
3344 29-07-2016 14:35:00 24.4 C 68 % 18.11 C
3345 29-07-2016 14:40:00 24.7 C 72 % 19.31 C
3346 29-07-2016 14:45:00 24.8 C 70 % 18.95 C
3347 29-07-2016 14:50:00 25.1 C 67 % 18.54 C
3348 29-07-2016 14:55:00 25.1 C 67 % 18.54 C
3349 29-07-2016 15:00:00 24.8 C 67 % 18.25 C
3350 29-07-2016 15:05:00 24.4 C 69 % 18.34 C
Sensor: Nr:Datum:Temp:Feuchte:Taupunkt:
Aussen-T/F 3351 29-07-2016 15:10:00 24.3 C 69 % 18.25 C
3352 29-07-2016 15:15:00 24.3 C 68 % 18.01 C
3353 29-07-2016 15:20:00 24.2 C 68 % 17.92 C
3354 29-07-2016 15:25:00 24.1 C 68 % 17.82 C
3355 29-07-2016 15:30:00 23.8 C 73 % 18.67 C
3356 29-07-2016 15:35:00 23.4 C 76 % 18.93 C
3357 29-07-2016 15:40:00 22.8 C 77 % 18.56 C
3358 29-07-2016 15:45:00 22.6 C 79 % 18.77 C
3359 29-07-2016 15:50:00 22.9 C 78 % 18.86 C
3360 29-07-2016 15:55:00 23.1 C 75 % 18.43 C
3361 29-07-2016 16:00:00 23.4 C 74 % 18.5 C
3362 29-07-2016 16:05:00 23.6 C 71 % 18.03 C
3363 29-07-2016 16:10:00 23.8 C 70 % 18 C
3364 29-07-2016 16:15:00 24.2 C 70 % 18.38 C
3365 29-07-2016 16:20:00 24.4 C 69 % 18.34 C
3366 29-07-2016 16:25:00 24.4 C 68 % 18.11 C
3367 29-07-2016 16:30:00 24.2 C 68 % 17.92 C
3368 29-07-2016 16:35:00 23.8 C 71 % 18.22 C
3369 29-07-2016 16:40:00 24.2 C 72 % 18.83 C
3370 29-07-2016 16:45:00 24.6 C 69 % 18.53 C
3371 29-07-2016 16:50:00 24.8 C 68 % 18.49 C
3372 29-07-2016 16:55:00 24.6 C 68 % 18.3 C
3373 29-07-2016 17:00:00 24.2 C 69 % 18.15 C
3374 29-07-2016 17:05:00 23.9 C 69 % 17.87 C
3375 29-07-2016 17:10:00 23.8 C 74 % 18.89 C
Sensor: Nr:Datum:Temp:Feuchte:Taupunkt:
Aussen-T/F 3376 29-07-2016 17:15:00 23.6 C 75 % 18.91 C
3377 29-07-2016 17:20:00 23.3 C 74 % 18.4 C
3378 29-07-2016 17:25:00 23.2 C 74 % 18.31 C
3379 29-07-2016 17:30:00 23.1 C 75 % 18.43 C
3380 29-07-2016 17:35:00 23.2 C 74 % 18.31 C
3381 29-07-2016 17:40:00 23.9 C 71 % 18.32 C
3382 29-07-2016 17:45:00 24.7 C 68 % 18.4 C
3383 29-07-2016 17:50:00 25.4 C 67 % 18.82 C
3384 29-07-2016 17:55:00 25.6 C 64 % 18.28 C
3385 29-07-2016 18:00:00 25.4 C 68 % 19.06 C
3386 29-07-2016 18:05:00 25.1 C 67 % 18.54 C
3387 29-07-2016 18:10:00 24.7 C 68 % 18.4 C
3388 29-07-2016 18:15:00 24.3 C 70 % 18.48 C
3389 29-07-2016 18:20:00 24 C 73 % 18.86 C
3390 29-07-2016 18:25:00 23.8 C 74 % 18.89 C
3391 29-07-2016 18:30:00 23.5 C 74 % 18.6 C
3392 29-07-2016 18:35:00 23.2 C 72 % 17.87 C
3393 29-07-2016 18:40:00 23.3 C 71 % 17.75 C
3394 29-07-2016 18:45:00 23.4 C 72 % 18.06 C
3395 29-07-2016 18:50:00 23.4 C 72 % 18.06 C
3396 29-07-2016 18:55:00 23.4 C 73 % 18.28 C
3397 29-07-2016 19:00:00 23.4 C 73 % 18.28 C
3398 29-07-2016 19:05:00 23.4 C 74 % 18.5 C
3399 29-07-2016 19:10:00 23.2 C 74 % 18.31 C
3400 29-07-2016 19:15:00 22.9 C 74 % 18.02 C
Sensor: Nr:Datum:Temp:Feuchte:Taupunkt:
Aussen-T/F 3401 29-07-2016 19:20:00 22.8 C 75 % 18.14 C
3402 29-07-2016 19:25:00 22.7 C 76 % 18.25 C
3403 29-07-2016 19:30:00 22.6 C 75 % 17.94 C
3404 29-07-2016 19:35:00 22.4 C 75 % 17.75 C
3405 29-07-2016 19:40:00 22.3 C 76 % 17.86 C
3406 29-07-2016 19:45:00 22.1 C 77 % 17.88 C
3407 29-07-2016 19:50:00 22.1 C 78 % 18.08 C
3408 29-07-2016 19:55:00 22.3 C 77 % 18.07 C
3409 29-07-2016 20:00:00 22.4 C 75 % 17.75 C
3410 29-07-2016 20:05:00 22.5 C 73 % 17.42 C
3411 29-07-2016 20:10:00 22.5 C 74 % 17.63 C
3412 29-07-2016 20:15:00 22.5 C 75 % 17.85 C
3413 29-07-2016 20:20:00 22.5 C 76 % 18.06 C
3414 29-07-2016 20:25:00 22.4 C 75 % 17.75 C
3415 29-07-2016 20:30:00 22.3 C 76 % 17.86 C
3416 29-07-2016 20:35:00 22.1 C 76 % 17.67 C
3417 29-07-2016 20:40:00 21.8 C 76 % 17.38 C
3418 29-07-2016 20:45:00 21.6 C 78 % 17.6 C
3419 29-07-2016 20:50:00 21.3 C 78 % 17.31 C
3420 29-07-2016 20:55:00 21.1 C 79 % 17.32 C
3421 29-07-2016 21:00:00 20.9 C 80 % 17.32 C
3422 29-07-2016 21:05:00 20.7 C 81 % 17.32 C
3423 29-07-2016 21:10:00 20.5 C 82 % 17.32 C
3424 29-07-2016 21:15:00 20.3 C 82 % 17.13 C
3425 29-07-2016 21:20:00 20.1 C 83 % 17.12 C
Sensor: Nr:Datum:Temp:Feuchte:Taupunkt:
Aussen-T/F 3426 29-07-2016 21:25:00 19.9 C 83 % 16.93 C
3427 29-07-2016 21:30:00 19.8 C 84 % 17.02 C
3428 29-07-2016 21:35:00 19.6 C 84 % 16.82 C
3429 29-07-2016 21:40:00 19.4 C 85 % 16.81 C
3430 29-07-2016 21:45:00 19.3 C 85 % 16.72 C
3431 29-07-2016 21:50:00 19.1 C 86 % 16.7 C
3432 29-07-2016 21:55:00 19 C 86 % 16.6 C
3433 29-07-2016 22:00:00 18.9 C 86 % 16.51 C
3434 29-07-2016 22:05:00 18.9 C 86 % 16.51 C
3435 29-07-2016 22:10:00 18.8 C 87 % 16.59 C
3436 29-07-2016 22:15:00 18.8 C 87 % 16.59 C
3437 29-07-2016 22:20:00 18.8 C 88 % 16.77 C
3438 29-07-2016 22:25:00 18.8 C 88 % 16.77 C
3439 29-07-2016 22:30:00 18.9 C 88 % 16.87 C
3440 29-07-2016 22:35:00 18.9 C 89 % 17.05 C
3441 29-07-2016 22:40:00 18.9 C 89 % 17.05 C
3442 29-07-2016 22:45:00 18.9 C 89 % 17.05 C
3443 29-07-2016 22:50:00 18.9 C 89 % 17.05 C
3444 29-07-2016 22:55:00 18.8 C 88 % 16.77 C
3445 29-07-2016 23:00:00 18.8 C 88 % 16.77 C
3446 29-07-2016 23:05:00 18.8 C 88 % 16.77 C
3447 29-07-2016 23:10:00 18.8 C 88 % 16.77 C
3448 29-07-2016 23:15:00 18.7 C 88 % 16.67 C
3449 29-07-2016 23:20:00 18.7 C 88 % 16.67 C
3450 29-07-2016 23:25:00 18.7 C 88 % 16.67 C
Sensor: Nr:Datum:Temp:Feuchte:Taupunkt:
Aussen-T/F 3451 29-07-2016 23:30:00 18.7 C 88 % 16.67 C
3452 29-07-2016 23:35:00 18.7 C 89 % 16.85 C
3453 29-07-2016 23:40:00 18.7 C 89 % 16.85 C
3454 29-07-2016 23:45:00 18.7 C 89 % 16.85 C
3455 29-07-2016 23:50:00 18.7 C 89 % 16.85 C
3456 29-07-2016 23:55:00 18.7 C 89 % 16.85 C
3457 30-07-2016 00:00:00 18.8 C 89 % 16.95 C
3458 30-07-2016 00:05:00 18.8 C 89 % 16.95 C
3459 30-07-2016 00:10:00 18.8 C 89 % 16.95 C
3460 30-07-2016 00:15:00 18.8 C 89 % 16.95 C
3461 30-07-2016 00:20:00 18.8 C 88 % 16.77 C
3462 30-07-2016 00:25:00 18.8 C 89 % 16.95 C
3463 30-07-2016 00:30:00 18.8 C 89 % 16.95 C
3464 30-07-2016 00:35:00 18.8 C 89 % 16.95 C
3465 30-07-2016 00:40:00 18.8 C 89 % 16.95 C
3466 30-07-2016 00:45:00 18.8 C 89 % 16.95 C
3467 30-07-2016 00:50:00 18.8 C 89 % 16.95 C
3468 30-07-2016 00:55:00 18.8 C 89 % 16.95 C
3469 30-07-2016 01:00:00 18.8 C 89 % 16.95 C
3470 30-07-2016 01:05:00 18.8 C 89 % 16.95 C
3471 30-07-2016 01:10:00 18.8 C 89 % 16.95 C
3472 30-07-2016 01:15:00 18.8 C 89 % 16.95 C
3473 30-07-2016 01:20:00 18.8 C 89 % 16.95 C
3474 30-07-2016 01:25:00 18.8 C 89 % 16.95 C
3475 30-07-2016 01:30:00 18.8 C 89 % 16.95 C
Sensor: Nr:Datum:Temp:Feuchte:Taupunkt:
Aussen-T/F 3476 30-07-2016 01:35:00 18.8 C 89 % 16.95 C
3477 30-07-2016 01:40:00 18.8 C 89 % 16.95 C
3478 30-07-2016 01:45:00 18.8 C 90 % 17.12 C
3479 30-07-2016 01:50:00 18.8 C 90 % 17.12 C
3480 30-07-2016 01:55:00 18.8 C 89 % 16.95 C
3481 30-07-2016 02:00:00 18.8 C 89 % 16.95 C
3482 30-07-2016 02:05:00 18.8 C 89 % 16.95 C
3483 30-07-2016 02:10:00 18.8 C 90 % 17.12 C
3484 30-07-2016 02:15:00 18.8 C 90 % 17.12 C
3485 30-07-2016 02:20:00 18.8 C 90 % 17.12 C
3486 30-07-2016 02:25:00 18.8 C 91 % 17.3 C
3487 30-07-2016 02:30:00 18.7 C 91 % 17.2 C
3488 30-07-2016 02:35:00 18.7 C 91 % 17.2 C
3489 30-07-2016 02:40:00 18.6 C 91 % 17.1 C
3490 30-07-2016 02:45:00 18.4 C 90 % 16.73 C
3491 30-07-2016 02:50:00 18.2 C 91 % 16.71 C
3492 30-07-2016 02:55:00 18.2 C 92 % 16.88 C
3493 30-07-2016 03:00:00 18.2 C 92 % 16.88 C
3494 30-07-2016 03:05:00 18.2 C 92 % 16.88 C
3495 30-07-2016 03:10:00 18.2 C 92 % 16.88 C
3496 30-07-2016 03:15:00 18.2 C 92 % 16.88 C
3497 30-07-2016 03:20:00 18.2 C 92 % 16.88 C
3498 30-07-2016 03:25:00 18.1 C 93 % 16.95 C
3499 30-07-2016 03:30:00 18.1 C 93 % 16.95 C
3500 30-07-2016 03:35:00 18.1 C 93 % 16.95 C
Sensor: Nr:Datum:Temp:Feuchte:Taupunkt:
Aussen-T/F 3501 30-07-2016 03:40:00 18.1 C 93 % 16.95 C
3502 30-07-2016 03:45:00 18.1 C 93 % 16.95 C
3503 30-07-2016 03:50:00 18.1 C 93 % 16.95 C
3504 30-07-2016 03:55:00 18.1 C 93 % 16.95 C
3505 30-07-2016 04:00:00 18.1 C 93 % 16.95 C
3506 30-07-2016 04:05:00 18.1 C 93 % 16.95 C
3507 30-07-2016 04:10:00 18.1 C 93 % 16.95 C
3508 30-07-2016 04:15:00 18.1 C 93 % 16.95 C
3509 30-07-2016 04:20:00 18.1 C 93 % 16.95 C
3510 30-07-2016 04:25:00 18.1 C 93 % 16.95 C
3511 30-07-2016 04:30:00 18.1 C 93 % 16.95 C
3512 30-07-2016 04:35:00 18.1 C 93 % 16.95 C
3513 30-07-2016 04:40:00 18.1 C 94 % 17.12 C
3514 30-07-2016 04:45:00 18.1 C 94 % 17.12 C
3515 30-07-2016 04:50:00 18.1 C 93 % 16.95 C
3516 30-07-2016 04:55:00 18.1 C 93 % 16.95 C
3517 30-07-2016 05:00:00 18.1 C 93 % 16.95 C
3518 30-07-2016 05:05:00 18 C 93 % 16.85 C
3519 30-07-2016 05:10:00 17.9 C 93 % 16.75 C
3520 30-07-2016 05:15:00 17.8 C 93 % 16.65 C
3521 30-07-2016 05:20:00 17.8 C 93 % 16.65 C
3522 30-07-2016 05:25:00 17.7 C 93 % 16.55 C
3523 30-07-2016 05:30:00 17.5 C 93 % 16.36 C
3524 30-07-2016 05:35:00 17.4 C 93 % 16.26 C
3525 30-07-2016 05:40:00 17.3 C 93 % 16.16 C
Sensor: Nr:Datum:Temp:Feuchte:Taupunkt:
Aussen-T/F 3526 30-07-2016 05:45:00 17.3 C 93 % 16.16 C
3527 30-07-2016 05:50:00 17.3 C 93 % 16.16 C
3528 30-07-2016 05:55:00 17.2 C 93 % 16.06 C
3529 30-07-2016 06:00:00 17.2 C 93 % 16.06 C
3530 30-07-2016 06:05:00 17.2 C 93 % 16.06 C
3531 30-07-2016 06:10:00 17.2 C 94 % 16.23 C
3532 30-07-2016 06:15:00 17.2 C 94 % 16.23 C
3533 30-07-2016 06:20:00 17.2 C 94 % 16.23 C
3534 30-07-2016 06:25:00 17.2 C 94 % 16.23 C
3535 30-07-2016 06:30:00 17.2 C 94 % 16.23 C
3536 30-07-2016 06:35:00 17.2 C 94 % 16.23 C
3537 30-07-2016 06:40:00 17.2 C 94 % 16.23 C
3538 30-07-2016 06:45:00 17.3 C 94 % 16.33 C
3539 30-07-2016 06:50:00 17.3 C 94 % 16.33 C
3540 30-07-2016 06:55:00 17.4 C 94 % 16.42 C
3541 30-07-2016 07:00:00 17.5 C 95 % 16.69 C
3542 30-07-2016 07:05:00 17.6 C 95 % 16.79 C
3543 30-07-2016 07:10:00 17.6 C 94 % 16.62 C
3544 30-07-2016 07:15:00 17.7 C 94 % 16.72 C
3545 30-07-2016 07:20:00 17.7 C 94 % 16.72 C
3546 30-07-2016 07:25:00 17.8 C 94 % 16.82 C
3547 30-07-2016 07:30:00 17.8 C 95 % 16.99 C
3548 30-07-2016 07:35:00 17.9 C 95 % 17.09 C
3549 30-07-2016 07:40:00 18.1 C 95 % 17.29 C
3550 30-07-2016 07:45:00 18.2 C 95 % 17.39 C
Sensor: Nr:Datum:Temp:Feuchte:Taupunkt:
Aussen-T/F 3551 30-07-2016 07:50:00 18.3 C 94 % 17.32 C
3552 30-07-2016 07:55:00 18.3 C 94 % 17.32 C
3553 30-07-2016 08:00:00 18.3 C 93 % 17.15 C
3554 30-07-2016 08:05:00 18.4 C 93 % 17.25 C
3555 30-07-2016 08:10:00 18.5 C 93 % 17.35 C
3556 30-07-2016 08:15:00 18.6 C 92 % 17.27 C
3557 30-07-2016 08:20:00 18.7 C 92 % 17.37 C
3558 30-07-2016 08:25:00 18.8 C 91 % 17.3 C
3559 30-07-2016 08:30:00 18.8 C 90 % 17.12 C
3560 30-07-2016 08:35:00 18.9 C 90 % 17.22 C
3561 30-07-2016 08:40:00 19 C 90 % 17.32 C
3562 30-07-2016 08:45:00 19.1 C 90 % 17.42 C
3563 30-07-2016 08:50:00 19.2 C 89 % 17.34 C
3564 30-07-2016 08:55:00 19.2 C 88 % 17.16 C
3565 30-07-2016 09:00:00 19.4 C 89 % 17.54 C
3566 30-07-2016 09:05:00 19.5 C 88 % 17.46 C
3567 30-07-2016 09:10:00 19.6 C 86 % 17.19 C
3568 30-07-2016 09:15:00 19.7 C 85 % 17.11 C
3569 30-07-2016 09:20:00 19.8 C 85 % 17.21 C
3570 30-07-2016 09:25:00 19.9 C 84 % 17.12 C
3571 30-07-2016 09:30:00 19.9 C 84 % 17.12 C
3572 30-07-2016 09:35:00 20 C 84 % 17.21 C
3573 30-07-2016 09:40:00 20.1 C 84 % 17.31 C
3574 30-07-2016 09:45:00 20.1 C 83 % 17.12 C
3575 30-07-2016 09:50:00 20.2 C 84 % 17.41 C
Sensor: Nr:Datum:Temp:Feuchte:Taupunkt:
Aussen-T/F 3576 30-07-2016 09:55:00 20.3 C 82 % 17.13 C
3577 30-07-2016 10:00:00 20.4 C 82 % 17.22 C
3578 30-07-2016 10:05:00 20.6 C 82 % 17.42 C
3579 30-07-2016 10:10:00 20.8 C 83 % 17.81 C
3580 30-07-2016 10:15:00 20.9 C 81 % 17.52 C
3581 30-07-2016 10:20:00 21 C 78 % 17.02 C
3582 30-07-2016 10:25:00 21.1 C 81 % 17.71 C
3583 30-07-2016 10:30:00 21.1 C 82 % 17.91 C
3584 30-07-2016 10:35:00 21.2 C 83 % 18.2 C
3585 30-07-2016 10:40:00 21.2 C 73 % 16.17 C
3586 30-07-2016 10:45:00 21.2 C 73 % 16.17 C
3587 30-07-2016 10:50:00 21.2 C 76 % 16.8 C
3588 30-07-2016 10:55:00 21.2 C 77 % 17.01 C
3589 30-07-2016 11:00:00 21.1 C 73 % 16.07 C
3590 30-07-2016 11:05:00 21.1 C 74 % 16.29 C
3591 30-07-2016 11:10:00 21.2 C 77 % 17.01 C
3592 30-07-2016 11:15:00 21.3 C 73 % 16.26 C
3593 30-07-2016 11:20:00 21.5 C 66 % 14.88 C
3594 30-07-2016 11:25:00 21.8 C 65 % 14.93 C
3595 30-07-2016 11:30:00 22 C 67 % 15.59 C
3596 30-07-2016 11:35:00 21.9 C 69 % 15.96 C
3597 30-07-2016 11:40:00 21.8 C 68 % 15.63 C
3598 30-07-2016 11:45:00 21.8 C 72 % 16.53 C
3599 30-07-2016 11:50:00 21.6 C 68 % 15.44 C
3600 30-07-2016 11:55:00 21.5 C 66 % 14.88 C
Sensor: Nr:Datum:Temp:Feuchte:Taupunkt:
Aussen-T/F 3601 30-07-2016 12:00:00 21.6 C 67 % 15.21 C
3602 30-07-2016 12:05:00 21.7 C 65 % 14.84 C
3603 30-07-2016 12:10:00 21.8 C 69 % 15.86 C
3604 30-07-2016 12:15:00 22 C 65 % 15.12 C
3605 30-07-2016 12:20:00 22.3 C 67 % 15.88 C
3606 30-07-2016 12:25:00 22.4 C 62 % 14.76 C
3607 30-07-2016 12:30:00 22.5 C 66 % 15.83 C
3608 30-07-2016 12:35:00 22.5 C 65 % 15.59 C
3609 30-07-2016 12:40:00 22.7 C 60 % 14.54 C
3610 30-07-2016 12:45:00 22.8 C 63 % 15.39 C
3611 30-07-2016 12:50:00 22.8 C 61 % 14.89 C
3612 30-07-2016 12:55:00 22.7 C 61 % 14.79 C
3613 30-07-2016 13:00:00 22.6 C 66 % 15.93 C
3614 30-07-2016 13:05:00 22.6 C 63 % 15.2 C
3615 30-07-2016 13:10:00 22.7 C 63 % 15.3 C
3616 30-07-2016 13:15:00 22.7 C 64 % 15.54 C
3617 30-07-2016 13:20:00 22.8 C 63 % 15.39 C
3618 30-07-2016 13:25:00 22.9 C 60 % 14.73 C
3619 30-07-2016 13:30:00 23 C 59 % 14.56 C
3620 30-07-2016 13:35:00 23.2 C 67 % 16.73 C
3621 30-07-2016 13:40:00 23.2 C 64 % 16.01 C
3622 30-07-2016 13:45:00 23.2 C 60 % 15.01 C
3623 30-07-2016 13:50:00 23.1 C 60 % 14.91 C
3624 30-07-2016 13:55:00 23.1 C 64 % 15.92 C
3625 30-07-2016 14:00:00 23.2 C 61 % 15.26 C
Sensor: Nr:Datum:Temp:Feuchte:Taupunkt:
Aussen-T/F 3626 30-07-2016 14:05:00 23.3 C 62 % 15.61 C
3627 30-07-2016 14:10:00 23.3 C 60 % 15.1 C
3628 30-07-2016 14:15:00 23.3 C 61 % 15.36 C
3629 30-07-2016 14:20:00 23.4 C 61 % 15.45 C
3630 30-07-2016 14:25:00 23.5 C 63 % 16.05 C
3631 30-07-2016 14:30:00 23.6 C 66 % 16.88 C
3632 30-07-2016 14:35:00 23.7 C 63 % 16.24 C
3633 30-07-2016 14:40:00 23.8 C 64 % 16.58 C
3634 30-07-2016 14:45:00 23.9 C 62 % 16.18 C
3635 30-07-2016 14:50:00 23.8 C 62 % 16.08 C
3636 30-07-2016 14:55:00 23.8 C 66 % 17.07 C
3637 30-07-2016 15:00:00 23.8 C 71 % 18.22 C
3638 30-07-2016 15:05:00 23.7 C 61 % 15.73 C
3639 30-07-2016 15:10:00 23.7 C 59 % 15.21 C
3640 30-07-2016 15:15:00 23.8 C 69 % 17.77 C
3641 30-07-2016 15:20:00 23.8 C 67 % 17.3 C
3642 30-07-2016 15:25:00 23.8 C 68 % 17.54 C
3643 30-07-2016 15:30:00 23.8 C 67 % 17.3 C
3644 30-07-2016 15:35:00 23.8 C 65 % 16.83 C
3645 30-07-2016 15:40:00 23.8 C 67 % 17.3 C
3646 30-07-2016 15:45:00 23.8 C 65 % 16.83 C
3647 30-07-2016 15:50:00 23.8 C 63 % 16.33 C
3648 30-07-2016 15:55:00 24 C 62 % 16.27 C
3649 30-07-2016 16:00:00 24.2 C 64 % 16.96 C
3650 30-07-2016 16:05:00 24.2 C 68 % 17.92 C
Sensor: Nr:Datum:Temp:Feuchte:Taupunkt:
Aussen-T/F 3651 30-07-2016 16:10:00 24.3 C 65 % 17.3 C
3652 30-07-2016 16:15:00 24.4 C 67 % 17.87 C
3653 30-07-2016 16:20:00 24.5 C 64 % 17.24 C
3654 30-07-2016 16:25:00 24.7 C 62 % 16.93 C
3655 30-07-2016 16:30:00 25 C 64 % 17.72 C
3656 30-07-2016 16:35:00 25.2 C 56 % 15.8 C
3657 30-07-2016 16:40:00 25.2 C 55 % 15.52 C
3658 30-07-2016 16:45:00 25.2 C 58 % 16.35 C
3659 30-07-2016 16:50:00 25.1 C 68 % 18.78 C
3660 30-07-2016 16:55:00 24.8 C 55 % 15.15 C
3661 30-07-2016 17:00:00 24.8 C 56 % 15.43 C
3662 30-07-2016 17:05:00 24.9 C 58 % 16.07 C
3663 30-07-2016 17:10:00 24.9 C 55 % 15.24 C
3664 30-07-2016 17:15:00 25.1 C 65 % 18.06 C
3665 30-07-2016 17:20:00 25.3 C 59 % 16.71 C
3666 30-07-2016 17:25:00 25 C 54 % 15.05 C
3667 30-07-2016 17:30:00 24.9 C 67 % 18.35 C
3668 30-07-2016 17:35:00 24.8 C 56 % 15.43 C
3669 30-07-2016 17:40:00 25 C 54 % 15.05 C
3670 30-07-2016 17:45:00 25.3 C 55 % 15.61 C
3671 30-07-2016 17:50:00 25.6 C 53 % 15.31 C
3672 30-07-2016 17:55:00 25.2 C 58 % 16.35 C
3673 30-07-2016 18:00:00 24.9 C 63 % 17.37 C
3674 30-07-2016 18:05:00 24.5 C 56 % 15.15 C
3675 30-07-2016 18:10:00 24.3 C 57 % 15.24 C
Sensor: Nr:Datum:Temp:Feuchte:Taupunkt:
Aussen-T/F 3676 30-07-2016 18:15:00 24.2 C 58 % 15.42 C
3677 30-07-2016 18:20:00 24.1 C 68 % 17.82 C
3678 30-07-2016 18:25:00 23.9 C 69 % 17.87 C
3679 30-07-2016 18:30:00 23.7 C 65 % 16.73 C
3680 30-07-2016 18:35:00 23.6 C 70 % 17.81 C
3681 30-07-2016 18:40:00 23.7 C 71 % 18.13 C
3682 30-07-2016 18:45:00 23.7 C 65 % 16.73 C
3683 30-07-2016 18:50:00 23.8 C 58 % 15.04 C
3684 30-07-2016 18:55:00 23.9 C 59 % 15.4 C
3685 30-07-2016 19:00:00 24.2 C 60 % 15.95 C
3686 30-07-2016 19:05:00 24.3 C 57 % 15.24 C
3687 30-07-2016 19:10:00 24.2 C 66 % 17.45 C
3688 30-07-2016 19:15:00 23.9 C 58 % 15.14 C
3689 30-07-2016 19:20:00 23.7 C 62 % 15.99 C
3690 30-07-2016 19:25:00 23.6 C 70 % 17.81 C
3691 30-07-2016 19:30:00 23.3 C 67 % 16.83 C
3692 30-07-2016 19:35:00 23.1 C 70 % 17.33 C
3693 30-07-2016 19:40:00 22.8 C 70 % 17.04 C
3694 30-07-2016 19:45:00 22.6 C 67 % 16.16 C
3695 30-07-2016 19:50:00 22.3 C 71 % 16.79 C
3696 30-07-2016 19:55:00 22.1 C 71 % 16.6 C
3697 30-07-2016 20:00:00 21.8 C 73 % 16.75 C
3698 30-07-2016 20:05:00 21.7 C 75 % 17.07 C
3699 30-07-2016 20:10:00 21.5 C 74 % 16.67 C
3700 30-07-2016 20:15:00 21.4 C 77 % 17.2 C
Sensor: Nr:Datum:Temp:Feuchte:Taupunkt:
Aussen-T/F 3701 30-07-2016 20:20:00 21.3 C 77 % 17.1 C
3702 30-07-2016 20:25:00 21.2 C 78 % 17.21 C
3703 30-07-2016 20:30:00 21.2 C 77 % 17.01 C
3704 30-07-2016 20:35:00 21 C 77 % 16.81 C
3705 30-07-2016 20:40:00 20.8 C 77 % 16.62 C
3706 30-07-2016 20:45:00 20.6 C 77 % 16.43 C
3707 30-07-2016 20:50:00 20.4 C 77 % 16.23 C
3708 30-07-2016 20:55:00 20.3 C 77 % 16.14 C
3709 30-07-2016 21:00:00 20.1 C 78 % 16.14 C
3710 30-07-2016 21:05:00 19.8 C 79 % 16.05 C
3711 30-07-2016 21:10:00 19.7 C 79 % 15.96 C
3712 30-07-2016 21:15:00 19.6 C 80 % 16.06 C
3713 30-07-2016 21:20:00 19.4 C 80 % 15.86 C
3714 30-07-2016 21:25:00 19.3 C 81 % 15.96 C
3715 30-07-2016 21:30:00 19.1 C 81 % 15.76 C
3716 30-07-2016 21:35:00 19 C 82 % 15.86 C
3717 30-07-2016 21:40:00 18.9 C 82 % 15.76 C
3718 30-07-2016 21:45:00 18.9 C 83 % 15.95 C
3719 30-07-2016 21:50:00 18.8 C 83 % 15.85 C
3720 30-07-2016 21:55:00 18.8 C 83 % 15.85 C
3721 30-07-2016 22:00:00 18.7 C 83 % 15.75 C
3722 30-07-2016 22:05:00 18.7 C 83 % 15.75 C
3723 30-07-2016 22:10:00 18.7 C 83 % 15.75 C
3724 30-07-2016 22:15:00 18.7 C 84 % 15.94 C
3725 30-07-2016 22:20:00 18.7 C 84 % 15.94 C
Sensor: Nr:Datum:Temp:Feuchte:Taupunkt:
Aussen-T/F 3726 30-07-2016 22:25:00 18.7 C 84 % 15.94 C
3727 30-07-2016 22:30:00 18.7 C 84 % 15.94 C
3728 30-07-2016 22:35:00 18.6 C 84 % 15.84 C
3729 30-07-2016 22:40:00 18.6 C 84 % 15.84 C
3730 30-07-2016 22:45:00 18.6 C 84 % 15.84 C
3731 30-07-2016 22:50:00 18.5 C 84 % 15.75 C
3732 30-07-2016 22:55:00 18.4 C 84 % 15.65 C
3733 30-07-2016 23:00:00 18.4 C 84 % 15.65 C
3734 30-07-2016 23:05:00 18.3 C 84 % 15.55 C
3735 30-07-2016 23:10:00 18.3 C 84 % 15.55 C
3736 30-07-2016 23:15:00 18.2 C 84 % 15.45 C
3737 30-07-2016 23:20:00 18.2 C 84 % 15.45 C
3738 30-07-2016 23:25:00 18.1 C 84 % 15.35 C
3739 30-07-2016 23:30:00 18.1 C 85 % 15.54 C
3740 30-07-2016 23:35:00 18.1 C 85 % 15.54 C
3741 30-07-2016 23:40:00 17.9 C 85 % 15.34 C
3742 30-07-2016 23:45:00 17.9 C 85 % 15.34 C
3743 30-07-2016 23:50:00 17.8 C 85 % 15.25 C
3744 30-07-2016 23:55:00 17.8 C 86 % 15.43 C
3745 31-07-2016 00:00:00 17.7 C 87 % 15.51 C
3746 31-07-2016 00:05:00 17.7 C 87 % 15.51 C
3747 31-07-2016 00:10:00 17.7 C 87 % 15.51 C
3748 31-07-2016 00:15:00 17.6 C 88 % 15.59 C
3749 31-07-2016 00:20:00 17.5 C 88 % 15.49 C
3750 31-07-2016 00:25:00 17.4 C 88 % 15.39 C
Sensor: Nr:Datum:Temp:Feuchte:Taupunkt:
Aussen-T/F 3751 31-07-2016 00:30:00 17.4 C 89 % 15.57 C
3752 31-07-2016 00:35:00 17.3 C 89 % 15.47 C
3753 31-07-2016 00:40:00 17.3 C 89 % 15.47 C
3754 31-07-2016 00:45:00 17.2 C 89 % 15.37 C
3755 31-07-2016 00:50:00 17.2 C 89 % 15.37 C
3756 31-07-2016 00:55:00 17.1 C 89 % 15.27 C
3757 31-07-2016 01:00:00 17.1 C 89 % 15.27 C
3758 31-07-2016 01:05:00 16.9 C 89 % 15.08 C
3759 31-07-2016 01:10:00 16.8 C 89 % 14.98 C
3760 31-07-2016 01:15:00 16.8 C 89 % 14.98 C
3761 31-07-2016 01:20:00 16.7 C 89 % 14.88 C
3762 31-07-2016 01:25:00 16.6 C 90 % 14.95 C
3763 31-07-2016 01:30:00 16.4 C 90 % 14.76 C
3764 31-07-2016 01:35:00 16.4 C 90 % 14.76 C
3765 31-07-2016 01:40:00 16.4 C 91 % 14.93 C
3766 31-07-2016 01:45:00 16.4 C 91 % 14.93 C
3767 31-07-2016 01:50:00 16.4 C 91 % 14.93 C
3768 31-07-2016 01:55:00 16.3 C 91 % 14.83 C
3769 31-07-2016 02:00:00 16.3 C 91 % 14.83 C
3770 31-07-2016 02:05:00 16.4 C 92 % 15.1 C
3771 31-07-2016 02:10:00 16.4 C 92 % 15.1 C
3772 31-07-2016 02:15:00 16.4 C 92 % 15.1 C
3773 31-07-2016 02:20:00 16.4 C 92 % 15.1 C
3774 31-07-2016 02:25:00 16.5 C 92 % 15.2 C
3775 31-07-2016 02:30:00 16.4 C 92 % 15.1 C
Sensor: Nr:Datum:Temp:Feuchte:Taupunkt:
Aussen-T/F 3776 31-07-2016 02:35:00 16.4 C 92 % 15.1 C
3777 31-07-2016 02:40:00 16.4 C 92 % 15.1 C
3778 31-07-2016 02:45:00 16.3 C 92 % 15 C
3779 31-07-2016 02:50:00 16.3 C 92 % 15 C
3780 31-07-2016 02:55:00 16.3 C 92 % 15 C
3781 31-07-2016 03:00:00 16.3 C 92 % 15 C
3782 31-07-2016 03:05:00 16.3 C 92 % 15 C
3783 31-07-2016 03:10:00 16.2 C 92 % 14.9 C
3784 31-07-2016 03:15:00 16.1 C 92 % 14.8 C
3785 31-07-2016 03:20:00 16.1 C 92 % 14.8 C
3786 31-07-2016 03:25:00 16 C 92 % 14.7 C
3787 31-07-2016 03:30:00 16 C 92 % 14.7 C
3788 31-07-2016 03:35:00 16 C 92 % 14.7 C
3789 31-07-2016 03:40:00 16 C 92 % 14.7 C
3790 31-07-2016 03:45:00 16 C 92 % 14.7 C
3791 31-07-2016 03:50:00 16 C 92 % 14.7 C
3792 31-07-2016 03:55:00 16 C 93 % 14.87 C
3793 31-07-2016 04:00:00 16 C 92 % 14.7 C
3794 31-07-2016 04:05:00 15.9 C 92 % 14.6 C
3795 31-07-2016 04:10:00 15.9 C 92 % 14.6 C
3796 31-07-2016 04:15:00 15.9 C 93 % 14.77 C
3797 31-07-2016 04:20:00 15.9 C 93 % 14.77 C
3798 31-07-2016 04:25:00 15.9 C 93 % 14.77 C
3799 31-07-2016 04:30:00 15.9 C 93 % 14.77 C
3800 31-07-2016 04:35:00 15.9 C 93 % 14.77 C
Sensor: Nr:Datum:Temp:Feuchte:Taupunkt:
Aussen-T/F 3801 31-07-2016 04:40:00 15.9 C 93 % 14.77 C
3802 31-07-2016 04:45:00 15.9 C 93 % 14.77 C
3803 31-07-2016 04:50:00 15.8 C 93 % 14.67 C
3804 31-07-2016 04:55:00 15.9 C 93 % 14.77 C
3805 31-07-2016 05:00:00 15.9 C 93 % 14.77 C
3806 31-07-2016 05:05:00 15.9 C 93 % 14.77 C
3807 31-07-2016 05:10:00 15.9 C 93 % 14.77 C
3808 31-07-2016 05:15:00 15.9 C 93 % 14.77 C
3809 31-07-2016 05:20:00 15.8 C 93 % 14.67 C
3810 31-07-2016 05:25:00 15.8 C 93 % 14.67 C
3811 31-07-2016 05:30:00 15.8 C 93 % 14.67 C
3812 31-07-2016 05:35:00 15.7 C 93 % 14.57 C
3813 31-07-2016 05:40:00 15.7 C 93 % 14.57 C
3814 31-07-2016 05:45:00 15.7 C 93 % 14.57 C
3815 31-07-2016 05:50:00 15.6 C 93 % 14.47 C
3816 31-07-2016 05:55:00 15.6 C 93 % 14.47 C
3817 31-07-2016 06:00:00 15.6 C 93 % 14.47 C
3818 31-07-2016 06:05:00 15.6 C 93 % 14.47 C
3819 31-07-2016 06:10:00 15.6 C 94 % 14.64 C
3820 31-07-2016 06:15:00 15.6 C 94 % 14.64 C
3821 31-07-2016 06:20:00 15.6 C 94 % 14.64 C
3822 31-07-2016 06:25:00 15.6 C 94 % 14.64 C
3823 31-07-2016 06:30:00 15.7 C 94 % 14.74 C
3824 31-07-2016 06:35:00 15.7 C 94 % 14.74 C
3825 31-07-2016 06:40:00 15.7 C 94 % 14.74 C
Sensor: Nr:Datum:Temp:Feuchte:Taupunkt:
Aussen-T/F 3826 31-07-2016 06:45:00 15.8 C 94 % 14.84 C
3827 31-07-2016 06:50:00 15.8 C 94 % 14.84 C
3828 31-07-2016 06:55:00 15.9 C 94 % 14.94 C
3829 31-07-2016 07:00:00 15.9 C 94 % 14.94 C
3830 31-07-2016 07:05:00 16 C 94 % 15.03 C
3831 31-07-2016 07:10:00 16.1 C 94 % 15.13 C
3832 31-07-2016 07:15:00 16.1 C 94 % 15.13 C
3833 31-07-2016 07:20:00 16.1 C 94 % 15.13 C
3834 31-07-2016 07:25:00 16.2 C 94 % 15.23 C
3835 31-07-2016 07:30:00 16.3 C 94 % 15.33 C
3836 31-07-2016 07:35:00 16.4 C 94 % 15.43 C
3837 31-07-2016 07:40:00 16.5 C 93 % 15.36 C
3838 31-07-2016 07:45:00 16.6 C 93 % 15.46 C
3839 31-07-2016 07:50:00 16.7 C 93 % 15.56 C
3840 31-07-2016 07:55:00 16.7 C 93 % 15.56 C
3841 31-07-2016 08:00:00 16.8 C 92 % 15.49 C
3842 31-07-2016 08:05:00 16.9 C 92 % 15.59 C
3843 31-07-2016 08:10:00 16.9 C 91 % 15.42 C
3844 31-07-2016 08:15:00 17.1 C 91 % 15.62 C
3845 31-07-2016 08:20:00 17.2 C 91 % 15.72 C
3846 31-07-2016 08:25:00 17.3 C 91 % 15.82 C
3847 31-07-2016 08:30:00 17.4 C 91 % 15.92 C
3848 31-07-2016 08:35:00 17.5 C 90 % 15.84 C
3849 31-07-2016 08:40:00 17.6 C 91 % 16.11 C
3850 31-07-2016 08:45:00 17.8 C 89 % 15.96 C
Sensor: Nr:Datum:Temp:Feuchte:Taupunkt:
Aussen-T/F 3851 31-07-2016 08:50:00 17.9 C 88 % 15.88 C
3852 31-07-2016 08:55:00 18.1 C 86 % 15.72 C
3853 31-07-2016 09:00:00 18.3 C 84 % 15.55 C
3854 31-07-2016 09:05:00 18.4 C 84 % 15.65 C
3855 31-07-2016 09:10:00 18.6 C 84 % 15.84 C
3856 31-07-2016 09:15:00 18.7 C 83 % 15.75 C
3857 31-07-2016 09:20:00 18.9 C 84 % 16.14 C
3858 31-07-2016 09:25:00 19 C 82 % 15.86 C
3859 31-07-2016 09:30:00 19.2 C 82 % 16.05 C
3860 31-07-2016 09:35:00 19.2 C 81 % 15.86 C
3861 31-07-2016 09:40:00 19.4 C 80 % 15.86 C
3862 31-07-2016 09:45:00 19.5 C 80 % 15.96 C
3863 31-07-2016 09:50:00 19.6 C 80 % 16.06 C
3864 31-07-2016 09:55:00 19.7 C 79 % 15.96 C
3865 31-07-2016 10:00:00 19.7 C 80 % 16.15 C
3866 31-07-2016 10:05:00 19.5 C 79 % 15.76 C
3867 31-07-2016 10:10:00 19.4 C 79 % 15.66 C
3868 31-07-2016 10:15:00 19.3 C 80 % 15.76 C
3869 31-07-2016 10:20:00 19.3 C 80 % 15.76 C
3870 31-07-2016 10:25:00 19.3 C 80 % 15.76 C
3871 31-07-2016 10:30:00 19.4 C 80 % 15.86 C
3872 31-07-2016 10:35:00 19.4 C 80 % 15.86 C
3873 31-07-2016 10:40:00 19.4 C 80 % 15.86 C
3874 31-07-2016 10:45:00 19.6 C 79 % 15.86 C
3875 31-07-2016 10:50:00 19.8 C 78 % 15.85 C